Wetterdaten: Samstag, 24.06.2017
Datum Zeit Temp. A. Pool Temp. Feuchte A. Luftdruck Regen Wind Richtung Richtung Sonnenschein ET UV Solar Taupunkt Windchill Windben Empfang
24.06.2017 00:00 20,9 C 27,8 C 59 % 1014,1 hPa 0,0 l/m 7,9 km/h (2 Bft) S-SW 209 0 min 0,000 mm 0,0 UV-I 0 W/m 12,6 C 20,3 C 9,7 km/h (2 Bft) 93,75 %
24.06.2017 00:02 21,1 C 27,8 C 58 % 1014,1 hPa 0,0 l/m 8,4 km/h (2 Bft) S-SW 213 0 min 0,000 mm 0,0 UV-I 0 W/m 12,5 C 20,4 C 12,9 km/h (3 Bft) 94,44 %
24.06.2017 00:04 21,2 C 27,8 C 58 % 1014,1 hPa 0,0 l/m 7,6 km/h (2 Bft) SW 222 0 min 0,000 mm 0,0 UV-I 0 W/m 12,6 C 20,8 C 12,9 km/h (3 Bft) 95,74 %
24.06.2017 00:06 21,4 C 27,8 C 57 % 1014,1 hPa 0,0 l/m 7,9 km/h (2 Bft) SW 220 0 min 0,000 mm 0,0 UV-I 0 W/m 12,5 C 20,9 C 12,9 km/h (3 Bft) 95,83 %
24.06.2017 00:08 21,5 C 27,8 C 57 % 1014,1 hPa 0,0 l/m 7,6 km/h (2 Bft) W-SW 238 0 min 0,000 mm 0,0 UV-I 0 W/m 12,6 C 21,1 C 11,3 km/h (2 Bft) 96,00 %
24.06.2017 00:10 21,6 C 27,8 C 56 % 1014,1 hPa 0,0 l/m 7,2 km/h (2 Bft) W-SW 241 0 min 0,000 mm 0,0 UV-I 0 W/m 12,4 C 21,3 C 11,3 km/h (2 Bft) 95,74 %
24.06.2017 00:12 21,6 C 27,8 C 55 % 1014,0 hPa 0,0 l/m 6,5 km/h (2 Bft) W-SW 247 0 min 0,000 mm 0,0 UV-I 0 W/m 12,2 C 21,6 C 12,9 km/h (3 Bft) 95,74 %
24.06.2017 00:14 21,7 C 27,8 C 55 % 1014,1 hPa 0,0 l/m 8,0 km/h (2 Bft) W 268 0 min 0,000 mm 0,0 UV-I 0 W/m 12,3 C 21,1 C 12,9 km/h (3 Bft) 95,74 %
24.06.2017 00:16 21,7 C 27,8 C 55 % 1014,1 hPa 0,0 l/m 5,5 km/h (1 Bft) W-SW 253 0 min 0,000 mm 0,0 UV-I 0 W/m 12,3 C 21,7 C 8,0 km/h (2 Bft) 94,00 %
24.06.2017 00:18 21,7 C 27,8 C 54 % 1014,0 hPa 0,0 l/m 6,0 km/h (2 Bft) W 262 0 min 0,000 mm 0,0 UV-I 0 W/m 12,0 C 21,7 C 9,7 km/h (2 Bft) 97,37 %
24.06.2017 00:20 21,7 C 27,8 C 54 % 1014,0 hPa 0,0 l/m 5,9 km/h (2 Bft) W-SW 252 0 min 0,000 mm 0,0 UV-I 0 W/m 12,0 C 21,7 C 9,7 km/h (2 Bft) 100,00 %
24.06.2017 00:22 21,7 C 27,8 C 54 % 1014,1 hPa 0,0 l/m 6,4 km/h (2 Bft) W 261 0 min 0,000 mm 0,0 UV-I 0 W/m 12,0 C 21,7 C 11,3 km/h (2 Bft) 100,00 %
24.06.2017 00:24 21,7 C 27,8 C 54 % 1014,1 hPa 0,0 l/m 5,8 km/h (2 Bft) W-SW 251 0 min 0,000 mm 0,0 UV-I 0 W/m 12,0 C 21,7 C 11,3 km/h (2 Bft) 100,00 %
24.06.2017 00:26 21,7 C 27,8 C 53 % 1014,1 hPa 0,0 l/m 5,9 km/h (2 Bft) W 271 0 min 0,000 mm 0,0 UV-I 0 W/m 11,7 C 21,7 C 9,7 km/h (2 Bft) 97,87 %
24.06.2017 00:28 21,8 C 27,8 C 53 % 1014,1 hPa 0,0 l/m 5,6 km/h (1 Bft) W-SW 257 0 min 0,000 mm 0,0 UV-I 0 W/m 11,8 C 21,8 C 8,0 km/h (2 Bft) 95,74 %
24.06.2017 00:30 21,8 C 27,8 C 53 % 1014,1 hPa 0,0 l/m 6,4 km/h (2 Bft) W 269 0 min 0,000 mm 0,0 UV-I 0 W/m 11,8 C 21,8 C 11,3 km/h (2 Bft) 97,87 %
24.06.2017 00:32 21,8 C 27,8 C 52 % 1014,1 hPa 0,0 l/m 5,1 km/h (1 Bft) W-SW 258 0 min 0,000 mm 0,0 UV-I 0 W/m 11,5 C 21,8 C 9,7 km/h (2 Bft) 96,00 %
24.06.2017 00:34 21,8 C 27,8 C 53 % 1014,1 hPa 0,0 l/m 4,8 km/h (1 Bft) W-SW 257 0 min 0,000 mm 0,0 UV-I 0 W/m 11,8 C 21,8 C 6,4 km/h (2 Bft) 96,00 %
24.06.2017 00:36 21,8 C 27,8 C 53 % 1014,1 hPa 0,0 l/m 4,4 km/h (1 Bft) W-SW 255 0 min 0,000 mm 0,0 UV-I 0 W/m 11,8 C 21,8 C 4,8 km/h (1 Bft) 97,87 %
24.06.2017 00:38 21,7 C 27,8 C 53 % 1014,2 hPa 0,0 l/m 5,5 km/h (1 Bft) W-SW 243 0 min 0,000 mm 0,0 UV-I 0 W/m 11,7 C 21,7 C 6,4 km/h (2 Bft) 97,87 %
24.06.2017 00:40 21,7 C 27,8 C 53 % 1014,2 hPa 0,0 l/m 4,4 km/h (1 Bft) W-SW 248 0 min 0,000 mm 0,0 UV-I 0 W/m 11,7 C 21,7 C 6,4 km/h (2 Bft) 93,75 %
24.06.2017 00:42 21,6 C 27,8 C 54 % 1014,2 hPa 0,0 l/m 4,6 km/h (1 Bft) W-SW 238 0 min 0,000 mm 0,0 UV-I 0 W/m 11,9 C 21,6 C 6,4 km/h (2 Bft) 100,00 %
24.06.2017 00:44 21,5 C 27,8 C 55 % 1014,2 hPa 0,0 l/m 5,1 km/h (1 Bft) SW 236 0 min 0,000 mm 0,0 UV-I 0 W/m 12,1 C 21,5 C 6,4 km/h (2 Bft) 92,00 %
24.06.2017 00:46 21,4 C 27,8 C 54 % 1014,2 hPa 0,0 l/m 3,7 km/h (1 Bft) SW 236 0 min 0,000 mm 0,0 UV-I 0 W/m 11,7 C 21,4 C 4,8 km/h (1 Bft) 96,00 %
24.06.2017 00:48 21,4 C 27,8 C 55 % 1014,2 hPa 0,0 l/m 4,8 km/h (1 Bft) SW 235 0 min 0,000 mm 0,0 UV-I 0 W/m 12,0 C 21,4 C 8,0 km/h (2 Bft) 97,87 %
24.06.2017 00:50 21,4 C 27,8 C 55 % 1014,2 hPa 0,0 l/m 4,4 km/h (1 Bft) SW 220 0 min 0,000 mm 0,0 UV-I 0 W/m 12,0 C 21,4 C 9,7 km/h (2 Bft) 97,87 %
24.06.2017 00:52 21,3 C 27,8 C 54 % 1014,2 hPa 0,0 l/m 5,3 km/h (1 Bft) SW 220 0 min 0,000 mm 0,0 UV-I 0 W/m 11,6 C 21,3 C 8,0 km/h (2 Bft) 95,74 %
24.06.2017 00:54 21,3 C 27,8 C 54 % 1014,3 hPa 0,0 l/m 5,4 km/h (1 Bft) SW 219 0 min 0,000 mm 0,0 UV-I 0 W/m 11,6 C 21,3 C 8,0 km/h (2 Bft) 97,87 %
24.06.2017 00:56 21,3 C 27,8 C 54 % 1014,3 hPa 0,0 l/m 6,0 km/h (2 Bft) SW 219 0 min 0,000 mm 0,0 UV-I 0 W/m 11,6 C 21,3 C 8,0 km/h (2 Bft) 100,00 %
24.06.2017 00:58 21,3 C 27,8 C 54 % 1014,3 hPa 0,0 l/m 5,2 km/h (1 Bft) SW 219 0 min 0,000 mm 0,0 UV-I 0 W/m 11,6 C 21,3 C 8,0 km/h (2 Bft) 97,87 %
24.06.2017 01:00 21,3 C 27,8 C 55 % 1014,3 hPa 0,0 l/m 4,9 km/h (1 Bft) SW 219 0 min 0,051 mm 0,0 UV-I 0 W/m 11,9 C 21,3 C 6,4 km/h (2 Bft) 97,87 %
24.06.2017 01:02 21,3 C 27,8 C 55 % 1014,3 hPa 0,0 l/m 4,8 km/h (1 Bft) SW 217 0 min 0,000 mm 0,0 UV-I 0 W/m 11,9 C 21,3 C 8,0 km/h (2 Bft) 97,87 %
24.06.2017 01:04 21,2 C 27,8 C 55 % 1014,3 hPa 0,0 l/m 4,8 km/h (1 Bft) SW 214 0 min 0,000 mm 0,0 UV-I 0 W/m 11,8 C 21,2 C 6,4 km/h (2 Bft) 100,00 %
24.06.2017 01:06 21,1 C 27,8 C 56 % 1014,4 hPa 0,0 l/m 6,3 km/h (2 Bft) S-SW 213 0 min 0,000 mm 0,0 UV-I 0 W/m 12,0 C 21,1 C 9,7 km/h (2 Bft) 97,14 %
24.06.2017 01:08 21,1 C 27,8 C 56 % 1014,3 hPa 0,0 l/m 4,4 km/h (1 Bft) S 190 0 min 0,000 mm 0,0 UV-I 0 W/m 12,0 C 21,1 C 6,4 km/h (2 Bft) 96,00 %
24.06.2017 01:10 21,0 C 27,8 C 56 % 1014,4 hPa 0,0 l/m 4,2 km/h (1 Bft) S-SW 194 0 min 0,000 mm 0,0 UV-I 0 W/m 11,9 C 21,0 C 6,4 km/h (2 Bft) 97,87 %
24.06.2017 01:12 20,9 C 27,8 C 57 % 1014,4 hPa 0,0 l/m 4,0 km/h (1 Bft) S-SW 194 0 min 0,000 mm 0,0 UV-I 0 W/m 12,1 C 20,9 C 6,4 km/h (2 Bft) 97,92 %
24.06.2017 01:14 20,9 C 27,8 C 57 % 1014,4 hPa 0,0 l/m 6,1 km/h (2 Bft) S-SW 207 0 min 0,000 mm 0,0 UV-I 0 W/m 12,1 C 20,9 C 9,7 km/h (2 Bft) 97,87 %
24.06.2017 01:16 20,9 C 27,8 C 57 % 1014,5 hPa 0,0 l/m 7,2 km/h (2 Bft) SW 225 0 min 0,000 mm 0,0 UV-I 0 W/m 12,1 C 20,6 C 9,7 km/h (2 Bft) 97,87 %
24.06.2017 01:18 20,9 C 27,8 C 57 % 1014,5 hPa 0,0 l/m 6,9 km/h (2 Bft) SW 228 0 min 0,000 mm 0,0 UV-I 0 W/m 12,1 C 20,7 C 9,7 km/h (2 Bft) 100,00 %
24.06.2017 01:20 21,0 C 27,8 C 57 % 1014,5 hPa 0,0 l/m 6,6 km/h (2 Bft) S-SW 213 0 min 0,000 mm 0,0 UV-I 0 W/m 12,1 C 20,9 C 9,7 km/h (2 Bft) 94,00 %
24.06.2017 01:22 21,1 C 27,8 C 57 % 1014,5 hPa 0,0 l/m 7,0 km/h (2 Bft) SW 219 0 min 0,000 mm 0,0 UV-I 0 W/m 12,2 C 20,9 C 9,7 km/h (2 Bft) 98,00 %
24.06.2017 01:24 21,1 C 27,8 C 57 % 1014,5 hPa 0,0 l/m 7,0 km/h (2 Bft) SW 220 0 min 0,000 mm 0,0 UV-I 0 W/m 12,2 C 20,9 C 9,7 km/h (2 Bft) 97,37 %
24.06.2017 01:26 21,1 C 27,8 C 57 % 1014,5 hPa 0,0 l/m 6,9 km/h (2 Bft) SW 226 0 min 0,000 mm 0,0 UV-I 0 W/m 12,2 C 20,9 C 9,7 km/h (2 Bft) 98,11 %
24.06.2017 01:28 21,1 C 27,8 C 57 % 1014,4 hPa 0,0 l/m 5,6 km/h (1 Bft) SW 225 0 min 0,000 mm 0,0 UV-I 0 W/m 12,2 C 21,1 C 8,0 km/h (2 Bft) 97,87 %
24.06.2017 01:30 21,1 C 27,8 C 57 % 1014,5 hPa 0,0 l/m 5,8 km/h (2 Bft) S-SW 213 0 min 0,000 mm 0,0 UV-I 0 W/m 12,2 C 21,1 C 9,7 km/h (2 Bft) 100,00 %
24.06.2017 01:32 21,1 C 27,8 C 57 % 1014,5 hPa 0,0 l/m 6,9 km/h (2 Bft) SW 222 0 min 0,000 mm 0,0 UV-I 0 W/m 12,2 C 20,9 C 9,7 km/h (2 Bft) 97,87 %
24.06.2017 01:34 21,1 C 27,8 C 57 % 1014,5 hPa 0,0 l/m 6,1 km/h (2 Bft) S-SW 213 0 min 0,000 mm 0,0 UV-I 0 W/m 12,2 C 21,1 C 8,0 km/h (2 Bft) 100,00 %
24.06.2017 01:36 21,1 C 27,8 C 57 % 1014,5 hPa 0,0 l/m 7,0 km/h (2 Bft) SW 233 0 min 0,000 mm 0,0 UV-I 0 W/m 12,2 C 20,9 C 9,7 km/h (2 Bft) 95,74 %
24.06.2017 01:38 21,1 C 27,8 C 58 % 1014,5 hPa 0,0 l/m 6,6 km/h (2 Bft) S-SW 211 0 min 0,000 mm 0,0 UV-I 0 W/m 12,5 C 21,0 C 8,0 km/h (2 Bft) 97,87 %
24.06.2017 01:40 21,1 C 27,8 C 58 % 1014,5 hPa 0,0 l/m 7,2 km/h (2 Bft) SW 229 0 min 0,000 mm 0,0 UV-I 0 W/m 12,5 C 20,8 C 9,7 km/h (2 Bft) 95,74 %
24.06.2017 01:42 21,1 C 27,8 C 58 % 1014,5 hPa 0,0 l/m 7,8 km/h (2 Bft) SW 232 0 min 0,000 mm 0,0 UV-I 0 W/m 12,5 C 20,6 C 12,9 km/h (3 Bft) 100,00 %
24.06.2017 01:44 21,1 C 27,8 C 59 % 1014,5 hPa 0,0 l/m 7,9 km/h (2 Bft) W-SW 249 0 min 0,000 mm 0,0 UV-I 0 W/m 12,8 C 20,5 C 14,5 km/h (3 Bft) 91,49 %
24.06.2017 01:46 21,1 C 27,8 C 59 % 1014,5 hPa 0,0 l/m 8,0 km/h (2 Bft) W-SW 238 0 min 0,000 mm 0,0 UV-I 0 W/m 12,8 C 20,5 C 12,9 km/h (3 Bft) 97,87 %
24.06.2017 01:48 21,1 C 27,8 C 59 % 1014,5 hPa 0,0 l/m 6,9 km/h (2 Bft) SW 232 0 min 0,000 mm 0,0 UV-I 0 W/m 12,8 C 20,9 C 12,9 km/h (3 Bft) 95,74 %
24.06.2017 01:50 21,1 C 27,8 C 60 % 1014,5 hPa 0,0 l/m 7,3 km/h (2 Bft) SW 219 0 min 0,000 mm 0,0 UV-I 0 W/m 13,0 C 20,8 C 9,7 km/h (2 Bft) 90,00 %
24.06.2017 01:52 21,1 C 27,8 C 60 % 1014,4 hPa 0,0 l/m 6,0 km/h (2 Bft) SW 234 0 min 0,000 mm 0,0 UV-I 0 W/m 13,0 C 21,1 C 8,0 km/h (2 Bft) 98,00 %
24.06.2017 01:54 21,1 C 27,8 C 60 % 1014,5 hPa 0,0 l/m 6,2 km/h (2 Bft) SW 229 0 min 0,000 mm 0,0 UV-I 0 W/m 13,0 C 21,1 C 8,0 km/h (2 Bft) 91,49 %
24.06.2017 01:56 21,0 C 27,8 C 61 % 1014,4 hPa 0,0 l/m 6,0 km/h (2 Bft) SW 229 0 min 0,000 mm 0,0 UV-I 0 W/m 13,2 C 21,0 C 8,0 km/h (2 Bft) 95,83 %
24.06.2017 01:58 21,0 C 27,8 C 61 % 1014,4 hPa 0,0 l/m 4,5 km/h (1 Bft) SW 234 0 min 0,000 mm 0,0 UV-I 0 W/m 13,2 C 21,0 C 6,4 km/h (2 Bft) 95,92 %
24.06.2017 02:00 20,9 C 27,8 C 61 % 1014,5 hPa 0,0 l/m 5,3 km/h (1 Bft) W-SW 247 0 min 0,000 mm 0,0 UV-I 0 W/m 13,1 C 20,9 C 8,0 km/h (2 Bft) 94,44 %
24.06.2017 02:02 20,8 C 27,8 C 62 % 1014,4 hPa 0,0 l/m 5,5 km/h (1 Bft) W-SW 246 0 min 0,051 mm 0,0 UV-I 0 W/m 13,2 C 20,8 C 6,4 km/h (2 Bft) 96,00 %
24.06.2017 02:04 20,8 C 27,8 C 62 % 1014,5 hPa 0,0 l/m 5,9 km/h (2 Bft) W-SW 240 0 min 0,000 mm 0,0 UV-I 0 W/m 13,2 C 20,8 C 8,0 km/h (2 Bft) 93,62 %
24.06.2017 02:06 20,7 C 27,8 C 63 % 1014,4 hPa 0,0 l/m 7,2 km/h (2 Bft) W-SW 247 0 min 0,000 mm 0,0 UV-I 0 W/m 13,4 C 20,4 C 11,3 km/h (2 Bft) 95,74 %
24.06.2017 02:08 20,7 C 27,8 C 63 % 1014,4 hPa 0,0 l/m 5,2 km/h (1 Bft) W-SW 246 0 min 0,000 mm 0,0 UV-I 0 W/m 13,4 C 20,7 C 6,4 km/h (2 Bft) 97,87 %
24.06.2017 02:10 20,6 C 27,8 C 63 % 1014,5 hPa 0,0 l/m 5,8 km/h (2 Bft) W-SW 246 0 min 0,000 mm 0,0 UV-I 0 W/m 13,3 C 20,6 C 8,0 km/h (2 Bft) 97,87 %
24.06.2017 02:12 20,6 C 27,8 C 64 % 1014,5 hPa 0,0 l/m 4,9 km/h (1 Bft) W-SW 247 0 min 0,000 mm 0,0 UV-I 0 W/m 13,5 C 20,6 C 8,0 km/h (2 Bft) 97,87 %
24.06.2017 02:14 20,6 C 27,8 C 64 % 1014,5 hPa 0,0 l/m 4,6 km/h (1 Bft) W-SW 247 0 min 0,000 mm 0,0 UV-I 0 W/m 13,5 C 20,6 C 6,4 km/h (2 Bft) 97,87 %
24.06.2017 02:16 20,6 C 27,8 C 64 % 1014,5 hPa 0,0 l/m 5,7 km/h (1 Bft) W-SW 242 0 min 0,000 mm 0,0 UV-I 0 W/m 13,5 C 20,6 C 8,0 km/h (2 Bft) 100,00 %
24.06.2017 02:18 20,5 C 27,8 C 64 % 1014,5 hPa 0,0 l/m 5,8 km/h (2 Bft) S-SW 211 0 min 0,000 mm 0,0 UV-I 0 W/m 13,5 C 20,5 C 8,0 km/h (2 Bft) 95,74 %
24.06.2017 02:20 20,6 C 27,8 C 64 % 1014,5 hPa 0,0 l/m 4,2 km/h (1 Bft) W-SW 255 0 min 0,000 mm 0,0 UV-I 0 W/m 13,5 C 20,6 C 6,4 km/h (2 Bft) 97,87 %
24.06.2017 02:22 20,5 C 27,8 C 64 % 1014,5 hPa 0,0 l/m 4,6 km/h (1 Bft) W-SW 251 0 min 0,000 mm 0,0 UV-I 0 W/m 13,5 C 20,5 C 8,0 km/h (2 Bft) 97,87 %
24.06.2017 02:24 20,5 C 27,8 C 64 % 1014,5 hPa 0,0 l/m 4,2 km/h (1 Bft) SW 232 0 min 0,000 mm 0,0 UV-I 0 W/m 13,5 C 20,5 C 6,4 km/h (2 Bft) 97,87 %
24.06.2017 02:26 20,5 C 27,8 C 64 % 1014,6 hPa 0,0 l/m 5,5 km/h (1 Bft) W-SW 250 0 min 0,000 mm 0,0 UV-I 0 W/m 13,5 C 20,5 C 11,3 km/h (2 Bft) 97,92 %
24.06.2017 02:28 20,5 C 27,8 C 63 % 1014,6 hPa 0,0 l/m 5,4 km/h (1 Bft) W-SW 251 0 min 0,000 mm 0,0 UV-I 0 W/m 13,2 C 20,5 C 8,0 km/h (2 Bft) 93,62 %
24.06.2017 02:30 20,6 C 27,8 C 63 % 1014,6 hPa 0,0 l/m 4,9 km/h (1 Bft) W 269 0 min 0,000 mm 0,0 UV-I 0 W/m 13,3 C 20,6 C 8,0 km/h (2 Bft) 94,87 %
24.06.2017 02:32 20,5 C 27,8 C 63 % 1014,6 hPa 0,0 l/m 6,0 km/h (2 Bft) SW 223 0 min 0,000 mm 0,0 UV-I 0 W/m 13,2 C 20,5 C 12,9 km/h (3 Bft) 97,87 %
24.06.2017 02:34 20,5 C 27,8 C 63 % 1014,6 hPa 0,0 l/m 5,2 km/h (1 Bft) SW 222 0 min 0,000 mm 0,0 UV-I 0 W/m 13,2 C 20,5 C 8,0 km/h (2 Bft) 94,74 %
24.06.2017 02:36 20,4 C 27,8 C 64 % 1014,7 hPa 0,0 l/m 5,6 km/h (1 Bft) SW 215 0 min 0,000 mm 0,0 UV-I 0 W/m 13,4 C 20,4 C 8,0 km/h (2 Bft) 100,00 %
24.06.2017 02:38 20,4 C 27,8 C 64 % 1014,7 hPa 0,0 l/m 5,8 km/h (2 Bft) W-SW 242 0 min 0,000 mm 0,0 UV-I 0 W/m 13,4 C 20,4 C 8,0 km/h (2 Bft) 97,87 %
24.06.2017 02:40 20,4 C 27,8 C 64 % 1014,7 hPa 0,0 l/m 6,4 km/h (2 Bft) SW 227 0 min 0,000 mm 0,0 UV-I 0 W/m 13,4 C 20,4 C 9,7 km/h (2 Bft) 97,87 %
24.06.2017 02:42 20,4 C 27,8 C 64 % 1014,7 hPa 0,0 l/m 5,6 km/h (1 Bft) SW 230 0 min 0,000 mm 0,0 UV-I 0 W/m 13,4 C 20,4 C 8,0 km/h (2 Bft) 97,87 %
24.06.2017 02:44 20,3 C 27,8 C 65 % 1014,7 hPa 0,0 l/m 6,2 km/h (2 Bft) SW 217 0 min 0,000 mm 0,0 UV-I 0 W/m 13,5 C 20,3 C 9,7 km/h (2 Bft) 94,74 %
24.06.2017 02:46 20,3 C 27,8 C 65 % 1014,7 hPa 0,0 l/m 5,9 km/h (2 Bft) W-SW 238 0 min 0,000 mm 0,0 UV-I 0 W/m 13,5 C 20,3 C 9,7 km/h (2 Bft) 97,87 %
24.06.2017 02:48 20,3 C 27,8 C 65 % 1014,8 hPa 0,0 l/m 6,7 km/h (2 Bft) SW 233 0 min 0,000 mm 0,0 UV-I 0 W/m 13,5 C 20,2 C 9,7 km/h (2 Bft) 100,00 %
24.06.2017 02:50 20,2 C 27,8 C 66 % 1014,8 hPa 0,0 l/m 6,6 km/h (2 Bft) W-SW 239 0 min 0,000 mm 0,0 UV-I 0 W/m 13,6 C 20,1 C 11,3 km/h (2 Bft) 100,00 %
24.06.2017 02:52 20,2 C 27,8 C 66 % 1014,7 hPa 0,0 l/m 6,4 km/h (2 Bft) S-SW 211 0 min 0,000 mm 0,0 UV-I 0 W/m 13,6 C 20,2 C 9,7 km/h (2 Bft) 100,00 %
24.06.2017 02:54 20,2 C 27,8 C 66 % 1014,7 hPa 0,0 l/m 7,1 km/h (2 Bft) SW 232 0 min 0,000 mm 0,0 UV-I 0 W/m 13,6 C 19,9 C 11,3 km/h (2 Bft) 95,74 %
24.06.2017 02:56 20,2 C 27,8 C 66 % 1014,8 hPa 0,0 l/m 7,2 km/h (2 Bft) SW 235 0 min 0,000 mm 0,0 UV-I 0 W/m 13,6 C 19,9 C 11,3 km/h (2 Bft) 96,00 %
24.06.2017 02:58 20,2 C 27,8 C 66 % 1014,8 hPa 0,0 l/m 6,3 km/h (2 Bft) SW 229 0 min 0,000 mm 0,0 UV-I 0 W/m 13,6 C 20,2 C 9,7 km/h (2 Bft) 97,87 %
24.06.2017 03:00 20,2 C 27,8 C 66 % 1014,8 hPa 0,0 l/m 7,3 km/h (2 Bft) SW 219 0 min 0,000 mm 0,0 UV-I 0 W/m 13,6 C 19,8 C 11,3 km/h (2 Bft) 97,14 %
24.06.2017 03:02 20,2 C 27,8 C 66 % 1014,8 hPa 0,0 l/m 5,7 km/h (1 Bft) SW 229 0 min 0,050 mm 0,0 UV-I 0 W/m 13,6 C 20,2 C 8,0 km/h (2 Bft) 100,00 %
24.06.2017 03:04 20,2 C 27,8 C 66 % 1014,8 hPa 0,0 l/m 6,5 km/h (2 Bft) S-SW 211 0 min 0,000 mm 0,0 UV-I 0 W/m 13,6 C 20,2 C 9,7 km/h (2 Bft) 93,62 %
24.06.2017 03:06 20,2 C 27,8 C 67 % 1014,9 hPa 0,0 l/m 5,8 km/h (2 Bft) SW 215 0 min 0,000 mm 0,0 UV-I 0 W/m 13,9 C 20,2 C 8,0 km/h (2 Bft) 97,87 %
24.06.2017 03:08 20,1 C 27,8 C 68 % 1014,8 hPa 0,0 l/m 7,0 km/h (2 Bft) SW 215 0 min 0,000 mm 0,0 UV-I 0 W/m 14,0 C 19,9 C 9,7 km/h (2 Bft) 95,74 %
24.06.2017 03:10 20,1 C 27,8 C 68 % 1014,8 hPa 0,0 l/m 6,7 km/h (2 Bft) SW 231 0 min 0,000 mm 0,0 UV-I 0 W/m 14,0 C 20,0 C 9,7 km/h (2 Bft) 97,22 %
24.06.2017 03:12 20,1 C 27,8 C 69 % 1014,8 hPa 0,0 l/m 5,7 km/h (1 Bft) SW 220 0 min 0,000 mm 0,0 UV-I 0 W/m 14,2 C 20,1 C 8,0 km/h (2 Bft) 95,31 %
24.06.2017 03:14 20,0 C 27,8 C 68 % 1014,8 hPa 0,0 l/m 5,1 km/h (1 Bft) SW 236 0 min 0,000 mm 0,0 UV-I 0 W/m 13,9 C 20,0 C 6,4 km/h (2 Bft) 97,22 %
24.06.2017 03:16 19,9 C 27,8 C 68 % 1014,8 hPa 0,0 l/m 6,9 km/h (2 Bft) W-SW 247 0 min 0,000 mm 0,0 UV-I 0 W/m 13,8 C 19,7 C 11,3 km/h (2 Bft) 94,00 %
24.06.2017 03:18 19,9 C 27,8 C 68 % 1014,8 hPa 0,0 l/m 6,7 km/h (2 Bft) W-SW 248 0 min 0,000 mm 0,0 UV-I 0 W/m 13,8 C 19,8 C 11,3 km/h (2 Bft) 95,74 %
24.06.2017 03:20 19,9 C 27,8 C 67 % 1014,8 hPa 0,0 l/m 6,8 km/h (2 Bft) W-SW 246 0 min 0,000 mm 0,0 UV-I 0 W/m 13,6 C 19,7 C 12,9 km/h (3 Bft) 95,74 %
24.06.2017 03:22 19,9 C 27,8 C 67 % 1014,8 hPa 0,0 l/m 4,9 km/h (1 Bft) W-SW 240 0 min 0,000 mm 0,0 UV-I 0 W/m 13,6 C 19,9 C 8,0 km/h (2 Bft) 93,88 %
24.06.2017 03:24 19,9 C 27,8 C 67 % 1014,8 hPa 0,0 l/m 4,9 km/h (1 Bft) SW 217 0 min 0,000 mm 0,0 UV-I 0 W/m 13,6 C 19,9 C 8,0 km/h (2 Bft) 97,87 %
24.06.2017 03:26 19,9 C 27,8 C 67 % 1014,8 hPa 0,0 l/m 5,4 km/h (1 Bft) W-SW 240 0 min 0,000 mm 0,0 UV-I 0 W/m 13,6 C 19,9 C 8,0 km/h (2 Bft) 91,49 %
24.06.2017 03:28 19,9 C 27,8 C 67 % 1014,8 hPa 0,0 l/m 4,5 km/h (1 Bft) W-SW 242 0 min 0,000 mm 0,0 UV-I 0 W/m 13,6 C 19,9 C 6,4 km/h (2 Bft) 95,74 %
24.06.2017 03:30 19,9 C 27,8 C 68 % 1014,7 hPa 0,0 l/m 5,2 km/h (1 Bft) W-SW 239 0 min 0,000 mm 0,0 UV-I 0 W/m 13,8 C 19,9 C 8,0 km/h (2 Bft) 92,00 %
24.06.2017 03:32 19,8 C 27,8 C 68 % 1014,8 hPa 0,0 l/m 5,2 km/h (1 Bft) SW 217 0 min 0,000 mm 0,0 UV-I 0 W/m 13,7 C 19,8 C 8,0 km/h (2 Bft) 95,74 %
24.06.2017 03:34 19,8 C 27,8 C 68 % 1014,8 hPa 0,0 l/m 6,5 km/h (2 Bft) SW 233 0 min 0,000 mm 0,0 UV-I 0 W/m 13,7 C 19,8 C 9,7 km/h (2 Bft) 94,00 %
24.06.2017 03:36 19,8 C 27,8 C 68 % 1014,8 hPa 0,0 l/m 5,1 km/h (1 Bft) SW 219 0 min 0,000 mm 0,0 UV-I 0 W/m 13,7 C 19,8 C 6,4 km/h (2 Bft) 93,62 %
24.06.2017 03:39 19,8 C 27,8 C 68 % 1014,8 hPa 0,0 l/m 6,4 km/h (2 Bft) SW 236 0 min 0,000 mm 0,0 UV-I 0 W/m 13,7 C 19,8 C 9,7 km/h (2 Bft) 92,96 %
24.06.2017 03:40 19,8 C 27,8 C 68 % 1014,8 hPa 0,0 l/m 6,4 km/h (2 Bft) S-SW 202 0 min 0,000 mm 0,0 UV-I 0 W/m 13,7 C 19,8 C 8,0 km/h (2 Bft) 100,00 %
24.06.2017 03:42 19,8 C 27,8 C 68 % 1014,9 hPa 0,0 l/m 6,3 km/h (2 Bft) SW 219 0 min 0,000 mm 0,0 UV-I 0 W/m 13,7 C 19,8 C 11,3 km/h (2 Bft) 92,00 %
24.06.2017 03:44 19,8 C 27,8 C 68 % 1014,8 hPa 0,0 l/m 6,4 km/h (2 Bft) W-SW 243 0 min 0,000 mm 0,0 UV-I 0 W/m 13,7 C 19,8 C 9,7 km/h (2 Bft) 91,49 %
24.06.2017 03:46 19,7 C 27,8 C 68 % 1014,8 hPa 0,0 l/m 5,2 km/h (1 Bft) SW 220 0 min 0,000 mm 0,0 UV-I 0 W/m 13,6 C 19,7 C 8,0 km/h (2 Bft) 95,74 %
24.06.2017 03:48 19,7 C 27,8 C 69 % 1014,8 hPa 0,0 l/m 6,1 km/h (2 Bft) SW 236 0 min 0,000 mm 0,0 UV-I 0 W/m 13,8 C 19,7 C 9,7 km/h (2 Bft) 93,62 %
24.06.2017 03:50 19,6 C 27,8 C 70 % 1014,8 hPa 0,0 l/m 6,1 km/h (2 Bft) SW 235 0 min 0,000 mm 0,0 UV-I 0 W/m 14,0 C 19,6 C 8,0 km/h (2 Bft) 95,83 %
24.06.2017 03:52 19,5 C 27,8 C 70 % 1014,8 hPa 0,0 l/m 5,6 km/h (1 Bft) SW 234 0 min 0,000 mm 0,0 UV-I 0 W/m 13,9 C 19,5 C 8,0 km/h (2 Bft) 93,62 %
24.06.2017 03:54 19,4 C 27,8 C 69 % 1014,8 hPa 0,0 l/m 5,4 km/h (1 Bft) SW 225 0 min 0,000 mm 0,0 UV-I 0 W/m 13,6 C 19,4 C 8,0 km/h (2 Bft) 93,62 %
24.06.2017 03:56 19,4 C 27,8 C 70 % 1014,8 hPa 0,0 l/m 5,4 km/h (1 Bft) SW 221 0 min 0,000 mm 0,0 UV-I 0 W/m 13,8 C 19,4 C 8,0 km/h (2 Bft) 93,62 %
24.06.2017 03:58 19,4 C 27,8 C 70 % 1014,8 hPa 0,0 l/m 5,9 km/h (2 Bft) SW 227 0 min 0,000 mm 0,0 UV-I 0 W/m 13,8 C 19,4 C 8,0 km/h (2 Bft) 93,88 %
24.06.2017 04:00 19,4 C 27,8 C 69 % 1014,8 hPa 0,0 l/m 5,4 km/h (1 Bft) SW 225 0 min 0,026 mm 0,0 UV-I 0 W/m 13,6 C 19,4 C 8,0 km/h (2 Bft) 93,62 %
24.06.2017 04:02 19,4 C 27,8 C 69 % 1014,8 hPa 0,0 l/m 6,4 km/h (2 Bft) SW 225 0 min 0,000 mm 0,0 UV-I 0 W/m 13,6 C 19,4 C 8,0 km/h (2 Bft) 92,59 %
24.06.2017 04:04 19,4 C 27,8 C 69 % 1014,8 hPa 0,0 l/m 6,3 km/h (2 Bft) S-SW 213 0 min 0,000 mm 0,0 UV-I 0 W/m 13,6 C 19,4 C 8,0 km/h (2 Bft) 95,74 %
24.06.2017 04:06 19,4 C 27,8 C 70 % 1014,8 hPa 0,0 l/m 5,5 km/h (1 Bft) S-SW 201 0 min 0,000 mm 0,0 UV-I 0 W/m 13,8 C 19,4 C 9,7 km/h (2 Bft) 97,56 %
24.06.2017 04:08 19,3 C 27,8 C 70 % 1014,8 hPa 0,0 l/m 3,6 km/h (1 Bft) S-SW 201 0 min 0,000 mm 0,0 UV-I 0 W/m 13,7 C 19,3 C 6,4 km/h (2 Bft) 96,61 %
24.06.2017 04:10 19,3 C 27,8 C 70 % 1014,9 hPa 0,0 l/m 5,5 km/h (1 Bft) S 190 0 min 0,000 mm 0,0 UV-I 0 W/m 13,7 C 19,3 C 9,7 km/h (2 Bft) 100,00 %
24.06.2017 04:12 19,2 C 27,8 C 70 % 1014,8 hPa 0,0 l/m 4,4 km/h (1 Bft) S-SW 202 0 min 0,000 mm 0,0 UV-I 0 W/m 13,6 C 19,2 C 8,0 km/h (2 Bft) 97,87 %
24.06.2017 04:14 19,2 C 27,8 C 70 % 1014,9 hPa 0,0 l/m 4,6 km/h (1 Bft) S-SW 201 0 min 0,000 mm 0,0 UV-I 0 W/m 13,6 C 19,2 C 6,4 km/h (2 Bft) 100,00 %
24.06.2017 04:16 19,2 C 27,8 C 70 % 1014,9 hPa 0,0 l/m 3,5 km/h (1 Bft) S-SW 201 0 min 0,000 mm 0,0 UV-I 0 W/m 13,6 C 19,2 C 8,0 km/h (2 Bft) 100,00 %
24.06.2017 04:18 19,2 C 27,8 C 70 % 1014,9 hPa 0,0 l/m 6,2 km/h (2 Bft) S-SW 207 0 min 0,000 mm 0,0 UV-I 0 W/m 13,6 C 19,2 C 8,0 km/h (2 Bft) 95,74 %
24.06.2017 04:20 19,2 C 27,8 C 70 % 1014,9 hPa 0,0 l/m 6,0 km/h (2 Bft) S-SW 211 0 min 0,000 mm 0,0 UV-I 0 W/m 13,6 C 19,2 C 8,0 km/h (2 Bft) 100,00 %
24.06.2017 04:22 19,2 C 27,8 C 70 % 1014,9 hPa 0,0 l/m 4,9 km/h (1 Bft) SW 217 0 min 0,000 mm 0,0 UV-I 0 W/m 13,6 C 19,2 C 8,0 km/h (2 Bft) 97,87 %
24.06.2017 04:24 19,2 C 27,8 C 70 % 1014,8 hPa 0,0 l/m 6,8 km/h (2 Bft) S-SW 207 0 min 0,000 mm 0,0 UV-I 0 W/m 13,6 C 19,0 C 11,3 km/h (2 Bft) 97,87 %
24.06.2017 04:26 19,2 C 27,8 C 70 % 1014,8 hPa 0,0 l/m 6,8 km/h (2 Bft) SW 227 0 min 0,000 mm 0,0 UV-I 0 W/m 13,6 C 19,0 C 9,7 km/h (2 Bft) 98,11 %
24.06.2017 04:28 19,2 C 27,8 C 70 % 1014,8 hPa 0,0 l/m 7,0 km/h (2 Bft) S-SW 205 0 min 0,000 mm 0,0 UV-I 0 W/m 13,6 C 18,9 C 11,3 km/h (2 Bft) 97,87 %
24.06.2017 04:30 19,2 C 27,8 C 69 % 1014,8 hPa 0,0 l/m 8,6 km/h (2 Bft) SW 219 0 min 0,000 mm 0,0 UV-I 0 W/m 13,4 C 18,3 C 12,9 km/h (3 Bft) 100,00 %
24.06.2017 04:32 19,3 C 27,8 C 69 % 1014,8 hPa 0,0 l/m 6,1 km/h (2 Bft) SW 216 0 min 0,000 mm 0,0 UV-I 0 W/m 13,5 C 19,3 C 8,0 km/h (2 Bft) 98,21 %
24.06.2017 04:34 19,4 C 27,8 C 68 % 1014,8 hPa 0,0 l/m 5,3 km/h (1 Bft) S-SW 213 0 min 0,000 mm 0,0 UV-I 0 W/m 13,3 C 19,4 C 8,0 km/h (2 Bft) 100,00 %
24.06.2017 04:36 19,4 C 27,8 C 68 % 1014,8 hPa 0,0 l/m 6,3 km/h (2 Bft) S-SW 198 0 min 0,000 mm 0,0 UV-I 0 W/m 13,3 C 19,4 C 9,7 km/h (2 Bft) 97,87 %
24.06.2017 04:38 19,4 C 27,8 C 69 % 1014,8 hPa 0,0 l/m 5,8 km/h (2 Bft) SW 229 0 min 0,000 mm 0,0 UV-I 0 W/m 13,6 C 19,4 C 6,4 km/h (2 Bft) 100,00 %
24.06.2017 04:40 19,4 C 27,8 C 69 % 1014,8 hPa 0,0 l/m 4,0 km/h (1 Bft) SW 229 0 min 0,000 mm 0,0 UV-I 0 W/m 13,6 C 19,4 C 6,4 km/h (2 Bft) 97,87 %
24.06.2017 04:42 19,3 C 27,8 C 69 % 1014,8 hPa 0,0 l/m 3,6 km/h (1 Bft) SW 229 0 min 0,000 mm 0,0 UV-I 0 W/m 13,5 C 19,3 C 6,4 km/h (2 Bft) 97,87 %
24.06.2017 04:44 19,3 C 27,8 C 69 % 1014,8 hPa 0,0 l/m 4,3 km/h (1 Bft) SW 229 0 min 0,000 mm 0,0 UV-I 0 W/m 13,5 C 19,3 C 6,4 km/h (2 Bft) 100,00 %
24.06.2017 04:46 19,3 C 27,8 C 70 % 1014,8 hPa 0,0 l/m 3,6 km/h (1 Bft) SW 229 0 min 0,000 mm 0,0 UV-I 0 W/m 13,7 C 19,3 C 4,8 km/h (1 Bft) 95,74 %
24.06.2017 04:48 19,2 C 27,8 C 70 % 1014,9 hPa 0,0 l/m 4,4 km/h (1 Bft) SW 229 0 min 0,000 mm 0,0 UV-I 0 W/m 13,6 C 19,2 C 6,4 km/h (2 Bft) 97,87 %
24.06.2017 04:50 19,2 C 27,8 C 70 % 1014,8 hPa 0,0 l/m 4,2 km/h (1 Bft) SW 229 0 min 0,000 mm 0,0 UV-I 0 W/m 13,6 C 19,2 C 6,4 km/h (2 Bft) 97,87 %
24.06.2017 04:52 19,2 C 27,8 C 70 % 1014,8 hPa 0,0 l/m 5,1 km/h (1 Bft) SW 229 0 min 0,000 mm 0,0 UV-I 4 W/m 13,6 C 19,2 C 6,4 km/h (2 Bft) 100,00 %
24.06.2017 04:54 19,1 C 27,8 C 71 % 1014,8 hPa 0,0 l/m 6,1 km/h (2 Bft) SW 219 0 min 0,000 mm 0,0 UV-I 5 W/m 13,7 C 19,1 C 8,0 km/h (2 Bft) 97,87 %
24.06.2017 04:56 19,1 C 27,8 C 71 % 1014,9 hPa 0,0 l/m 6,8 km/h (2 Bft) SW 224 0 min 0,000 mm 0,0 UV-I 5 W/m 13,7 C 18,9 C 12,9 km/h (3 Bft) 97,56 %
24.06.2017 04:58 19,1 C 27,8 C 71 % 1014,9 hPa 0,0 l/m 6,8 km/h (2 Bft) W-SW 239 0 min 0,000 mm 0,0 UV-I 7 W/m 13,7 C 18,9 C 11,3 km/h (2 Bft) 100,00 %
24.06.2017 05:00 19,1 C 27,8 C 70 % 1014,9 hPa 0,0 l/m 7,3 km/h (2 Bft) S-SW 210 0 min 0,025 mm 0,0 UV-I 7 W/m 13,5 C 18,7 C 9,7 km/h (2 Bft) 100,00 %
24.06.2017 05:02 19,2 C 27,8 C 70 % 1014,9 hPa 0,0 l/m 7,9 km/h (2 Bft) SW 217 0 min 0,000 mm 0,0 UV-I 7 W/m 13,6 C 18,6 C 11,3 km/h (2 Bft) 100,00 %
24.06.2017 05:04 19,2 C 27,8 C 70 % 1014,9 hPa 0,0 l/m 6,4 km/h (2 Bft) SW 225 0 min 0,000 mm 0,0 UV-I 9 W/m 13,6 C 19,2 C 9,7 km/h (2 Bft) 100,00 %
24.06.2017 05:06 19,3 C 27,8 C 70 % 1014,9 hPa 0,0 l/m 6,2 km/h (2 Bft) S-SW 211 0 min 0,000 mm 0,0 UV-I 11 W/m 13,7 C 19,3 C 9,7 km/h (2 Bft) 100,00 %
24.06.2017 05:08 19,3 C 27,8 C 70 % 1014,9 hPa 0,0 l/m 6,4 km/h (2 Bft) W-SW 239 0 min 0,000 mm 0,0 UV-I 11 W/m 13,7 C 19,3 C 11,3 km/h (2 Bft) 97,96 %
24.06.2017 05:10 19,3 C 27,8 C 70 % 1014,9 hPa 0,0 l/m 6,8 km/h (2 Bft) SW 233 0 min 0,000 mm 0,0 UV-I 12 W/m 13,7 C 19,1 C 9,7 km/h (2 Bft) 98,08 %
24.06.2017 05:12 19,3 C 27,8 C 70 % 1014,9 hPa 0,0 l/m 5,5 km/h (1 Bft) SW 234 0 min 0,000 mm 0,0 UV-I 12 W/m 13,7 C 19,3 C 8,0 km/h (2 Bft) 97,92 %
24.06.2017 05:14 19,2 C 27,8 C 70 % 1014,9 hPa 0,0 l/m 6,4 km/h (2 Bft) SW 227 0 min 0,000 mm 0,0 UV-I 12 W/m 13,6 C 19,2 C 9,7 km/h (2 Bft) 97,87 %
24.06.2017 05:16 19,2 C 27,8 C 70 % 1014,9 hPa 0,0 l/m 6,1 km/h (2 Bft) S-SW 209 0 min 0,000 mm 0,0 UV-I 14 W/m 13,6 C 19,2 C 8,0 km/h (2 Bft) 100,00 %
24.06.2017 05:18 19,2 C 27,8 C 70 % 1014,9 hPa 0,0 l/m 7,3 km/h (2 Bft) SW 225 2 min 0,000 mm 0,0 UV-I 13 W/m 13,6 C 18,8 C 9,7 km/h (2 Bft) 95,74 %
24.06.2017 05:20 19,2 C 27,8 C 70 % 1014,9 hPa 0,0 l/m 7,7 km/h (2 Bft) W-SW 238 0 min 0,000 mm 0,0 UV-I 12 W/m 13,6 C 18,6 C 11,3 km/h (2 Bft) 100,00 %
24.06.2017 05:22 19,2 C 27,8 C 70 % 1014,9 hPa 0,0 l/m 9,2 km/h (2 Bft) S-SW 195 0 min 0,000 mm 0,0 UV-I 12 W/m 13,6 C 18,0 C 14,5 km/h (3 Bft) 95,74 %
24.06.2017 05:24 19,1 C 27,8 C 70 % 1014,9 hPa 0,0 l/m 7,8 km/h (2 Bft) SW 225 0 min 0,000 mm 0,0 UV-I 12 W/m 13,5 C 18,5 C 12,9 km/h (3 Bft) 97,87 %
24.06.2017 05:26 19,1 C 27,8 C 70 % 1015,0 hPa 0,0 l/m 8,2 km/h (2 Bft) SW 234 0 min 0,000 mm 0,0 UV-I 14 W/m 13,5 C 18,3 C 14,5 km/h (3 Bft) 100,00 %
24.06.2017 05:28 19,1 C 27,8 C 70 % 1014,9 hPa 0,0 l/m 7,9 km/h (2 Bft) W-SW 242 0 min 0,000 mm 0,0 UV-I 14 W/m 13,5 C 18,4 C 11,3 km/h (2 Bft) 95,74 %
24.06.2017 05:30 19,1 C 27,8 C 70 % 1014,9 hPa 0,0 l/m 9,4 km/h (2 Bft) SW 234 0 min 0,000 mm 0,0 UV-I 16 W/m 13,5 C 17,9 C 14,5 km/h (3 Bft) 100,00 %
24.06.2017 05:32 19,1 C 27,8 C 70 % 1014,9 hPa 0,0 l/m 7,7 km/h (2 Bft) SW 217 0 min 0,000 mm 0,0 UV-I 17 W/m 13,5 C 18,5 C 11,3 km/h (2 Bft) 97,87 %
24.06.2017 05:34 19,1 C 27,8 C 70 % 1014,9 hPa 0,0 l/m 7,6 km/h (2 Bft) W-SW 248 0 min 0,000 mm 0,0 UV-I 18 W/m 13,5 C 18,6 C 9,7 km/h (2 Bft) 96,00 %
24.06.2017 05:36 19,1 C 27,8 C 70 % 1015,0 hPa 0,0 l/m 6,7 km/h (2 Bft) W-SW 241 0 min 0,000 mm 0,0 UV-I 19 W/m 13,5 C 19,0 C 8,0 km/h (2 Bft) 97,87 %
24.06.2017 05:38 19,1 C 27,8 C 70 % 1014,9 hPa 0,0 l/m 5,4 km/h (1 Bft) SW 227 0 min 0,000 mm 0,0 UV-I 21 W/m 13,5 C 19,1 C 6,4 km/h (2 Bft) 97,56 %
24.06.2017 05:40 19,0 C 27,8 C 71 % 1015,0 hPa 0,0 l/m 4,7 km/h (1 Bft) S-SW 213 0 min 0,000 mm 0,0 UV-I 22 W/m 13,6 C 19,0 C 6,4 km/h (2 Bft) 95,74 %
24.06.2017 05:42 19,0 C 27,8 C 70 % 1015,0 hPa 0,0 l/m 6,2 km/h (2 Bft) SW 229 0 min 0,000 mm 0,0 UV-I 27 W/m 13,4 C 19,0 C 9,7 km/h (2 Bft) 93,62 %
24.06.2017 05:44 19,0 C 27,8 C 71 % 1015,0 hPa 0,0 l/m 6,0 km/h (2 Bft) SW 229 0 min 0,000 mm 0,0 UV-I 34 W/m 13,6 C 19,0 C 8,0 km/h (2 Bft) 95,83 %
24.06.2017 05:46 19,0 C 27,8 C 71 % 1015,0 hPa 0,0 l/m 5,4 km/h (1 Bft) SW 232 0 min 0,000 mm 0,0 UV-I 36 W/m 13,6 C 19,0 C 8,0 km/h (2 Bft) 95,74 %
24.06.2017 05:48 19,0 C 27,8 C 71 % 1015,0 hPa 0,0 l/m 5,5 km/h (1 Bft) S-SW 212 0 min 0,000 mm 0,0 UV-I 43 W/m 13,6 C 19,0 C 8,0 km/h (2 Bft) 95,92 %
24.06.2017 05:50 19,1 C 27,8 C 71 % 1015,1 hPa 0,0 l/m 6,5 km/h (2 Bft) SW 221 0 min 0,000 mm 0,0 UV-I 46 W/m 13,7 C 19,1 C 9,7 km/h (2 Bft) 96,00 %
24.06.2017 05:52 19,2 C 27,8 C 71 % 1015,0 hPa 0,0 l/m 5,6 km/h (1 Bft) SW 235 0 min 0,000 mm 0,0 UV-I 43 W/m 13,8 C 19,2 C 8,0 km/h (2 Bft) 97,87 %
24.06.2017 05:54 19,2 C 27,8 C 71 % 1015,0 hPa 0,0 l/m 6,3 km/h (2 Bft) S-SW 195 0 min 0,000 mm 0,0 UV-I 42 W/m 13,8 C 19,2 C 9,7 km/h (2 Bft) 97,87 %
24.06.2017 05:56 19,3 C 27,8 C 70 % 1015,0 hPa 0,0 l/m 5,9 km/h (2 Bft) SW 225 0 min 0,000 mm 0,0 UV-I 44 W/m 13,7 C 19,3 C 8,0 km/h (2 Bft) 95,74 %
24.06.2017 05:58 19,3 C 27,8 C 70 % 1015,0 hPa 0,0 l/m 6,8 km/h (2 Bft) SW 236 0 min 0,000 mm 0,0 UV-I 48 W/m 13,7 C 19,1 C 9,7 km/h (2 Bft) 98,00 %
24.06.2017 06:00 19,4 C 27,8 C 70 % 1014,9 hPa 0,0 l/m 6,5 km/h (2 Bft) W-SW 248 0 min 0,051 mm 0,0 UV-I 48 W/m 13,8 C 19,4 C 11,3 km/h (2 Bft) 97,37 %
24.06.2017 06:02 19,4 C 27,8 C 70 % 1014,9 hPa 0,0 l/m 7,5 km/h (2 Bft) SW 230 0 min 0,000 mm 0,0 UV-I 43 W/m 13,8 C 18,9 C 12,9 km/h (3 Bft) 97,87 %
24.06.2017 06:04 19,4 C 27,8 C 70 % 1014,9 hPa 0,0 l/m 7,2 km/h (2 Bft) SW 229 0 min 0,000 mm 0,0 UV-I 40 W/m 13,8 C 19,1 C 11,3 km/h (2 Bft) 91,49 %
24.06.2017 06:06 19,4 C 27,8 C 69 % 1014,9 hPa 0,0 l/m 8,3 km/h (2 Bft) SW 224 0 min 0,000 mm 0,0 UV-I 40 W/m 13,6 C 18,6 C 12,9 km/h (3 Bft) 98,00 %
24.06.2017 06:08 19,5 C 27,8 C 69 % 1014,9 hPa 0,0 l/m 8,5 km/h (2 Bft) SW 229 0 min 0,000 mm 0,0 UV-I 43 W/m 13,7 C 18,6 C 12,9 km/h (3 Bft) 98,00 %
24.06.2017 06:10 19,5 C 27,8 C 69 % 1014,9 hPa 0,0 l/m 8,0 km/h (2 Bft) SW 219 0 min 0,000 mm 0,0 UV-I 52 W/m 13,7 C 18,8 C 12,9 km/h (3 Bft) 97,87 %
24.06.2017 06:12 19,6 C 27,8 C 69 % 1014,9 hPa 0,0 l/m 7,6 km/h (2 Bft) SW 233 0 min 0,000 mm 0,0 UV-I 55 W/m 13,8 C 19,1 C 11,3 km/h (2 Bft) 97,87 %
24.06.2017 06:14 19,6 C 27,8 C 69 % 1015,0 hPa 0,0 l/m 9,1 km/h (2 Bft) SW 217 0 min 0,000 mm 0,0 UV-I 46 W/m 13,8 C 18,5 C 14,5 km/h (3 Bft) 95,74 %
24.06.2017 06:16 19,6 C 27,8 C 70 % 1014,9 hPa 0,0 l/m 6,9 km/h (2 Bft) SW 223 0 min 0,000 mm 0,0 UV-I 40 W/m 14,0 C 19,4 C 9,7 km/h (2 Bft) 97,87 %
24.06.2017 06:18 19,6 C 27,8 C 70 % 1014,9 hPa 0,0 l/m 7,8 km/h (2 Bft) W-SW 239 0 min 0,000 mm 0,0 UV-I 39 W/m 14,0 C 19,0 C 9,7 km/h (2 Bft) 100,00 %
24.06.2017 06:20 19,6 C 27,8 C 70 % 1014,9 hPa 0,0 l/m 7,4 km/h (2 Bft) W-SW 248 0 min 0,000 mm 0,0 UV-I 39 W/m 14,0 C 19,2 C 9,7 km/h (2 Bft) 95,74 %
24.06.2017 06:22 19,6 C 27,8 C 70 % 1014,9 hPa 0,0 l/m 7,6 km/h (2 Bft) W-SW 239 0 min 0,000 mm 0,0 UV-I 43 W/m 14,0 C 19,1 C 11,3 km/h (2 Bft) 100,00 %
24.06.2017 06:24 19,5 C 27,8 C 70 % 1015,0 hPa 0,0 l/m 6,7 km/h (2 Bft) SW 233 0 min 0,000 mm 0,0 UV-I 52 W/m 13,9 C 19,4 C 9,7 km/h (2 Bft) 93,75 %
24.06.2017 06:26 19,5 C 27,8 C 70 % 1015,0 hPa 0,0 l/m 6,3 km/h (2 Bft) SW 225 0 min 0,000 mm 0,0 UV-I 66 W/m 13,9 C 19,5 C 9,7 km/h (2 Bft) 100,00 %
24.06.2017 06:28 19,5 C 27,8 C 70 % 1015,0 hPa 0,0 l/m 5,8 km/h (2 Bft) SW 232 0 min 0,000 mm 0,0 UV-I 71 W/m 13,9 C 19,5 C 8,0 km/h (2 Bft) 93,88 %
24.06.2017 06:30 19,5 C 27,8 C 70 % 1015,0 hPa 0,0 l/m 5,4 km/h (1 Bft) SW 221 0 min 0,000 mm 0,0 UV-I 78 W/m 13,9 C 19,5 C 6,4 km/h (2 Bft) 95,83 %
24.06.2017 06:32 19,6 C 27,8 C 71 % 1015,0 hPa 0,0 l/m 5,8 km/h (2 Bft) SW 228 0 min 0,000 mm 0,0 UV-I 110 W/m 14,2 C 19,6 C 8,0 km/h (2 Bft) 95,74 %
24.06.2017 06:34 19,6 C 27,8 C 70 % 1015,0 hPa 0,0 l/m 6,4 km/h (2 Bft) W-SW 244 2 min 0,000 mm 0,0 UV-I 118 W/m 14,0 C 19,6 C 9,7 km/h (2 Bft) 93,62 %
24.06.2017 06:36 19,7 C 27,8 C 70 % 1015,0 hPa 0,0 l/m 6,8 km/h (2 Bft) SW 229 2 min 0,000 mm 0,0 UV-I 155 W/m 14,1 C 19,5 C 9,7 km/h (2 Bft) 100,00 %
24.06.2017 06:38 19,7 C 27,8 C 70 % 1015,0 hPa 0,0 l/m 5,8 km/h (2 Bft) W-SW 244 2 min 0,000 mm 0,0 UV-I 161 W/m 14,1 C 19,7 C 8,0 km/h (2 Bft) 100,00 %
24.06.2017 06:40 19,8 C 27,8 C 69 % 1015,0 hPa 0,0 l/m 6,4 km/h (2 Bft) SW 233 0 min 0,000 mm 0,0 UV-I 89 W/m 13,9 C 19,8 C 9,7 km/h (2 Bft) 95,74 %
24.06.2017 06:42 19,8 C 27,8 C 70 % 1015,1 hPa 0,0 l/m 6,0 km/h (2 Bft) SW 236 0 min 0,000 mm 0,0 UV-I 91 W/m 14,2 C 19,8 C 8,0 km/h (2 Bft) 97,73 %
24.06.2017 06:44 19,8 C 27,8 C 69 % 1015,0 hPa 0,0 l/m 6,0 km/h (2 Bft) SW 219 0 min 0,000 mm 0,0 UV-I 120 W/m 13,9 C 19,8 C 9,7 km/h (2 Bft) 100,00 %
24.06.2017 06:46 19,8 C 27,8 C 70 % 1015,0 hPa 0,0 l/m 5,6 km/h (1 Bft) SW 227 2 min 0,000 mm 0,0 UV-I 186 W/m 14,2 C 19,8 C 8,0 km/h (2 Bft) 100,00 %
24.06.2017 06:48 19,9 C 27,8 C 69 % 1015,0 hPa 0,0 l/m 4,8 km/h (1 Bft) SW 215 2 min 0,000 mm 0,0 UV-I 170 W/m 14,0 C 19,9 C 8,0 km/h (2 Bft) 96,00 %
24.06.2017 06:50 20,0 C 27,8 C 69 % 1015,0 hPa 0,0 l/m 4,5 km/h (1 Bft) SW 227 2 min 0,000 mm 0,0 UV-I 157 W/m 14,1 C 20,0 C 6,4 km/h (2 Bft) 93,62 %
24.06.2017 06:52 20,1 C 27,8 C 68 % 1015,0 hPa 0,0 l/m 6,6 km/h (2 Bft) S-SW 213 0 min 0,000 mm 0,0 UV-I 102 W/m 14,0 C 20,0 C 9,7 km/h (2 Bft) 94,00 %
24.06.2017 06:54 20,2 C 27,8 C 68 % 1015,0 hPa 0,0 l/m 5,1 km/h (1 Bft) S-SW 212 2 min 0,000 mm 0,0 UV-I 162 W/m 14,1 C 20,2 C 8,0 km/h (2 Bft) 95,74 %
24.06.2017 06:56 20,2 C 27,8 C 68 % 1015,0 hPa 0,0 l/m 8,9 km/h (2 Bft) S-SW 212 2 min 0,000 mm 0,0 UV-I 203 W/m 14,1 C 19,2 C 11,3 km/h (2 Bft) 91,49 %
24.06.2017 06:58 20,3 C 27,8 C 68 % 1015,1 hPa 0,0 l/m 6,3 km/h (2 Bft) S-SW 211 2 min 0,000 mm 0,0 UV-I 204 W/m 14,2 C 20,3 C 11,3 km/h (2 Bft) 92,11 %
24.06.2017 07:00 20,4 C 27,8 C 68 % 1015,1 hPa 0,0 l/m 6,3 km/h (2 Bft) SW 236 2 min 0,102 mm 0,0 UV-I 213 W/m 14,3 C 20,4 C 9,7 km/h (2 Bft) 93,62 %
24.06.2017 07:02 20,5 C 27,8 C 68 % 1015,0 hPa 0,0 l/m 6,3 km/h (2 Bft) SW 217 2 min 0,000 mm 0,0 UV-I 216 W/m 14,4 C 20,5 C 8,0 km/h (2 Bft) 96,00 %
24.06.2017 07:04 20,6 C 27,8 C 68 % 1015,0 hPa 0,0 l/m 5,6 km/h (1 Bft) W-SW 254 2 min 0,000 mm 0,0 UV-I 224 W/m 14,5 C 20,6 C 9,7 km/h (2 Bft) 93,62 %
24.06.2017 07:06 20,7 C 27,8 C 68 % 1015,0 hPa 0,0 l/m 6,5 km/h (2 Bft) SW 231 2 min 0,000 mm 0,0 UV-I 226 W/m 14,6 C 20,7 C 9,7 km/h (2 Bft) 95,74 %
24.06.2017 07:08 20,7 C 27,8 C 67 % 1015,0 hPa 0,0 l/m 7,0 km/h (2 Bft) S-SW 202 2 min 0,000 mm 0,4 UV-I 232 W/m 14,3 C 20,5 C 11,3 km/h (2 Bft) 88,10 %
24.06.2017 07:10 20,8 C 27,8 C 67 % 1015,1 hPa 0,0 l/m 7,6 km/h (2 Bft) S-SW 213 2 min 0,000 mm 0,5 UV-I 240 W/m 14,4 C 20,3 C 9,7 km/h (2 Bft) 97,87 %
24.06.2017 07:12 20,9 C 27,8 C 67 % 1015,0 hPa 0,0 l/m 7,5 km/h (2 Bft) S-SW 206 2 min 0,000 mm 0,5 UV-I 246 W/m 14,5 C 20,5 C 11,3 km/h (2 Bft) 92,00 %
24.06.2017 07:14 20,9 C 27,8 C 67 % 1015,1 hPa 0,0 l/m 6,5 km/h (2 Bft) SW 228 2 min 0,000 mm 0,5 UV-I 262 W/m 14,5 C 20,9 C 12,9 km/h (3 Bft) 97,87 %
24.06.2017 07:16 21,0 C 27,8 C 67 % 1015,0 hPa 0,0 l/m 5,7 km/h (1 Bft) S-SW 209 2 min 0,000 mm 0,5 UV-I 279 W/m 14,6 C 21,0 C 8,0 km/h (2 Bft) 95,74 %
24.06.2017 07:18 21,1 C 27,8 C 67 % 1015,0 hPa 0,0 l/m 8,8 km/h (2 Bft) S-SW 202 2 min 0,000 mm 0,5 UV-I 208 W/m 14,7 C 20,2 C 11,3 km/h (2 Bft) 93,62 %
24.06.2017 07:20 21,1 C 27,8 C 67 % 1015,0 hPa 0,0 l/m 6,2 km/h (2 Bft) W-SW 244 0 min 0,000 mm 0,5 UV-I 149 W/m 14,7 C 21,1 C 9,7 km/h (2 Bft) 97,87 %
24.06.2017 07:22 21,1 C 27,8 C 67 % 1015,0 hPa 0,0 l/m 8,0 km/h (2 Bft) S-SW 208 0 min 0,000 mm 0,5 UV-I 139 W/m 14,7 C 20,5 C 11,3 km/h (2 Bft) 97,87 %
24.06.2017 07:24 21,1 C 27,8 C 66 % 1014,9 hPa 0,0 l/m 7,1 km/h (2 Bft) SW 229 0 min 0,000 mm 0,6 UV-I 161 W/m 14,5 C 20,8 C 9,7 km/h (2 Bft) 93,62 %
24.06.2017 07:26 21,2 C 27,8 C 66 % 1014,9 hPa 0,0 l/m 6,9 km/h (2 Bft) S-SW 208 2 min 0,000 mm 0,6 UV-I 270 W/m 14,6 C 21,0 C 11,3 km/h (2 Bft) 90,00 %
24.06.2017 07:28 21,3 C 27,8 C 66 % 1014,9 hPa 0,0 l/m 6,4 km/h (2 Bft) SW 234 2 min 0,000 mm 0,6 UV-I 282 W/m 14,7 C 21,3 C 11,3 km/h (2 Bft) 93,62 %
24.06.2017 07:30 21,4 C 27,8 C 65 % 1015,0 hPa 0,0 l/m 8,0 km/h (2 Bft) SW 218 2 min 0,000 mm 0,7 UV-I 296 W/m 14,5 C 20,8 C 11,3 km/h (2 Bft) 90,24 %
24.06.2017 07:32 21,6 C 27,8 C 66 % 1015,0 hPa 0,0 l/m 6,0 km/h (2 Bft) SW 227 2 min 0,000 mm 0,7 UV-I 294 W/m 15,0 C 21,6 C 8,0 km/h (2 Bft) 92,00 %
24.06.2017 07:34 21,7 C 27,8 C 65 % 1015,0 hPa 0,0 l/m 4,2 km/h (1 Bft) W-SW 240 2 min 0,000 mm 0,7 UV-I 300 W/m 14,8 C 21,7 C 9,7 km/h (2 Bft) 92,00 %
24.06.2017 07:36 21,8 C 27,8 C 66 % 1015,0 hPa 0,0 l/m 4,3 km/h (1 Bft) NW 312 2 min 0,000 mm 0,7 UV-I 291 W/m 15,2 C 21,8 C 8,0 km/h (2 Bft) 94,74 %
24.06.2017 07:38 21,9 C 27,8 C 65 % 1015,1 hPa 0,0 l/m 1,4 km/h (1 Bft) W-NW 285 2 min 0,000 mm 0,7 UV-I 298 W/m 15,0 C 21,9 C 4,8 km/h (1 Bft) 93,62 %
24.06.2017 07:40 22,1 C 27,8 C 66 % 1015,1 hPa 0,0 l/m 1,9 km/h (1 Bft) W-SW 254 2 min 0,000 mm 0,8 UV-I 329 W/m 15,4 C 22,1 C 6,4 km/h (2 Bft) 95,74 %
24.06.2017 07:42 22,1 C 27,8 C 64 % 1015,2 hPa 0,0 l/m 2,7 km/h (1 Bft) W 263 2 min 0,000 mm 0,8 UV-I 349 W/m 15,0 C 22,1 C 4,8 km/h (1 Bft) 95,83 %
24.06.2017 07:44 22,3 C 27,8 C 63 % 1015,2 hPa 0,0 l/m 4,1 km/h (1 Bft) W 277 2 min 0,000 mm 0,8 UV-I 339 W/m 14,9 C 22,3 C 9,7 km/h (2 Bft) 96,00 %
24.06.2017 07:46 22,3 C 27,8 C 63 % 1015,2 hPa 0,0 l/m 2,5 km/h (1 Bft) N 355 2 min 0,000 mm 0,8 UV-I 228 W/m 14,9 C 22,3 C 8,0 km/h (2 Bft) 93,62 %
24.06.2017 07:48 22,2 C 27,8 C 64 % 1015,2 hPa 0,0 l/m 4,0 km/h (1 Bft) NW 313 2 min 0,000 mm 0,9 UV-I 333 W/m 15,1 C 22,2 C 9,7 km/h (2 Bft) 94,00 %
24.06.2017 07:50 22,1 C 27,8 C 65 % 1015,3 hPa 0,0 l/m 5,2 km/h (1 Bft) W-NW 295 2 min 0,000 mm 0,9 UV-I 384 W/m 15,2 C 22,1 C 11,3 km/h (2 Bft) 89,36 %
24.06.2017 07:52 21,9 C 27,8 C 65 % 1015,3 hPa 0,0 l/m 3,4 km/h (1 Bft) N-NW 348 2 min 0,000 mm 0,9 UV-I 402 W/m 15,0 C 21,9 C 6,4 km/h (2 Bft) 94,29 %
24.06.2017 07:54 21,8 C 27,8 C 65 % 1015,3 hPa 0,0 l/m 1,3 km/h (1 Bft) N-NW 344 2 min 0,000 mm 0,9 UV-I 377 W/m 14,9 C 21,8 C 4,8 km/h (1 Bft) 98,00 %
24.06.2017 07:56 21,7 C 27,8 C 65 % 1015,3 hPa 0,0 l/m 1,6 km/h (1 Bft) N 350 2 min 0,000 mm 1,0 UV-I 370 W/m 14,8 C 21,7 C 3,2 km/h (1 Bft) 97,87 %
24.06.2017 07:58 21,6 C 27,8 C 65 % 1015,3 hPa 0,0 l/m 1,9 km/h (1 Bft) N-NW 340 2 min 0,000 mm 1,0 UV-I 407 W/m 14,7 C 21,6 C 4,8 km/h (1 Bft) 91,49 %
24.06.2017 08:00 21,6 C 27,8 C 65 % 1015,2 hPa 0,0 l/m 3,4 km/h (1 Bft) N-NW 346 2 min 0,203 mm 1,0 UV-I 381 W/m 14,7 C 21,6 C 6,4 km/h (2 Bft) 95,74 %
24.06.2017 08:03 21,6 C 27,8 C 65 % 1015,2 hPa 0,0 l/m 1,5 km/h (1 Bft) NW 319 3 min 0,000 mm 1,1 UV-I 384 W/m 14,7 C 21,6 C 6,4 km/h (2 Bft) 96,34 %
24.06.2017 08:04 21,7 C 27,8 C 65 % 1015,2 hPa 0,0 l/m 2,2 km/h (1 Bft) NW 323 1 min 0,000 mm 1,1 UV-I 396 W/m 14,8 C 21,7 C 3,2 km/h (1 Bft) 86,67 %
24.06.2017 08:06 21,7 C 27,8 C 65 % 1015,2 hPa 0,0 l/m 1,9 km/h (1 Bft) NW 309 2 min 0,000 mm 1,1 UV-I 403 W/m 14,8 C 21,7 C 6,4 km/h (2 Bft) 94,00 %
24.06.2017 08:08 21,8 C 27,8 C 64 % 1015,3 hPa 0,0 l/m 0,6 km/h (0 Bft) NW 309 2 min 0,000 mm 1,2 UV-I 433 W/m 14,7 C 21,8 C 3,2 km/h (1 Bft) 97,87 %
24.06.2017 08:10 22,0 C 27,8 C 64 % 1015,3 hPa 0,0 l/m 1,9 km/h (1 Bft) NW 305 2 min 0,000 mm 1,2 UV-I 455 W/m 14,9 C 22,0 C 4,8 km/h (1 Bft) 91,49 %
24.06.2017 08:12 22,2 C 27,8 C 63 % 1015,3 hPa 0,0 l/m 2,4 km/h (1 Bft) W 274 2 min 0,000 mm 1,2 UV-I 455 W/m 14,8 C 22,2 C 11,3 km/h (2 Bft) 97,87 %
24.06.2017 08:14 22,2 C 27,8 C 62 % 1015,4 hPa 0,0 l/m 4,1 km/h (1 Bft) NW 320 2 min 0,000 mm 1,2 UV-I 420 W/m 14,6 C 22,2 C 6,4 km/h (2 Bft) 90,00 %
24.06.2017 08:16 22,3 C 27,8 C 62 % 1015,4 hPa 0,0 l/m 5,9 km/h (2 Bft) W 262 2 min 0,000 mm 1,3 UV-I 464 W/m 14,7 C 22,3 C 9,7 km/h (2 Bft) 100,00 %
24.06.2017 08:18 22,4 C 27,8 C 61 % 1015,3 hPa 0,0 l/m 8,7 km/h (2 Bft) W-NW 296 2 min 0,000 mm 1,3 UV-I 424 W/m 14,5 C 21,7 C 16,1 km/h (3 Bft) 100,00 %
24.06.2017 08:20 22,6 C 27,8 C 58 % 1015,3 hPa 0,0 l/m 11,5 km/h (2 Bft) W 260 2 min 0,000 mm 1,3 UV-I 448 W/m 13,9 C 21,1 C 16,1 km/h (3 Bft) 96,00 %
24.06.2017 08:22 22,6 C 27,8 C 58 % 1015,4 hPa 0,0 l/m 12,1 km/h (2 Bft) W-SW 249 2 min 0,000 mm 1,2 UV-I 436 W/m 13,9 C 21,0 C 17,7 km/h (3 Bft) 95,83 %
24.06.2017 08:24 22,7 C 27,8 C 57 % 1015,3 hPa 0,0 l/m 9,5 km/h (2 Bft) W-SW 248 2 min 0,000 mm 1,4 UV-I 457 W/m 13,7 C 21,8 C 17,7 km/h (3 Bft) 100,00 %
24.06.2017 08:26 22,8 C 27,8 C 57 % 1015,4 hPa 0,0 l/m 6,9 km/h (2 Bft) W-SW 241 2 min 0,000 mm 1,4 UV-I 452 W/m 13,8 C 22,6 C 12,9 km/h (3 Bft) 100,00 %
24.06.2017 08:28 22,9 C 27,8 C 57 % 1015,4 hPa 0,0 l/m 5,9 km/h (2 Bft) W-NW 290 2 min 0,000 mm 1,5 UV-I 446 W/m 13,9 C 22,9 C 12,9 km/h (3 Bft) 100,00 %
24.06.2017 08:30 23,1 C 27,8 C 57 % 1015,4 hPa 0,0 l/m 8,2 km/h (2 Bft) W-SW 246 2 min 0,000 mm 1,5 UV-I 468 W/m 14,1 C 22,5 C 20,9 km/h (4 Bft) 95,74 %
24.06.2017 08:32 23,2 C 27,8 C 56 % 1015,4 hPa 0,0 l/m 7,1 km/h (2 Bft) NW 321 2 min 0,000 mm 1,6 UV-I 518 W/m 13,9 C 23,0 C 16,1 km/h (3 Bft) 97,87 %
24.06.2017 08:34 23,1 C 27,8 C 56 % 1015,4 hPa 0,0 l/m 7,0 km/h (2 Bft) NW 306 2 min 0,000 mm 1,4 UV-I 448 W/m 13,8 C 22,9 C 17,7 km/h (3 Bft) 96,00 %
24.06.2017 08:36 23,0 C 27,8 C 55 % 1015,3 hPa 0,0 l/m 6,0 km/h (2 Bft) NW 313 2 min 0,000 mm 1,6 UV-I 339 W/m 13,5 C 23,0 C 20,9 km/h (4 Bft) 100,00 %
24.06.2017 08:38 22,9 C 27,8 C 55 % 1015,4 hPa 0,0 l/m 7,3 km/h (2 Bft) W-NW 292 2 min 0,000 mm 1,7 UV-I 399 W/m 13,4 C 22,6 C 14,5 km/h (3 Bft) 97,87 %
24.06.2017 08:40 23,0 C 27,8 C 56 % 1015,4 hPa 0,0 l/m 4,5 km/h (1 Bft) W-NW 292 2 min 0,000 mm 1,7 UV-I 425 W/m 13,7 C 23,0 C 14,5 km/h (3 Bft) 93,62 %
24.06.2017 08:42 23,0 C 27,8 C 57 % 1015,3 hPa 0,0 l/m 7,7 km/h (2 Bft) NW 304 2 min 0,000 mm 1,6 UV-I 340 W/m 14,0 C 22,6 C 16,1 km/h (3 Bft) 97,87 %
24.06.2017 08:44 23,1 C 27,8 C 56 % 1015,3 hPa 0,0 l/m 6,7 km/h (2 Bft) N 360 2 min 0,000 mm 1,7 UV-I 389 W/m 13,8 C 23,0 C 17,7 km/h (3 Bft) 93,62 %
24.06.2017 08:46 23,0 C 27,8 C 56 % 1015,3 hPa 0,0 l/m 6,8 km/h (2 Bft) N-NW 338 2 min 0,000 mm 1,8 UV-I 519 W/m 13,7 C 22,9 C 16,1 km/h (3 Bft) 97,87 %
24.06.2017 08:48 23,1 C 27,8 C 56 % 1015,2 hPa 0,0 l/m 9,2 km/h (2 Bft) W 267 2 min 0,000 mm 1,9 UV-I 548 W/m 13,8 C 22,3 C 14,5 km/h (3 Bft) 100,00 %
24.06.2017 08:50 23,1 C 27,8 C 56 % 1015,2 hPa 0,0 l/m 9,2 km/h (2 Bft) W-NW 290 2 min 0,000 mm 1,8 UV-I 519 W/m 13,8 C 22,3 C 19,3 km/h (3 Bft) 96,00 %
24.06.2017 08:52 23,1 C 27,8 C 55 % 1015,2 hPa 0,0 l/m 9,1 km/h (2 Bft) W-SW 248 2 min 0,000 mm 1,8 UV-I 504 W/m 13,6 C 22,3 C 19,3 km/h (3 Bft) 95,74 %
24.06.2017 08:54 23,1 C 27,8 C 55 % 1015,3 hPa 0,0 l/m 10,5 km/h (2 Bft) SW 234 2 min 0,000 mm 2,0 UV-I 526 W/m 13,6 C 21,9 C 22,5 km/h (4 Bft) 93,62 %
24.06.2017 08:56 23,2 C 27,8 C 55 % 1015,3 hPa 0,0 l/m 11,8 km/h (2 Bft) W-SW 254 2 min 0,000 mm 2,0 UV-I 533 W/m 13,6 C 21,8 C 19,3 km/h (3 Bft) 94,00 %
24.06.2017 08:58 23,3 C 27,8 C 57 % 1015,3 hPa 0,0 l/m 5,7 km/h (1 Bft) W-NW 288 2 min 0,000 mm 2,1 UV-I 532 W/m 14,3 C 23,3 C 12,9 km/h (3 Bft) 98,00 %
24.06.2017 09:00 23,4 C 27,8 C 55 % 1015,3 hPa 0,0 l/m 10,4 km/h (2 Bft) N-NW 329 2 min 0,305 mm 2,1 UV-I 544 W/m 13,8 C 22,3 C 19,3 km/h (3 Bft) 100,00 %
24.06.2017 09:02 23,4 C 27,8 C 54 % 1015,3 hPa 0,0 l/m 10,8 km/h (2 Bft) W-SW 244 2 min 0,000 mm 2,1 UV-I 549 W/m 13,6 C 22,2 C 19,3 km/h (3 Bft) 97,44 %
24.06.2017 09:04 23,4 C 27,8 C 54 % 1015,3 hPa 0,0 l/m 9,1 km/h (2 Bft) W 264 2 min 0,000 mm 2,2 UV-I 550 W/m 13,6 C 22,6 C 19,3 km/h (3 Bft) 95,74 %
24.06.2017 09:06 23,4 C 27,8 C 54 % 1015,3 hPa 0,0 l/m 6,1 km/h (2 Bft) W 266 2 min 0,000 mm 2,2 UV-I 559 W/m 13,6 C 23,4 C 22,5 km/h (4 Bft) 94,00 %
24.06.2017 09:08 23,5 C 27,8 C 54 % 1015,2 hPa 0,0 l/m 9,7 km/h (2 Bft) W-SW 243 2 min 0,000 mm 2,3 UV-I 562 W/m 13,6 C 22,6 C 16,1 km/h (3 Bft) 97,87 %
24.06.2017 09:10 23,6 C 27,8 C 54 % 1015,4 hPa 0,0 l/m 6,4 km/h (2 Bft) W-NW 288 2 min 0,000 mm 2,3 UV-I 565 W/m 13,7 C 23,6 C 14,5 km/h (3 Bft) 100,00 %
24.06.2017 09:12 23,7 C 27,8 C 54 % 1015,4 hPa 0,0 l/m 8,3 km/h (2 Bft) W 280 2 min 0,000 mm 2,3 UV-I 564 W/m 13,8 C 23,2 C 14,5 km/h (3 Bft) 96,00 %
24.06.2017 09:14 23,7 C 27,8 C 54 % 1015,4 hPa 0,0 l/m 9,1 km/h (2 Bft) W-NW 300 2 min 0,000 mm 2,4 UV-I 591 W/m 13,8 C 22,9 C 19,3 km/h (3 Bft) 91,49 %
24.06.2017 09:16 23,8 C 27,8 C 54 % 1015,4 hPa 0,0 l/m 3,7 km/h (1 Bft) S-SW 207 2 min 0,000 mm 2,4 UV-I 628 W/m 13,9 C 23,8 C 8,0 km/h (2 Bft) 95,83 %
24.06.2017 09:18 23,9 C 27,8 C 54 % 1015,3 hPa 0,0 l/m 3,1 km/h (1 Bft) N-NW 330 2 min 0,000 mm 2,5 UV-I 653 W/m 14,0 C 23,9 C 8,0 km/h (2 Bft) 97,14 %
24.06.2017 09:20 24,1 C 27,8 C 54 % 1015,3 hPa 0,0 l/m 4,8 km/h (1 Bft) NW 313 2 min 0,000 mm 1,9 UV-I 548 W/m 14,2 C 24,1 C 11,3 km/h (2 Bft) 98,00 %
24.06.2017 09:22 24,1 C 27,8 C 53 % 1015,4 hPa 0,0 l/m 7,4 km/h (2 Bft) N-NW 329 2 min 0,000 mm 2,3 UV-I 387 W/m 13,9 C 23,8 C 16,1 km/h (3 Bft) 92,00 %
24.06.2017 09:24 24,1 C 27,8 C 53 % 1015,2 hPa 0,0 l/m 8,0 km/h (2 Bft) W 271 2 min 0,000 mm 2,6 UV-I 624 W/m 13,9 C 23,7 C 12,9 km/h (3 Bft) 95,74 %
24.06.2017 09:26 24,0 C 27,8 C 52 % 1015,2 hPa 0,0 l/m 5,9 km/h (2 Bft) W-SW 238 2 min 0,000 mm 2,5 UV-I 574 W/m 13,5 C 24,0 C 12,9 km/h (3 Bft) 93,62 %
24.06.2017 09:28 23,8 C 27,8 C 53 % 1015,3 hPa 0,0 l/m 6,3 km/h (2 Bft) W 273 2 min 0,000 mm 2,7 UV-I 580 W/m 13,6 C 23,8 C 12,9 km/h (3 Bft) 97,87 %
24.06.2017 09:30 23,9 C 27,8 C 53 % 1015,5 hPa 0,0 l/m 7,2 km/h (2 Bft) W 271 2 min 0,000 mm 2,8 UV-I 631 W/m 13,7 C 23,7 C 12,9 km/h (3 Bft) 93,62 %
24.06.2017 09:32 24,0 C 27,8 C 53 % 1015,4 hPa 0,0 l/m 5,4 km/h (1 Bft) W 280 2 min 0,000 mm 2,8 UV-I 641 W/m 13,8 C 24,0 C 12,9 km/h (3 Bft) 96,00 %
24.06.2017 09:34 24,1 C 27,8 C 53 % 1015,4 hPa 0,0 l/m 6,5 km/h (2 Bft) NW 308 2 min 0,000 mm 2,9 UV-I 668 W/m 13,9 C 24,1 C 14,5 km/h (3 Bft) 94,74 %
24.06.2017 09:36 24,3 C 27,8 C 52 % 1015,4 hPa 0,0 l/m 5,5 km/h (1 Bft) N-NW 344 2 min 0,000 mm 3,0 UV-I 787 W/m 13,8 C 24,3 C 11,3 km/h (2 Bft) 97,87 %
24.06.2017 09:38 24,4 C 27,8 C 53 % 1015,3 hPa 0,0 l/m 6,2 km/h (2 Bft) SW 233 2 min 0,000 mm 3,0 UV-I 817 W/m 14,2 C 24,4 C 16,1 km/h (3 Bft) 95,83 %
24.06.2017 09:40 24,3 C 27,8 C 52 % 1015,3 hPa 0,0 l/m 7,8 km/h (2 Bft) W 259 2 min 0,000 mm 2,4 UV-I 793 W/m 13,8 C 23,9 C 14,5 km/h (3 Bft) 95,92 %
24.06.2017 09:42 24,3 C 27,8 C 52 % 1015,4 hPa 0,0 l/m 12,3 km/h (3 Bft) W 274 2 min 0,000 mm 2,9 UV-I 723 W/m 13,8 C 22,9 C 22,5 km/h (4 Bft) 97,92 %
24.06.2017 09:44 24,2 C 27,8 C 52 % 1015,3 hPa 0,0 l/m 12,9 km/h (3 Bft) W-SW 242 2 min 0,000 mm 3,0 UV-I 668 W/m 13,7 C 22,7 C 19,3 km/h (3 Bft) 95,74 %
24.06.2017 09:46 24,2 C 27,8 C 52 % 1015,3 hPa 0,0 l/m 11,1 km/h (2 Bft) W 277 2 min 0,000 mm 3,1 UV-I 658 W/m 13,7 C 23,0 C 17,7 km/h (3 Bft) 95,74 %
24.06.2017 09:48 24,3 C 27,8 C 52 % 1015,2 hPa 0,0 l/m 9,7 km/h (2 Bft) W-NW 282 2 min 0,000 mm 3,1 UV-I 658 W/m 13,8 C 23,5 C 16,1 km/h (3 Bft) 88,00 %
24.06.2017 09:50 24,4 C 27,8 C 52 % 1015,3 hPa 0,0 l/m 10,9 km/h (2 Bft) W 279 2 min 0,000 mm 3,2 UV-I 655 W/m 13,9 C 23,3 C 17,7 km/h (3 Bft) 93,62 %
24.06.2017 09:52 24,4 C 27,8 C 51 % 1015,2 hPa 0,0 l/m 9,2 km/h (2 Bft) NW 314 2 min 0,000 mm 3,2 UV-I 657 W/m 13,6 C 23,7 C 17,7 km/h (3 Bft) 97,87 %
24.06.2017 09:54 24,4 C 27,8 C 52 % 1015,2 hPa 0,0 l/m 6,0 km/h (2 Bft) W-NW 283 2 min 0,000 mm 3,2 UV-I 665 W/m 13,9 C 24,4 C 12,9 km/h (3 Bft) 97,87 %
24.06.2017 09:56 24,4 C 26,1 C 51 % 1015,2 hPa 0,0 l/m 12,6 km/h (3 Bft) W-SW 246 2 min 0,000 mm 3,3 UV-I 675 W/m 13,6 C 23,0 C 22,5 km/h (4 Bft) 100,00 %
24.06.2017 09:58 24,4 C 26,1 C 52 % 1015,2 hPa 0,0 l/m 10,5 km/h (2 Bft) W-SW 257 2 min 0,000 mm 3,4 UV-I 687 W/m 13,9 C 23,4 C 19,3 km/h (3 Bft) 100,00 %
24.06.2017 10:00 24,4 C 26,1 C 51 % 1015,2 hPa 0,0 l/m 12,8 km/h (3 Bft) SW 234 2 min 0,431 mm 3,4 UV-I 673 W/m 13,6 C 22,9 C 22,5 km/h (4 Bft) 97,87 %
24.06.2017 10:02 24,4 C 26,1 C 51 % 1015,2 hPa 0,0 l/m 10,3 km/h (2 Bft) W-NW 288 2 min 0,000 mm 3,4 UV-I 682 W/m 13,6 C 23,4 C 16,1 km/h (3 Bft) 97,37 %
24.06.2017 10:04 24,4 C 26,1 C 51 % 1015,1 hPa 0,0 l/m 7,4 km/h (2 Bft) W 263 2 min 0,000 mm 3,4 UV-I 686 W/m 13,6 C 24,1 C 16,1 km/h (3 Bft) 96,23 %
24.06.2017 10:06 24,7 C 26,1 C 52 % 1015,2 hPa 0,0 l/m 2,4 km/h (1 Bft) SW 233 2 min 0,000 mm 3,5 UV-I 681 W/m 14,2 C 24,7 C 4,8 km/h (1 Bft) 97,87 %
24.06.2017 10:08 25,0 C 26,1 C 51 % 1015,2 hPa 0,0 l/m 6,2 km/h (2 Bft) W-SW 257 2 min 0,000 mm 3,6 UV-I 691 W/m 14,1 C 25,0 C 17,7 km/h (3 Bft) 93,62 %
24.06.2017 10:10 25,1 C 26,1 C 50 % 1015,3 hPa 0,0 l/m 6,9 km/h (2 Bft) W-SW 244 2 min 0,000 mm 3,6 UV-I 697 W/m 13,9 C 25,0 C 16,1 km/h (3 Bft) 95,74 %
24.06.2017 10:12 25,1 C 26,1 C 50 % 1015,2 hPa 0,0 l/m 9,5 km/h (2 Bft) W-SW 243 2 min 0,000 mm 3,7 UV-I 707 W/m 13,9 C 24,4 C 19,3 km/h (3 Bft) 91,49 %
24.06.2017 10:14 25,1 C 26,1 C 50 % 1015,3 hPa 0,0 l/m 9,9 km/h (2 Bft) W 263 2 min 0,000 mm 3,8 UV-I 715 W/m 13,9 C 24,3 C 16,1 km/h (3 Bft) 100,00 %
24.06.2017 10:16 25,1 C 26,1 C 49 % 1015,2 hPa 0,0 l/m 11,9 km/h (2 Bft) W-NW 292 2 min 0,000 mm 3,8 UV-I 721 W/m 13,6 C 23,9 C 25,7 km/h (4 Bft) 100,00 %
24.06.2017 10:18 24,9 C 26,1 C 50 % 1015,2 hPa 0,0 l/m 12,2 km/h (2 Bft) SW 234 2 min 0,000 mm 3,8 UV-I 729 W/m 13,7 C 23,6 C 17,7 km/h (3 Bft) 98,00 %
24.06.2017 10:20 24,9 C 26,1 C 50 % 1015,1 hPa 0,0 l/m 11,5 km/h (2 Bft) W-SW 241 2 min 0,000 mm 3,9 UV-I 708 W/m 13,7 C 23,8 C 17,7 km/h (3 Bft) 97,87 %
24.06.2017 10:22 24,9 C 26,1 C 50 % 1015,1 hPa 0,0 l/m 16,0 km/h (3 Bft) NW 313 2 min 0,000 mm 3,9 UV-I 723 W/m 13,7 C 23,0 C 24,1 km/h (4 Bft) 100,00 %
24.06.2017 10:24 24,8 C 26,1 C 49 % 1015,1 hPa 0,0 l/m 6,9 km/h (2 Bft) W-SW 257 2 min 0,000 mm 4,0 UV-I 739 W/m 13,3 C 24,7 C 17,7 km/h (3 Bft) 97,87 %
24.06.2017 10:26 25,1 C 26,1 C 51 % 1015,1 hPa 0,0 l/m 7,8 km/h (2 Bft) W-SW 248 2 min 0,000 mm 4,0 UV-I 736 W/m 14,2 C 24,8 C 14,5 km/h (3 Bft) 97,87 %
24.06.2017 10:28 25,2 C 26,1 C 50 % 1015,1 hPa 0,0 l/m 9,2 km/h (2 Bft) W-SW 252 2 min 0,000 mm 4,1 UV-I 748 W/m 14,0 C 24,5 C 17,7 km/h (3 Bft) 98,00 %
24.06.2017 10:30 25,3 C 26,1 C 50 % 1015,1 hPa 0,0 l/m 9,7 km/h (2 Bft) W-NW 286 2 min 0,000 mm 4,1 UV-I 753 W/m 14,1 C 24,6 C 16,1 km/h (3 Bft) 100,00 %
24.06.2017 10:32 25,2 C 26,1 C 49 % 1015,0 hPa 0,0 l/m 9,2 km/h (2 Bft) W 267 2 min 0,000 mm 4,1 UV-I 750 W/m 13,7 C 24,5 C 17,7 km/h (3 Bft) 97,87 %
24.06.2017 10:34 25,2 C 26,1 C 49 % 1015,0 hPa 0,0 l/m 8,5 km/h (2 Bft) W 267 2 min 0,000 mm 4,2 UV-I 754 W/m 13,7 C 24,7 C 16,1 km/h (3 Bft) 100,00 %
24.06.2017 10:36 25,2 C 26,1 C 50 % 1015,0 hPa 0,0 l/m 8,6 km/h (2 Bft) S-SO 158 2 min 0,000 mm 4,2 UV-I 760 W/m 14,0 C 24,7 C 20,9 km/h (4 Bft) 93,62 %
24.06.2017 10:38 25,4 C 26,1 C 49 % 1015,1 hPa 0,0 l/m 11,4 km/h (2 Bft) W 273 2 min 0,000 mm 4,2 UV-I 748 W/m 13,9 C 24,4 C 17,7 km/h (3 Bft) 97,87 %
24.06.2017 10:40 25,3 C 26,1 C 50 % 1015,0 hPa 0,0 l/m 13,7 km/h (3 Bft) W 259 2 min 0,000 mm 4,2 UV-I 740 W/m 14,1 C 23,9 C 20,9 km/h (4 Bft) 95,74 %
24.06.2017 10:42 25,3 C 26,1 C 50 % 1015,0 hPa 0,0 l/m 10,0 km/h (2 Bft) W-SW 254 2 min 0,000 mm 4,3 UV-I 757 W/m 14,1 C 24,5 C 17,7 km/h (3 Bft) 97,87 %
24.06.2017 10:44 25,3 C 26,1 C 50 % 1015,0 hPa 0,0 l/m 16,4 km/h (3 Bft) W-SW 246 2 min 0,000 mm 4,4 UV-I 797 W/m 14,1 C 23,5 C 27,4 km/h (4 Bft) 97,87 %
24.06.2017 10:46 25,6 C 26,1 C 51 % 1015,0 hPa 0,0 l/m 10,8 km/h (2 Bft) W-SW 257 2 min 0,000 mm 4,3 UV-I 784 W/m 14,7 C 24,7 C 17,7 km/h (3 Bft) 100,00 %
24.06.2017 10:48 25,6 C 26,1 C 49 % 1014,9 hPa 0,0 l/m 9,3 km/h (2 Bft) SW 236 2 min 0,000 mm 3,5 UV-I 824 W/m 14,1 C 25,0 C 17,7 km/h (3 Bft) 95,74 %
24.06.2017 10:50 25,6 C 26,1 C 50 % 1014,9 hPa 0,0 l/m 7,1 km/h (2 Bft) SW 223 2 min 0,000 mm 4,3 UV-I 824 W/m 14,4 C 25,4 C 14,5 km/h (3 Bft) 97,87 %
24.06.2017 10:52 25,7 C 26,1 C 50 % 1014,9 hPa 0,0 l/m 8,6 km/h (2 Bft) W 260 2 min 0,000 mm 4,6 UV-I 832 W/m 14,5 C 25,2 C 19,3 km/h (3 Bft) 93,62 %
24.06.2017 10:54 25,7 C 26,1 C 50 % 1014,9 hPa 0,0 l/m 7,7 km/h (2 Bft) SW 227 2 min 0,000 mm 4,7 UV-I 828 W/m 14,5 C 25,4 C 12,9 km/h (3 Bft) 97,87 %
24.06.2017 10:56 25,9 C 26,1 C 51 % 1014,8 hPa 0,0 l/m 5,0 km/h (1 Bft) SW 233 2 min 0,000 mm 4,7 UV-I 823 W/m 15,0 C 25,9 C 8,0 km/h (2 Bft) 95,74 %
24.06.2017 10:58 26,3 C 26,1 C 50 % 1014,8 hPa 0,0 l/m 7,5 km/h (2 Bft) NW 319 2 min 0,000 mm 4,8 UV-I 825 W/m 15,0 C 26,1 C 12,9 km/h (3 Bft) 98,00 %
24.06.2017 11:00 26,5 C 26,1 C 49 % 1014,8 hPa 0,0 l/m 6,6 km/h (2 Bft) W-SW 239 2 min 0,000 mm 4,8 UV-I 811 W/m 14,9 C 26,5 C 14,5 km/h (3 Bft) 100,00 %
24.06.2017 11:02 26,3 C 26,1 C 47 % 1014,8 hPa 0,0 l/m 14,7 km/h (3 Bft) W-SW 258 2 min 0,534 mm 4,8 UV-I 810 W/m 14,1 C 24,9 C 25,7 km/h (4 Bft) 96,00 %
24.06.2017 11:04 26,1 C 26,1 C 47 % 1014,8 hPa 0,0 l/m 12,4 km/h (3 Bft) W 262 2 min 0,000 mm 4,8 UV-I 810 W/m 13,9 C 25,0 C 19,3 km/h (3 Bft) 98,00 %
24.06.2017 11:06 25,9 C 26,1 C 49 % 1014,7 hPa 0,0 l/m 9,6 km/h (2 Bft) W-NW 290 2 min 0,000 mm 4,9 UV-I 812 W/m 14,4 C 25,2 C 19,3 km/h (3 Bft) 97,87 %
24.06.2017 11:08 25,8 C 26,1 C 50 % 1014,7 hPa 0,0 l/m 8,0 km/h (2 Bft) W-NW 292 2 min 0,000 mm 4,9 UV-I 814 W/m 14,6 C 25,4 C 19,3 km/h (3 Bft) 93,62 %
24.06.2017 11:10 26,0 C 26,1 C 50 % 1014,7 hPa 0,0 l/m 3,5 km/h (1 Bft) S-SO 159 2 min 0,000 mm 4,9 UV-I 820 W/m 14,8 C 26,0 C 8,0 km/h (2 Bft) 97,92 %
24.06.2017 11:12 26,1 C 26,1 C 50 % 1014,7 hPa 0,0 l/m 9,7 km/h (2 Bft) SW 219 2 min 0,000 mm 5,0 UV-I 833 W/m 14,8 C 25,4 C 17,7 km/h (3 Bft) 97,56 %
24.06.2017 11:14 26,2 C 26,1 C 49 % 1014,7 hPa 0,0 l/m 10,8 km/h (2 Bft) S-SW 204 2 min 0,000 mm 5,0 UV-I 836 W/m 14,6 C 25,4 C 19,3 km/h (3 Bft) 95,74 %
24.06.2017 11:16 26,2 C 26,1 C 48 % 1014,5 hPa 0,0 l/m 11,1 km/h (2 Bft) W-SW 256 2 min 0,000 mm 5,1 UV-I 835 W/m 14,3 C 25,3 C 17,7 km/h (3 Bft) 95,74 %
24.06.2017 11:18 26,3 C 26,1 C 49 % 1014,5 hPa 0,0 l/m 14,7 km/h (3 Bft) SW 224 2 min 0,000 mm 5,1 UV-I 836 W/m 14,7 C 24,9 C 24,1 km/h (4 Bft) 92,00 %
24.06.2017 11:20 26,4 C 26,7 C 48 % 1014,6 hPa 0,0 l/m 18,9 km/h (3 Bft) W-SW 243 2 min 0,000 mm 5,1 UV-I 829 W/m 14,5 C 24,6 C 30,6 km/h (5 Bft) 93,75 %
24.06.2017 11:22 26,3 C 26,7 C 47 % 1014,6 hPa 0,0 l/m 17,4 km/h (3 Bft) W-SW 242 2 min 0,000 mm 5,1 UV-I 832 W/m 14,1 C 24,6 C 29,0 km/h (5 Bft) 90,00 %
24.06.2017 11:24 26,1 C 26,7 C 49 % 1014,5 hPa 0,0 l/m 15,8 km/h (3 Bft) SW 234 2 min 0,000 mm 5,1 UV-I 834 W/m 14,5 C 24,5 C 25,7 km/h (4 Bft) 93,62 %
24.06.2017 11:26 25,9 C 26,7 C 50 % 1014,6 hPa 0,0 l/m 9,1 km/h (2 Bft) W 269 2 min 0,000 mm 5,2 UV-I 838 W/m 14,7 C 25,3 C 16,1 km/h (3 Bft) 93,62 %
24.06.2017 11:28 26,1 C 26,7 C 50 % 1014,5 hPa 0,0 l/m 12,9 km/h (3 Bft) W-SW 242 2 min 0,000 mm 5,2 UV-I 844 W/m 14,8 C 24,9 C 22,5 km/h (4 Bft) 91,49 %
24.06.2017 11:30 26,2 C 26,7 C 49 % 1014,4 hPa 0,0 l/m 14,0 km/h (3 Bft) W-SW 245 2 min 0,000 mm 5,2 UV-I 840 W/m 14,6 C 24,9 C 22,5 km/h (4 Bft) 94,74 %
24.06.2017 11:32 26,3 C 26,7 C 51 % 1014,5 hPa 0,0 l/m 9,0 km/h (2 Bft) S 190 2 min 0,000 mm 5,2 UV-I 836 W/m 15,3 C 25,8 C 22,5 km/h (4 Bft) 90,00 %
24.06.2017 11:34 26,5 C 26,7 C 49 % 1014,6 hPa 0,0 l/m 7,9 km/h (2 Bft) W-SW 256 2 min 0,000 mm 5,2 UV-I 824 W/m 14,9 C 26,2 C 16,1 km/h (3 Bft) 93,62 %
24.06.2017 11:36 26,7 C 26,7 C 48 % 1014,7 hPa 0,0 l/m 14,8 km/h (3 Bft) W-NW 282 2 min 0,000 mm 5,3 UV-I 826 W/m 14,8 C 25,4 C 25,7 km/h (4 Bft) 95,74 %
24.06.2017 11:38 26,7 C 26,7 C 47 % 1014,6 hPa 0,0 l/m 16,0 km/h (3 Bft) W-SW 244 2 min 0,000 mm 5,4 UV-I 844 W/m 14,4 C 25,3 C 25,7 km/h (4 Bft) 91,49 %
24.06.2017 11:40 26,6 C 26,7 C 48 % 1014,6 hPa 0,0 l/m 14,8 km/h (3 Bft) W 263 2 min 0,000 mm 5,4 UV-I 851 W/m 14,7 C 25,3 C 25,7 km/h (4 Bft) 96,00 %
24.06.2017 11:42 26,4 C 26,7 C 48 % 1014,6 hPa 0,0 l/m 10,4 km/h (2 Bft) W 272 2 min 0,000 mm 5,5 UV-I 859 W/m 14,5 C 25,6 C 17,7 km/h (3 Bft) 91,67 %
24.06.2017 11:44 26,3 C 26,7 C 48 % 1014,7 hPa 0,0 l/m 12,7 km/h (3 Bft) SW 227 2 min 0,000 mm 5,5 UV-I 857 W/m 14,4 C 25,2 C 20,9 km/h (4 Bft) 97,37 %
24.06.2017 11:46 26,4 C 26,7 C 50 % 1014,6 hPa 0,0 l/m 8,1 km/h (2 Bft) W 274 2 min 0,000 mm 5,5 UV-I 862 W/m 15,1 C 26,1 C 14,5 km/h (3 Bft) 91,49 %
24.06.2017 11:48 26,5 C 26,7 C 49 % 1014,6 hPa 0,0 l/m 16,9 km/h (3 Bft) W 261 2 min 0,000 mm 5,4 UV-I 849 W/m 14,9 C 24,9 C 24,1 km/h (4 Bft) 90,57 %
24.06.2017 11:50 26,3 C 26,7 C 48 % 1014,6 hPa 0,0 l/m 13,3 km/h (3 Bft) S-SW 207 2 min 0,000 mm 5,5 UV-I 852 W/m 14,4 C 25,1 C 25,7 km/h (4 Bft) 95,74 %
24.06.2017 11:52 26,3 C 26,7 C 49 % 1014,5 hPa 0,0 l/m 6,9 km/h (2 Bft) SW 234 2 min 0,000 mm 5,6 UV-I 864 W/m 14,7 C 26,2 C 22,5 km/h (4 Bft) 97,87 %
24.06.2017 11:54 26,7 C 26,7 C 49 % 1014,6 hPa 0,0 l/m 15,0 km/h (3 Bft) W-SW 255 2 min 0,000 mm 5,6 UV-I 878 W/m 15,1 C 25,4 C 27,4 km/h (4 Bft) 87,23 %
24.06.2017 11:56 26,7 C 26,7 C 48 % 1014,5 hPa 0,0 l/m 12,1 km/h (2 Bft) W-NW 297 2 min 0,000 mm 5,6 UV-I 873 W/m 14,8 C 25,7 C 27,4 km/h (4 Bft) 94,00 %
24.06.2017 11:58 26,7 C 26,7 C 47 % 1014,5 hPa 0,0 l/m 10,6 km/h (2 Bft) W-SW 246 2 min 0,000 mm 5,7 UV-I 869 W/m 14,4 C 25,9 C 16,1 km/h (3 Bft) 97,56 %
24.06.2017 12:00 26,7 C 26,7 C 48 % 1014,6 hPa 0,0 l/m 6,8 km/h (2 Bft) W-SW 254 2 min 0,635 mm 5,7 UV-I 879 W/m 14,8 C 26,6 C 12,9 km/h (3 Bft) 95,74 %
24.06.2017 12:02 26,7 C 26,7 C 49 % 1014,5 hPa 0,0 l/m 10,2 km/h (2 Bft) W-SW 245 2 min 0,000 mm 5,7 UV-I 876 W/m 15,1 C 26,0 C 19,3 km/h (3 Bft) 93,62 %
24.06.2017 12:04 26,8 C 26,7 C 47 % 1014,5 hPa 0,0 l/m 15,0 km/h (3 Bft) W 281 2 min 0,000 mm 5,7 UV-I 877 W/m 14,5 C 25,5 C 22,5 km/h (4 Bft) 91,49 %
24.06.2017 12:06 26,8 C 26,7 C 48 % 1014,5 hPa 0,0 l/m 13,3 km/h (3 Bft) W-SW 243 2 min 0,000 mm 5,7 UV-I 876 W/m 14,9 C 25,7 C 17,7 km/h (3 Bft) 88,00 %
24.06.2017 12:08 26,7 C 26,7 C 48 % 1014,4 hPa 0,0 l/m 9,2 km/h (2 Bft) W-NW 298 2 min 0,000 mm 5,8 UV-I 880 W/m 14,8 C 26,2 C 16,1 km/h (3 Bft) 93,62 %
24.06.2017 12:10 26,7 C 26,7 C 47 % 1014,4 hPa 0,0 l/m 10,4 km/h (2 Bft) SW 234 2 min 0,000 mm 5,8 UV-I 894 W/m 14,4 C 26,0 C 19,3 km/h (3 Bft) 95,74 %
24.06.2017 12:12 26,6 C 26,7 C 48 % 1014,4 hPa 0,0 l/m 1,8 km/h (1 Bft) W-NW 301 2 min 0,000 mm 5,9 UV-I 911 W/m 14,7 C 26,6 C 3,2 km/h (1 Bft) 97,37 %
24.06.2017 12:14 26,8 C 26,7 C 48 % 1014,4 hPa 0,0 l/m 4,6 km/h (1 Bft) W-SW 258 2 min 0,000 mm 5,9 UV-I 919 W/m 14,9 C 26,8 C 11,3 km/h (2 Bft) 97,92 %
24.06.2017 12:16 26,9 C 26,7 C 48 % 1014,3 hPa 0,0 l/m 6,2 km/h (2 Bft) SW 232 2 min 0,000 mm 6,0 UV-I 951 W/m 14,9 C 26,9 C 17,7 km/h (3 Bft) 97,87 %
24.06.2017 12:18 27,3 C 26,7 C 48 % 1014,3 hPa 0,0 l/m 13,1 km/h (3 Bft) SW 222 2 min 0,000 mm 6,0 UV-I 941 W/m 15,3 C 26,3 C 19,3 km/h (3 Bft) 98,00 %
24.06.2017 12:20 27,6 C 26,7 C 47 % 1014,4 hPa 0,0 l/m 7,6 km/h (2 Bft) S-SW 213 2 min 0,000 mm 6,0 UV-I 926 W/m 15,3 C 27,4 C 12,9 km/h (3 Bft) 95,74 %
24.06.2017 12:22 27,6 C 26,7 C 47 % 1014,3 hPa 0,0 l/m 10,9 km/h (2 Bft) W 265 2 min 0,000 mm 5,8 UV-I 916 W/m 15,3 C 26,9 C 19,3 km/h (3 Bft) 89,36 %
24.06.2017 12:24 27,4 C 26,7 C 47 % 1014,3 hPa 0,0 l/m 8,5 km/h (2 Bft) S-SO 157 2 min 0,000 mm 5,9 UV-I 922 W/m 15,1 C 27,0 C 17,7 km/h (3 Bft) 98,00 %
24.06.2017 12:26 27,3 C 26,7 C 47 % 1014,3 hPa 0,0 l/m 10,1 km/h (2 Bft) SW 217 2 min 0,000 mm 6,0 UV-I 928 W/m 15,0 C 26,7 C 17,7 km/h (3 Bft) 98,00 %
24.06.2017 12:28 27,4 C 26,7 C 48 % 1014,2 hPa 0,0 l/m 5,7 km/h (1 Bft) W-SW 252 2 min 0,000 mm 6,0 UV-I 903 W/m 15,4 C 27,4 C 19,3 km/h (3 Bft) 91,43 %
24.06.2017 12:30 27,6 C 26,7 C 47 % 1014,3 hPa 0,0 l/m 9,7 km/h (2 Bft) W-NW 285 2 min 0,000 mm 6,0 UV-I 912 W/m 15,3 C 27,1 C 16,1 km/h (3 Bft) 91,49 %
24.06.2017 12:32 27,5 C 26,7 C 47 % 1014,2 hPa 0,0 l/m 8,0 km/h (2 Bft) NW 304 2 min 0,000 mm 6,1 UV-I 913 W/m 15,2 C 27,2 C 14,5 km/h (3 Bft) 93,62 %
24.06.2017 12:34 27,3 C 26,7 C 47 % 1014,3 hPa 0,0 l/m 5,6 km/h (1 Bft) NW 315 2 min 0,000 mm 6,1 UV-I 916 W/m 15,0 C 27,3 C 12,9 km/h (3 Bft) 100,00 %
24.06.2017 12:36 27,3 C 26,7 C 47 % 1014,2 hPa 0,0 l/m 4,0 km/h (1 Bft) W 281 2 min 0,000 mm 6,0 UV-I 908 W/m 15,0 C 27,3 C 6,4 km/h (2 Bft) 93,62 %
24.06.2017 12:38 27,3 C 26,7 C 48 % 1014,2 hPa 0,0 l/m 7,8 km/h (2 Bft) SW 236 2 min 0,000 mm 5,9 UV-I 855 W/m 15,3 C 27,0 C 12,9 km/h (3 Bft) 95,74 %
24.06.2017 12:40 27,5 C 26,7 C 47 % 1014,1 hPa 0,0 l/m 7,0 km/h (2 Bft) W 264 2 min 0,000 mm 6,0 UV-I 881 W/m 15,2 C 27,4 C 14,5 km/h (3 Bft) 96,00 %
24.06.2017 12:42 27,5 C 26,7 C 46 % 1014,2 hPa 0,0 l/m 10,8 km/h (2 Bft) W-NW 288 2 min 0,000 mm 6,0 UV-I 886 W/m 14,8 C 26,8 C 17,7 km/h (3 Bft) 98,11 %
24.06.2017 12:44 27,3 C 26,7 C 46 % 1014,2 hPa 0,0 l/m 5,0 km/h (1 Bft) N-NW 330 2 min 0,000 mm 6,0 UV-I 886 W/m 14,6 C 27,3 C 12,9 km/h (3 Bft) 97,37 %
24.06.2017 12:46 27,3 C 26,7 C 47 % 1014,1 hPa 0,0 l/m 4,4 km/h (1 Bft) W-SW 248 2 min 0,000 mm 6,1 UV-I 897 W/m 15,0 C 27,3 C 8,0 km/h (2 Bft) 97,87 %
24.06.2017 12:48 27,4 C 26,7 C 48 % 1014,2 hPa 0,0 l/m 10,3 km/h (2 Bft) S 188 2 min 0,000 mm 6,1 UV-I 916 W/m 15,4 C 26,8 C 19,3 km/h (3 Bft) 100,00 %
24.06.2017 12:50 27,6 C 26,7 C 47 % 1014,1 hPa 0,0 l/m 8,9 km/h (2 Bft) W-SW 250 2 min 0,000 mm 6,0 UV-I 915 W/m 15,3 C 27,2 C 19,3 km/h (3 Bft) 96,23 %
24.06.2017 12:52 27,8 C 26,7 C 46 % 1014,1 hPa 0,0 l/m 13,5 km/h (3 Bft) W 261 2 min 0,000 mm 6,1 UV-I 942 W/m 15,1 C 26,8 C 24,1 km/h (4 Bft) 97,87 %
24.06.2017 12:54 27,8 C 26,7 C 47 % 1014,1 hPa 0,0 l/m 7,9 km/h (2 Bft) W-NW 292 2 min 0,000 mm 6,0 UV-I 914 W/m 15,4 C 27,6 C 14,5 km/h (3 Bft) 97,44 %
24.06.2017 12:56 27,6 C 26,7 C 46 % 1014,1 hPa 0,0 l/m 13,0 km/h (3 Bft) W 281 2 min 0,000 mm 6,0 UV-I 907 W/m 14,9 C 26,7 C 20,9 km/h (4 Bft) 98,11 %
24.06.2017 12:58 27,7 C 26,7 C 46 % 1014,1 hPa 0,0 l/m 7,9 km/h (2 Bft) W 271 2 min 0,000 mm 6,0 UV-I 902 W/m 15,0 C 27,5 C 16,1 km/h (3 Bft) 100,00 %
24.06.2017 13:00 27,7 C 26,7 C 47 % 1014,1 hPa 0,0 l/m 12,5 km/h (3 Bft) W-SW 247 2 min 0,660 mm 6,0 UV-I 892 W/m 15,3 C 26,8 C 24,1 km/h (4 Bft) 97,87 %
24.06.2017 13:02 27,8 C 27,2 C 46 % 1014,1 hPa 0,0 l/m 15,0 km/h (3 Bft) W-SW 257 2 min 0,000 mm 6,0 UV-I 892 W/m 15,1 C 26,7 C 25,7 km/h (4 Bft) 97,37 %
24.06.2017 13:04 27,7 C 27,2 C 46 % 1014,1 hPa 0,0 l/m 8,2 km/h (2 Bft) W-SW 250 2 min 0,000 mm 6,0 UV-I 884 W/m 15,0 C 27,4 C 14,5 km/h (3 Bft) 100,00 %
24.06.2017 13:06 27,5 C 27,2 C 47 % 1014,1 hPa 0,0 l/m 7,9 km/h (2 Bft) W-SW 251 2 min 0,000 mm 5,9 UV-I 873 W/m 15,2 C 27,2 C 17,7 km/h (3 Bft) 97,87 %
24.06.2017 13:08 27,4 C 27,2 C 47 % 1014,0 hPa 0,0 l/m 15,0 km/h (3 Bft) W 265 2 min 0,000 mm 6,0 UV-I 869 W/m 15,1 C 26,2 C 25,7 km/h (4 Bft) 95,74 %
24.06.2017 13:10 27,4 C 27,2 C 47 % 1014,0 hPa 0,0 l/m 11,8 km/h (2 Bft) W-NW 284 2 min 0,000 mm 5,9 UV-I 874 W/m 15,1 C 26,6 C 19,3 km/h (3 Bft) 98,00 %
24.06.2017 13:12 27,4 C 27,2 C 48 % 1014,1 hPa 0,0 l/m 8,0 km/h (2 Bft) W 269 2 min 0,000 mm 6,0 UV-I 880 W/m 15,4 C 27,1 C 14,5 km/h (3 Bft) 100,00 %
24.06.2017 13:14 27,4 C 27,2 C 48 % 1014,1 hPa 0,0 l/m 6,9 km/h (2 Bft) W-SW 252 2 min 0,000 mm 5,9 UV-I 879 W/m 15,4 C 27,3 C 14,5 km/h (3 Bft) 97,87 %
24.06.2017 13:16 27,6 C 27,2 C 48 % 1014,0 hPa 0,0 l/m 3,9 km/h (1 Bft) SW 224 2 min 0,000 mm 5,9 UV-I 871 W/m 15,6 C 27,6 C 12,9 km/h (3 Bft) 97,37 %
24.06.2017 13:18 27,3 C 27,2 C 46 % 1014,0 hPa 0,0 l/m 5,1 km/h (1 Bft) W-SW 257 2 min 0,000 mm 5,9 UV-I 876 W/m 14,6 C 27,3 C 12,9 km/h (3 Bft) 97,87 %
24.06.2017 13:20 27,3 C 27,2 C 48 % 1014,0 hPa 0,0 l/m 7,8 km/h (2 Bft) W 264 2 min 0,000 mm 5,9 UV-I 869 W/m 15,3 C 27,0 C 19,3 km/h (3 Bft) 94,00 %
24.06.2017 13:22 27,4 C 27,2 C 48 % 1013,9 hPa 0,0 l/m 2,8 km/h (1 Bft) W-NW 286 2 min 0,000 mm 5,9 UV-I 866 W/m 15,4 C 27,4 C 9,7 km/h (2 Bft) 98,00 %
24.06.2017 13:24 27,7 C 27,2 C 46 % 1013,9 hPa 0,0 l/m 7,8 km/h (2 Bft) W-NW 284 2 min 0,000 mm 5,9 UV-I 871 W/m 15,0 C 27,5 C 19,3 km/h (3 Bft) 95,74 %
24.06.2017 13:26 27,7 C 27,2 C 47 % 1013,8 hPa 0,0 l/m 7,4 km/h (2 Bft) W-SW 247 2 min 0,000 mm 5,9 UV-I 872 W/m 15,3 C 27,5 C 14,5 km/h (3 Bft) 95,74 %
24.06.2017 13:28 27,8 C 27,2 C 46 % 1013,8 hPa 0,0 l/m 5,0 km/h (1 Bft) W-NW 294 2 min 0,000 mm 5,9 UV-I 864 W/m 15,1 C 27,8 C 11,3 km/h (2 Bft) 95,74 %
24.06.2017 13:30 27,7 C 27,2 C 47 % 1013,8 hPa 0,0 l/m 5,9 km/h (2 Bft) N-NW 328 2 min 0,000 mm 5,9 UV-I 862 W/m 15,3 C 27,7 C 11,3 km/h (2 Bft) 92,00 %
24.06.2017 13:32 27,5 C 27,2 C 48 % 1013,8 hPa 0,0 l/m 6,1 km/h (2 Bft) SW 215 2 min 0,000 mm 5,8 UV-I 858 W/m 15,5 C 27,5 C 11,3 km/h (2 Bft) 97,87 %
24.06.2017 13:34 27,5 C 27,2 C 48 % 1013,8 hPa 0,0 l/m 10,1 km/h (2 Bft) SW 229 2 min 0,000 mm 5,8 UV-I 855 W/m 15,5 C 26,9 C 14,5 km/h (3 Bft) 97,44 %
24.06.2017 13:36 27,7 C 27,2 C 47 % 1013,7 hPa 0,0 l/m 10,9 km/h (2 Bft) NO 38 2 min 0,000 mm 5,8 UV-I 863 W/m 15,3 C 27,0 C 20,9 km/h (4 Bft) 95,74 %
24.06.2017 13:38 28,0 C 27,2 C 48 % 1013,6 hPa 0,0 l/m 6,6 km/h (2 Bft) NW 322 2 min 0,000 mm 5,9 UV-I 873 W/m 15,9 C 28,0 C 14,5 km/h (3 Bft) 95,74 %
24.06.2017 13:40 28,2 C 27,2 C 46 % 1013,6 hPa 0,0 l/m 8,8 km/h (2 Bft) W-NW 290 2 min 0,000 mm 5,9 UV-I 867 W/m 15,5 C 27,9 C 19,3 km/h (3 Bft) 97,87 %
24.06.2017 13:42 28,2 C 27,2 C 47 % 1013,6 hPa 0,0 l/m 5,2 km/h (1 Bft) W-NW 296 2 min 0,000 mm 5,8 UV-I 866 W/m 15,8 C 28,2 C 14,5 km/h (3 Bft) 96,23 %
24.06.2017 13:44 28,2 C 27,2 C 46 % 1013,6 hPa 0,0 l/m 6,6 km/h (2 Bft) W 261 2 min 0,000 mm 5,8 UV-I 861 W/m 15,5 C 28,2 C 17,7 km/h (3 Bft) 95,74 %
24.06.2017 13:46 28,1 C 27,2 C 45 % 1013,7 hPa 0,0 l/m 13,4 km/h (3 Bft) W-SW 254 2 min 0,000 mm 5,8 UV-I 863 W/m 15,0 C 27,2 C 20,9 km/h (4 Bft) 95,74 %
24.06.2017 13:48 28,0 C 27,2 C 47 % 1013,7 hPa 0,0 l/m 9,9 km/h (2 Bft) W-SW 255 2 min 0,000 mm 5,8 UV-I 859 W/m 15,6 C 27,5 C 17,7 km/h (3 Bft) 97,87 %
24.06.2017 13:50 27,7 C 27,2 C 48 % 1013,6 hPa 0,0 l/m 4,6 km/h (1 Bft) NW 306 2 min 0,000 mm 5,8 UV-I 853 W/m 15,7 C 27,7 C 6,4 km/h (2 Bft) 97,87 %
24.06.2017 13:52 27,7 C 27,2 C 46 % 1013,6 hPa 0,0 l/m 6,9 km/h (2 Bft) N-NO 13 2 min 0,000 mm 5,8 UV-I 860 W/m 15,0 C 27,6 C 17,7 km/h (3 Bft) 100,00 %
24.06.2017 13:54 27,6 C 27,2 C 48 % 1013,5 hPa 0,0 l/m 7,0 km/h (2 Bft) NW 318 2 min 0,000 mm 5,7 UV-I 857 W/m 15,6 C 27,5 C 12,9 km/h (3 Bft) 100,00 %
24.06.2017 13:56 27,8 C 27,2 C 48 % 1013,5 hPa 0,0 l/m 6,7 km/h (2 Bft) W-SW 241 2 min 0,000 mm 5,8 UV-I 858 W/m 15,8 C 27,8 C 16,1 km/h (3 Bft) 100,00 %
24.06.2017 13:58 28,1 C 27,2 C 48 % 1013,5 hPa 0,0 l/m 6,6 km/h (2 Bft) W-SW 258 2 min 0,000 mm 5,7 UV-I 861 W/m 16,0 C 28,1 C 11,3 km/h (2 Bft) 100,00 %
24.06.2017 14:00 28,2 C 27,2 C 47 % 1013,5 hPa 0,0 l/m 6,0 km/h (2 Bft) W 262 2 min 0,635 mm 5,7 UV-I 861 W/m 15,8 C 28,2 C 11,3 km/h (2 Bft) 100,00 %
24.06.2017 14:02 28,3 C 27,2 C 45 % 1013,5 hPa 0,0 l/m 6,9 km/h (2 Bft) W-SW 250 2 min 0,000 mm 5,7 UV-I 856 W/m 15,2 C 28,2 C 11,3 km/h (2 Bft) 95,74 %
24.06.2017 14:04 28,2 C 27,2 C 46 % 1013,4 hPa 0,0 l/m 2,7 km/h (1 Bft) W-SW 252 2 min 0,000 mm 5,6 UV-I 840 W/m 15,5 C 28,2 C 4,8 km/h (1 Bft) 100,00 %
24.06.2017 14:06 28,2 C 27,2 C 47 % 1013,4 hPa 0,0 l/m 4,2 km/h (1 Bft) N-NW 334 2 min 0,000 mm 5,7 UV-I 859 W/m 15,8 C 28,2 C 9,7 km/h (2 Bft) 95,74 %
24.06.2017 14:08 28,2 C 27,2 C 47 % 1013,3 hPa 0,0 l/m 5,0 km/h (1 Bft) N-NO 19 2 min 0,000 mm 5,6 UV-I 852 W/m 15,8 C 28,2 C 11,3 km/h (2 Bft) 95,74 %
24.06.2017 14:10 28,1 C 27,2 C 46 % 1013,4 hPa 0,0 l/m 5,8 km/h (2 Bft) O 101 2 min 0,000 mm 5,6 UV-I 855 W/m 15,4 C 28,1 C 12,9 km/h (3 Bft) 98,00 %
24.06.2017 14:12 28,2 C 27,2 C 46 % 1013,4 hPa 0,0 l/m 9,3 km/h (2 Bft) SW 226 2 min 0,000 mm 5,6 UV-I 853 W/m 15,5 C 27,8 C 19,3 km/h (3 Bft) 97,44 %
24.06.2017 14:14 28,1 C 27,2 C 46 % 1013,4 hPa 0,0 l/m 2,8 km/h (1 Bft) SO 138 2 min 0,000 mm 5,5 UV-I 848 W/m 15,4 C 28,1 C 6,4 km/h (2 Bft) 97,87 %
24.06.2017 14:16 28,2 C 27,2 C 47 % 1013,3 hPa 0,0 l/m 3,0 km/h (1 Bft) W-SW 240 2 min 0,000 mm 5,5 UV-I 844 W/m 15,8 C 28,2 C 8,0 km/h (2 Bft) 98,00 %
24.06.2017 14:18 28,5 C 27,2 C 46 % 1013,3 hPa 0,0 l/m 14,1 km/h (3 Bft) SW 235 2 min 0,000 mm 5,4 UV-I 838 W/m 15,7 C 27,6 C 24,1 km/h (4 Bft) 100,00 %
24.06.2017 14:20 28,4 C 27,2 C 46 % 1013,3 hPa 0,0 l/m 8,2 km/h (2 Bft) SW 220 2 min 0,000 mm 5,4 UV-I 838 W/m 15,6 C 28,1 C 14,5 km/h (3 Bft) 95,74 %
24.06.2017 14:22 28,6 C 27,2 C 46 % 1013,2 hPa 0,0 l/m 12,8 km/h (3 Bft) W-SW 250 2 min 0,000 mm 5,4 UV-I 839 W/m 15,8 C 27,9 C 20,9 km/h (4 Bft) 97,87 %
24.06.2017 14:24 28,6 C 27,2 C 45 % 1013,3 hPa 0,0 l/m 10,0 km/h (2 Bft) W 271 2 min 0,000 mm 4,9 UV-I 832 W/m 15,5 C 28,1 C 19,3 km/h (3 Bft) 100,00 %
24.06.2017 14:26 28,3 C 27,2 C 46 % 1013,2 hPa 0,0 l/m 7,5 km/h (2 Bft) W-NW 282 2 min 0,000 mm 5,2 UV-I 836 W/m 15,6 C 28,1 C 12,9 km/h (3 Bft) 92,00 %
24.06.2017 14:28 28,4 C 27,2 C 47 % 1013,2 hPa 0,0 l/m 5,4 km/h (1 Bft) N-NW 338 2 min 0,000 mm 5,2 UV-I 856 W/m 16,0 C 28,4 C 14,5 km/h (3 Bft) 97,30 %
24.06.2017 14:30 28,4 C 27,2 C 47 % 1013,2 hPa 0,0 l/m 9,4 km/h (2 Bft) NW 306 2 min 0,000 mm 5,1 UV-I 816 W/m 16,0 C 28,0 C 17,7 km/h (3 Bft) 100,00 %
24.06.2017 14:32 28,4 C 27,2 C 46 % 1013,1 hPa 0,0 l/m 8,3 km/h (2 Bft) W-SW 256 2 min 0,000 mm 4,2 UV-I 602 W/m 15,6 C 28,1 C 12,9 km/h (3 Bft) 95,74 %
24.06.2017 14:34 28,3 C 27,2 C 47 % 1013,1 hPa 0,0 l/m 12,3 km/h (3 Bft) SW 221 0 min 0,000 mm 3,5 UV-I 376 W/m 15,9 C 27,6 C 19,3 km/h (3 Bft) 97,87 %
24.06.2017 14:36 28,3 C 27,2 C 47 % 1013,0 hPa 0,0 l/m 7,6 km/h (2 Bft) W 273 2 min 0,000 mm 5,0 UV-I 695 W/m 15,9 C 28,1 C 12,9 km/h (3 Bft) 100,00 %
24.06.2017 14:38 28,3 C 27,2 C 48 % 1013,0 hPa 0,0 l/m 6,8 km/h (2 Bft) W-NW 298 2 min 0,000 mm 4,7 UV-I 918 W/m 16,2 C 28,2 C 12,9 km/h (3 Bft) 100,00 %
24.06.2017 14:40 28,4 C 27,2 C 47 % 1013,0 hPa 0,0 l/m 7,4 km/h (2 Bft) NW 317 2 min 0,000 mm 5,1 UV-I 900 W/m 16,0 C 28,3 C 19,3 km/h (3 Bft) 95,74 %
24.06.2017 14:42 28,5 C 27,2 C 46 % 1012,9 hPa 0,0 l/m 5,2 km/h (1 Bft) NW 319 2 min 0,000 mm 5,1 UV-I 890 W/m 15,7 C 28,5 C 11,3 km/h (2 Bft) 100,00 %
24.06.2017 14:44 28,8 C 27,2 C 47 % 1012,9 hPa 0,0 l/m 4,2 km/h (1 Bft) W-SW 250 2 min 0,000 mm 5,1 UV-I 880 W/m 16,3 C 28,8 C 9,7 km/h (2 Bft) 94,74 %
24.06.2017 14:46 29,1 C 27,2 C 45 % 1012,9 hPa 0,0 l/m 9,9 km/h (2 Bft) SW 223 2 min 0,000 mm 5,0 UV-I 877 W/m 15,9 C 28,7 C 22,5 km/h (4 Bft) 98,18 %
24.06.2017 14:48 29,2 C 27,2 C 46 % 1012,9 hPa 0,0 l/m 7,7 km/h (2 Bft) W 279 2 min 0,000 mm 4,9 UV-I 827 W/m 16,4 C 29,0 C 16,1 km/h (3 Bft) 97,22 %
24.06.2017 14:50 29,3 C 27,2 C 46 % 1012,9 hPa 0,0 l/m 3,5 km/h (1 Bft) W 265 2 min 0,000 mm 4,2 UV-I 831 W/m 16,5 C 29,3 C 12,9 km/h (3 Bft) 96,36 %
24.06.2017 14:52 29,2 C 27,2 C 44 % 1012,9 hPa 0,0 l/m 12,7 km/h (3 Bft) W-SW 255 2 min 0,000 mm 4,2 UV-I 830 W/m 15,7 C 28,6 C 20,9 km/h (4 Bft) 97,87 %
24.06.2017 14:54 28,9 C 27,2 C 45 % 1012,9 hPa 0,0 l/m 8,9 km/h (2 Bft) S 184 2 min 0,000 mm 4,3 UV-I 828 W/m 15,8 C 28,6 C 16,1 km/h (3 Bft) 87,76 %
24.06.2017 14:56 28,9 C 27,2 C 45 % 1012,8 hPa 0,0 l/m 11,8 km/h (2 Bft) SW 236 2 min 0,000 mm 4,8 UV-I 795 W/m 15,8 C 28,3 C 17,7 km/h (3 Bft) 96,00 %
24.06.2017 14:58 28,8 C 27,2 C 45 % 1012,8 hPa 0,0 l/m 9,3 km/h (2 Bft) SW 229 2 min 0,000 mm 4,7 UV-I 767 W/m 15,7 C 28,4 C 14,5 km/h (3 Bft) 97,87 %
24.06.2017 15:00 28,8 C 27,2 C 46 % 1012,8 hPa 0,0 l/m 9,5 km/h (2 Bft) W-SW 257 2 min 0,584 mm 4,7 UV-I 780 W/m 16,0 C 28,4 C 16,1 km/h (3 Bft) 97,37 %
24.06.2017 15:02 28,7 C 27,2 C 46 % 1012,7 hPa 0,0 l/m 6,5 km/h (2 Bft) NW 323 2 min 0,000 mm 4,6 UV-I 771 W/m 15,9 C 28,7 C 16,1 km/h (3 Bft) 93,62 %
24.06.2017 15:04 28,8 C 27,2 C 47 % 1012,7 hPa 0,0 l/m 4,9 km/h (1 Bft) N-NW 331 2 min 0,000 mm 4,6 UV-I 774 W/m 16,3 C 28,8 C 9,7 km/h (2 Bft) 97,96 %
24.06.2017 15:06 28,9 C 27,8 C 48 % 1012,7 hPa 0,0 l/m 3,3 km/h (1 Bft) N-NO 23 2 min 0,000 mm 4,5 UV-I 764 W/m 16,8 C 28,9 C 11,3 km/h (2 Bft) 91,49 %
24.06.2017 15:08 29,1 C 27,8 C 46 % 1012,5 hPa 0,0 l/m 6,0 km/h (2 Bft) NW 307 2 min 0,000 mm 4,6 UV-I 768 W/m 16,3 C 29,1 C 14,5 km/h (3 Bft) 96,00 %
24.06.2017 15:10 29,2 C 27,8 C 47 % 1012,5 hPa 0,0 l/m 5,2 km/h (1 Bft) O 101 2 min 0,000 mm 4,5 UV-I 755 W/m 16,7 C 29,2 C 12,9 km/h (3 Bft) 96,00 %
24.06.2017 15:12 29,3 C 27,8 C 45 % 1012,5 hPa 0,0 l/m 8,8 km/h (2 Bft) W 273 2 min 0,000 mm 4,4 UV-I 744 W/m 16,1 C 29,0 C 19,3 km/h (3 Bft) 97,87 %
24.06.2017 15:14 29,2 C 27,8 C 45 % 1012,5 hPa 0,0 l/m 14,1 km/h (3 Bft) SW 215 2 min 0,000 mm 4,4 UV-I 753 W/m 16,0 C 28,5 C 19,3 km/h (3 Bft) 92,50 %
24.06.2017 15:16 29,1 C 27,8 C 46 % 1012,5 hPa 0,0 l/m 9,4 km/h (2 Bft) W 275 2 min 0,000 mm 4,4 UV-I 745 W/m 16,3 C 28,8 C 16,1 km/h (3 Bft) 91,49 %
24.06.2017 15:18 28,9 C 27,8 C 45 % 1012,5 hPa 0,0 l/m 9,0 km/h (2 Bft) W 275 2 min 0,000 mm 4,4 UV-I 753 W/m 15,8 C 28,6 C 14,5 km/h (3 Bft) 90,00 %
24.06.2017 15:20 28,9 C 27,8 C 47 % 1012,5 hPa 0,0 l/m 7,7 km/h (2 Bft) W-SW 246 2 min 0,000 mm 4,3 UV-I 748 W/m 16,4 C 28,7 C 12,9 km/h (3 Bft) 96,00 %
24.06.2017 15:22 28,9 C 27,8 C 46 % 1012,5 hPa 0,0 l/m 11,3 km/h (2 Bft) W-SW 257 2 min 0,000 mm 4,3 UV-I 740 W/m 16,1 C 28,3 C 16,1 km/h (3 Bft) 93,62 %
24.06.2017 15:24 29,1 C 27,8 C 46 % 1012,5 hPa 0,0 l/m 6,4 km/h (2 Bft) W-SW 252 2 min 0,000 mm 4,2 UV-I 730 W/m 16,3 C 29,1 C 12,9 km/h (3 Bft) 91,49 %
24.06.2017 15:26 29,1 C 27,8 C 47 % 1012,5 hPa 0,0 l/m 5,9 km/h (2 Bft) W 264 2 min 0,000 mm 4,1 UV-I 727 W/m 16,6 C 29,1 C 12,9 km/h (3 Bft) 92,11 %
24.06.2017 15:28 28,9 C 27,8 C 46 % 1012,5 hPa 0,0 l/m 7,4 km/h (2 Bft) N-NO 17 2 min 0,000 mm 4,1 UV-I 716 W/m 16,1 C 28,8 C 14,5 km/h (3 Bft) 95,74 %
24.06.2017 15:30 29,1 C 27,8 C 47 % 1012,4 hPa 0,0 l/m 5,6 km/h (1 Bft) NO 43 2 min 0,000 mm 4,1 UV-I 722 W/m 16,6 C 29,1 C 16,1 km/h (3 Bft) 93,75 %
24.06.2017 15:32 29,2 C 27,8 C 46 % 1012,3 hPa 0,0 l/m 5,5 km/h (1 Bft) W 262 2 min 0,000 mm 4,0 UV-I 719 W/m 16,4 C 29,2 C 11,3 km/h (2 Bft) 91,49 %
24.06.2017 15:34 29,4 C 27,8 C 46 % 1012,3 hPa 0,0 l/m 5,1 km/h (1 Bft) W-NW 296 2 min 0,000 mm 4,0 UV-I 714 W/m 16,5 C 29,4 C 14,5 km/h (3 Bft) 90,00 %
24.06.2017 15:36 29,6 C 27,8 C 45 % 1012,3 hPa 0,0 l/m 5,9 km/h (2 Bft) W 259 2 min 0,000 mm 4,0 UV-I 701 W/m 16,4 C 29,6 C 11,3 km/h (2 Bft) 89,36 %
24.06.2017 15:38 29,5 C 27,8 C 46 % 1012,3 hPa 0,0 l/m 10,7 km/h (2 Bft) W 274 2 min 0,000 mm 3,9 UV-I 705 W/m 16,6 C 29,1 C 16,1 km/h (3 Bft) 94,00 %
24.06.2017 15:40 29,3 C 27,8 C 46 % 1012,3 hPa 0,0 l/m 10,6 km/h (2 Bft) W-SW 238 2 min 0,000 mm 3,9 UV-I 699 W/m 16,5 C 28,9 C 17,7 km/h (3 Bft) 94,74 %
24.06.2017 15:42 29,2 C 27,8 C 45 % 1012,3 hPa 0,0 l/m 13,1 km/h (3 Bft) W 279 2 min 0,000 mm 3,8 UV-I 697 W/m 16,0 C 28,5 C 20,9 km/h (4 Bft) 92,00 %
24.06.2017 15:44 29,0 C 27,8 C 46 % 1012,2 hPa 0,0 l/m 7,4 km/h (2 Bft) W-SW 238 2 min 0,000 mm 3,7 UV-I 684 W/m 16,2 C 28,9 C 14,5 km/h (3 Bft) 95,74 %
24.06.2017 15:46 28,9 C 27,8 C 46 % 1012,2 hPa 0,0 l/m 8,4 km/h (2 Bft) SW 229 2 min 0,000 mm 3,7 UV-I 670 W/m 16,1 C 28,6 C 14,5 km/h (3 Bft) 93,62 %
24.06.2017 15:48 29,3 C 27,8 C 47 % 1012,1 hPa 0,0 l/m 8,5 km/h (2 Bft) W-SW 241 2 min 0,000 mm 3,6 UV-I 674 W/m 16,8 C 29,1 C 14,5 km/h (3 Bft) 98,00 %
24.06.2017 15:50 29,6 C 27,8 C 46 % 1012,0 hPa 0,0 l/m 8,4 km/h (2 Bft) W-SW 238 2 min 0,000 mm 3,7 UV-I 683 W/m 16,7 C 29,4 C 14,5 km/h (3 Bft) 100,00 %
24.06.2017 15:52 29,6 C 27,8 C 45 % 1012,1 hPa 0,0 l/m 6,3 km/h (2 Bft) N-NO 19 2 min 0,000 mm 3,6 UV-I 681 W/m 16,4 C 29,6 C 12,9 km/h (3 Bft) 97,87 %
24.06.2017 15:54 29,6 C 27,8 C 45 % 1012,1 hPa 0,0 l/m 5,0 km/h (1 Bft) W-SW 240 2 min 0,000 mm 3,6 UV-I 682 W/m 16,4 C 29,6 C 12,9 km/h (3 Bft) 100,00 %
24.06.2017 15:56 29,5 C 27,8 C 46 % 1012,1 hPa 0,0 l/m 5,1 km/h (1 Bft) W-SW 242 2 min 0,000 mm 3,5 UV-I 683 W/m 16,6 C 29,5 C 14,5 km/h (3 Bft) 94,00 %
24.06.2017 15:58 29,5 C 27,8 C 46 % 1012,0 hPa 0,0 l/m 4,1 km/h (1 Bft) W-SW 254 2 min 0,000 mm 3,3 UV-I 624 W/m 16,6 C 29,5 C 12,9 km/h (3 Bft) 100,00 %
24.06.2017 16:00 29,4 C 27,8 C 47 % 1012,0 hPa 0,0 l/m 7,0 km/h (2 Bft) S-SW 196 2 min 0,000 mm 3,2 UV-I 600 W/m 16,9 C 29,3 C 16,1 km/h (3 Bft) 100,00 %
24.06.2017 16:02 29,6 C 27,8 C 47 % 1012,0 hPa 0,0 l/m 5,4 km/h (1 Bft) W-NW 294 2 min 0,534 mm 3,2 UV-I 624 W/m 17,1 C 29,6 C 9,7 km/h (2 Bft) 97,87 %
24.06.2017 16:04 29,5 C 27,8 C 45 % 1012,0 hPa 0,0 l/m 6,8 km/h (2 Bft) W-SW 254 2 min 0,000 mm 3,3 UV-I 638 W/m 16,3 C 29,5 C 11,3 km/h (2 Bft) 98,00 %
24.06.2017 16:06 29,4 C 27,8 C 45 % 1011,9 hPa 0,0 l/m 12,3 km/h (3 Bft) S-SW 210 2 min 0,000 mm 3,3 UV-I 654 W/m 16,2 C 28,8 C 19,3 km/h (3 Bft) 95,74 %
24.06.2017 16:08 29,4 C 27,8 C 46 % 1012,0 hPa 0,0 l/m 4,3 km/h (1 Bft) W 279 2 min 0,000 mm 3,3 UV-I 659 W/m 16,5 C 29,4 C 11,3 km/h (2 Bft) 97,22 %
24.06.2017 16:10 29,4 C 27,8 C 46 % 1011,9 hPa 0,0 l/m 4,2 km/h (1 Bft) S-SW 212 2 min 0,000 mm 3,2 UV-I 651 W/m 16,5 C 29,4 C 6,4 km/h (2 Bft) 96,00 %
24.06.2017 16:12 29,3 C 27,8 C 46 % 1011,9 hPa 0,0 l/m 1,6 km/h (1 Bft) W-NW 286 2 min 0,000 mm 3,1 UV-I 632 W/m 16,5 C 29,3 C 6,4 km/h (2 Bft) 97,87 %
24.06.2017 16:14 29,3 C 27,8 C 48 % 1011,8 hPa 0,0 l/m 6,8 km/h (2 Bft) N 5 2 min 0,000 mm 3,1 UV-I 641 W/m 17,1 C 29,3 C 14,5 km/h (3 Bft) 97,87 %
24.06.2017 16:16 29,4 C 27,8 C 47 % 1011,9 hPa 0,0 l/m 4,8 km/h (1 Bft) W-NW 303 2 min 0,000 mm 3,1 UV-I 641 W/m 16,9 C 29,4 C 12,9 km/h (3 Bft) 97,87 %
24.06.2017 16:18 29,5 C 27,8 C 47 % 1011,8 hPa 0,0 l/m 5,0 km/h (1 Bft) N-NW 336 2 min 0,000 mm 3,1 UV-I 638 W/m 17,0 C 29,5 C 9,7 km/h (2 Bft) 100,00 %
24.06.2017 16:20 29,4 C 27,8 C 47 % 1011,8 hPa 0,0 l/m 5,7 km/h (1 Bft) W-NW 290 2 min 0,000 mm 3,1 UV-I 636 W/m 16,9 C 29,4 C 16,1 km/h (3 Bft) 97,87 %
24.06.2017 16:22 29,4 C 27,8 C 46 % 1011,8 hPa 0,0 l/m 6,6 km/h (2 Bft) N 360 2 min 0,000 mm 3,0 UV-I 631 W/m 16,5 C 29,4 C 14,5 km/h (3 Bft) 95,74 %
24.06.2017 16:24 29,6 C 27,8 C 47 % 1011,7 hPa 0,0 l/m 3,6 km/h (1 Bft) S-SW 202 2 min 0,000 mm 3,0 UV-I 633 W/m 17,1 C 29,6 C 9,7 km/h (2 Bft) 97,87 %
24.06.2017 16:26 29,6 C 27,8 C 47 % 1011,7 hPa 0,0 l/m 5,0 km/h (1 Bft) W 263 2 min 0,000 mm 2,9 UV-I 626 W/m 17,1 C 29,6 C 9,7 km/h (2 Bft) 97,87 %
24.06.2017 16:28 29,6 C 27,8 C 46 % 1011,7 hPa 0,0 l/m 6,3 km/h (2 Bft) W-SW 249 2 min 0,000 mm 2,9 UV-I 620 W/m 16,7 C 29,6 C 12,9 km/h (3 Bft) 95,74 %
24.06.2017 16:30 29,6 C 27,8 C 46 % 1011,7 hPa 0,0 l/m 7,9 km/h (2 Bft) W 267 2 min 0,000 mm 2,9 UV-I 618 W/m 16,7 C 29,4 C 14,5 km/h (3 Bft) 97,87 %
24.06.2017 16:32 29,8 C 27,8 C 47 % 1011,7 hPa 0,0 l/m 8,7 km/h (2 Bft) W-SW 243 2 min 0,000 mm 2,8 UV-I 615 W/m 17,2 C 29,6 C 17,7 km/h (3 Bft) 100,00 %
24.06.2017 16:34 29,7 C 27,8 C 45 % 1011,7 hPa 0,0 l/m 9,8 km/h (2 Bft) SW 231 2 min 0,000 mm 2,8 UV-I 604 W/m 16,5 C 29,4 C 14,5 km/h (3 Bft) 96,23 %
24.06.2017 16:36 29,6 C 27,8 C 45 % 1011,7 hPa 0,0 l/m 12,2 km/h (2 Bft) W-SW 249 2 min 0,000 mm 2,7 UV-I 596 W/m 16,4 C 29,1 C 19,3 km/h (3 Bft) 95,74 %
24.06.2017 16:38 29,5 C 27,8 C 47 % 1011,6 hPa 0,0 l/m 7,2 km/h (2 Bft) W-SW 250 2 min 0,000 mm 2,7 UV-I 591 W/m 17,0 C 29,4 C 12,9 km/h (3 Bft) 100,00 %
24.06.2017 16:40 29,5 C 27,8 C 47 % 1011,6 hPa 0,0 l/m 4,3 km/h (1 Bft) W 264 2 min 0,000 mm 2,6 UV-I 589 W/m 17,0 C 29,5 C 16,1 km/h (3 Bft) 100,00 %
24.06.2017 16:42 29,4 C 27,8 C 48 % 1011,5 hPa 0,0 l/m 5,3 km/h (1 Bft) N 11 2 min 0,000 mm 2,6 UV-I 581 W/m 17,2 C 29,4 C 11,3 km/h (2 Bft) 95,74 %
24.06.2017 16:44 29,6 C 27,8 C 47 % 1011,5 hPa 0,0 l/m 7,0 km/h (2 Bft) W-SW 240 2 min 0,000 mm 2,5 UV-I 574 W/m 17,1 C 29,5 C 16,1 km/h (3 Bft) 97,87 %
24.06.2017 16:46 29,8 C 27,8 C 47 % 1011,5 hPa 0,0 l/m 5,7 km/h (1 Bft) W-NW 283 2 min 0,000 mm 2,5 UV-I 571 W/m 17,2 C 29,8 C 12,9 km/h (3 Bft) 95,12 %
24.06.2017 16:48 29,7 C 27,8 C 46 % 1011,5 hPa 0,0 l/m 3,7 km/h (1 Bft) W 281 2 min 0,000 mm 2,4 UV-I 563 W/m 16,8 C 29,7 C 11,3 km/h (2 Bft) 100,00 %
24.06.2017 16:50 29,7 C 27,8 C 47 % 1011,5 hPa 0,0 l/m 2,7 km/h (1 Bft) N 9 2 min 0,000 mm 2,4 UV-I 564 W/m 17,2 C 29,7 C 11,3 km/h (2 Bft) 100,00 %
24.06.2017 16:52 29,7 C 27,8 C 47 % 1011,4 hPa 0,0 l/m 4,8 km/h (1 Bft) S 182 2 min 0,000 mm 2,3 UV-I 556 W/m 17,2 C 29,7 C 14,5 km/h (3 Bft) 100,00 %
24.06.2017 16:54 29,9 C 27,8 C 47 % 1011,5 hPa 0,0 l/m 5,8 km/h (2 Bft) SW 215 2 min 0,000 mm 2,3 UV-I 552 W/m 17,3 C 29,9 C 9,7 km/h (2 Bft) 95,74 %
24.06.2017 16:56 30,0 C 27,8 C 46 % 1011,5 hPa 0,0 l/m 2,5 km/h (1 Bft) N-NO 30 2 min 0,000 mm 2,3 UV-I 547 W/m 17,1 C 30,0 C 11,3 km/h (2 Bft) 97,87 %
24.06.2017 16:58 30,1 C 27,8 C 47 % 1011,4 hPa 0,0 l/m 0,1 km/h (0 Bft) N-NW 338 2 min 0,000 mm 2,2 UV-I 536 W/m 17,5 C 30,1 C 1,6 km/h (1 Bft) 97,87 %
24.06.2017 17:00 30,2 C 27,8 C 45 % 1011,4 hPa 0,0 l/m 4,8 km/h (1 Bft) W-NW 292 2 min 0,457 mm 2,2 UV-I 534 W/m 16,9 C 30,2 C 12,9 km/h (3 Bft) 100,00 %
24.06.2017 17:02 29,9 C 27,8 C 46 % 1011,4 hPa 0,0 l/m 2,1 km/h (1 Bft) W-NW 299 2 min 0,000 mm 2,2 UV-I 535 W/m 17,0 C 29,9 C 8,0 km/h (2 Bft) 97,87 %
24.06.2017 17:04 30,0 C 27,8 C 46 % 1011,3 hPa 0,0 l/m 7,2 km/h (2 Bft) W-SW 240 2 min 0,000 mm 2,1 UV-I 528 W/m 17,1 C 29,9 C 12,9 km/h (3 Bft) 97,87 %
24.06.2017 17:06 29,9 C 27,8 C 46 % 1011,3 hPa 0,0 l/m 8,6 km/h (2 Bft) W-SW 250 2 min 0,000 mm 2,1 UV-I 526 W/m 17,0 C 29,7 C 14,5 km/h (3 Bft) 100,00 %
24.06.2017 17:08 29,9 C 27,8 C 46 % 1011,4 hPa 0,0 l/m 5,8 km/h (2 Bft) W 266 2 min 0,000 mm 2,1 UV-I 511 W/m 17,0 C 29,9 C 11,3 km/h (2 Bft) 97,87 %
24.06.2017 17:10 29,9 C 27,8 C 46 % 1011,4 hPa 0,0 l/m 6,2 km/h (2 Bft) W-SW 238 2 min 0,000 mm 2,0 UV-I 501 W/m 17,0 C 29,9 C 16,1 km/h (3 Bft) 95,74 %
24.06.2017 17:12 29,8 C 27,8 C 47 % 1011,4 hPa 0,0 l/m 2,2 km/h (1 Bft) N-NO 25 2 min 0,000 mm 2,0 UV-I 501 W/m 17,2 C 29,8 C 6,4 km/h (2 Bft) 94,00 %
24.06.2017 17:14 29,7 C 27,8 C 46 % 1011,4 hPa 0,0 l/m 5,4 km/h (1 Bft) W-NW 288 2 min 0,000 mm 1,9 UV-I 489 W/m 16,8 C 29,7 C 11,3 km/h (2 Bft) 95,74 %
24.06.2017 17:16 29,6 C 27,8 C 47 % 1011,4 hPa 0,0 l/m 7,8 km/h (2 Bft) W 264 2 min 0,000 mm 1,9 UV-I 496 W/m 17,1 C 29,5 C 16,1 km/h (3 Bft) 94,74 %
24.06.2017 17:18 29,6 C 27,8 C 47 % 1011,4 hPa 0,0 l/m 2,6 km/h (1 Bft) N-NW 336 2 min 0,000 mm 1,9 UV-I 492 W/m 17,1 C 29,6 C 11,3 km/h (2 Bft) 97,87 %
24.06.2017 17:20 29,6 C 27,8 C 48 % 1011,4 hPa 0,0 l/m 7,2 km/h (2 Bft) NW 311 2 min 0,000 mm 1,8 UV-I 483 W/m 17,4 C 29,5 C 17,7 km/h (3 Bft) 95,74 %
24.06.2017 17:22 29,5 C 27,8 C 47 % 1011,4 hPa 0,0 l/m 5,0 km/h (1 Bft) W-NW 300 2 min 0,000 mm 1,8 UV-I 469 W/m 17,0 C 29,5 C 11,3 km/h (2 Bft) 96,00 %
24.06.2017 17:24 29,5 C 27,8 C 47 % 1011,4 hPa 0,0 l/m 7,1 km/h (2 Bft) W 280 2 min 0,000 mm 1,7 UV-I 465 W/m 17,0 C 29,4 C 17,7 km/h (3 Bft) 93,62 %
24.06.2017 17:26 29,4 C 27,8 C 47 % 1011,4 hPa 0,0 l/m 7,3 km/h (2 Bft) S-SW 209 2 min 0,000 mm 1,7 UV-I 449 W/m 16,9 C 29,3 C 17,7 km/h (3 Bft) 98,00 %
24.06.2017 17:28 29,4 C 27,8 C 47 % 1011,3 hPa 0,0 l/m 5,5 km/h (1 Bft) N-NW 345 2 min 0,000 mm 1,7 UV-I 467 W/m 16,9 C 29,4 C 9,7 km/h (2 Bft) 95,74 %
24.06.2017 17:30 29,5 C 27,8 C 48 % 1011,4 hPa 0,0 l/m 1,3 km/h (1 Bft) NW 324 2 min 0,000 mm 1,6 UV-I 463 W/m 17,3 C 29,5 C 4,8 km/h (1 Bft) 97,87 %
24.06.2017 17:32 29,6 C 27,8 C 47 % 1011,3 hPa 0,0 l/m 7,5 km/h (2 Bft) W 281 2 min 0,000 mm 1,6 UV-I 457 W/m 17,1 C 29,5 C 12,9 km/h (3 Bft) 94,87 %
24.06.2017 17:34 29,4 C 27,8 C 48 % 1011,3 hPa 0,0 l/m 5,5 km/h (1 Bft) N-NO 21 2 min 0,000 mm 1,6 UV-I 445 W/m 17,2 C 29,4 C 9,7 km/h (2 Bft) 96,00 %
24.06.2017 17:36 29,4 C 27,8 C 48 % 1011,3 hPa 0,0 l/m 4,4 km/h (1 Bft) W-NW 296 2 min 0,000 mm 1,5 UV-I 429 W/m 17,2 C 29,4 C 11,3 km/h (2 Bft) 95,74 %
24.06.2017 17:38 29,4 C 27,8 C 47 % 1011,4 hPa 0,0 l/m 4,4 km/h (1 Bft) W-SW 245 2 min 0,000 mm 1,5 UV-I 441 W/m 16,9 C 29,4 C 9,7 km/h (2 Bft) 93,62 %
24.06.2017 17:40 29,4 C 27,8 C 47 % 1011,4 hPa 0,0 l/m 2,1 km/h (1 Bft) W-NW 290 2 min 0,000 mm 1,5 UV-I 444 W/m 16,9 C 29,4 C 4,8 km/h (1 Bft) 100,00 %
24.06.2017 17:42 29,4 C 27,8 C 48 % 1011,3 hPa 0,0 l/m 4,7 km/h (1 Bft) NW 312 2 min 0,000 mm 1,4 UV-I 431 W/m 17,2 C 29,4 C 14,5 km/h (3 Bft) 97,87 %
24.06.2017 17:44 29,6 C 27,8 C 48 % 1011,4 hPa 0,0 l/m 3,5 km/h (1 Bft) W-SW 256 2 min 0,000 mm 1,4 UV-I 423 W/m 17,4 C 29,6 C 6,4 km/h (2 Bft) 98,00 %
24.06.2017 17:46 29,7 C 27,8 C 49 % 1011,3 hPa 0,0 l/m 4,2 km/h (1 Bft) W-NW 300 2 min 0,000 mm 1,4 UV-I 411 W/m 17,8 C 29,7 C 11,3 km/h (2 Bft) 95,74 %
24.06.2017 17:48 29,7 C 27,8 C 47 % 1011,3 hPa 0,0 l/m 5,5 km/h (1 Bft) N-NO 19 2 min 0,000 mm 1,3 UV-I 406 W/m 17,2 C 29,7 C 14,5 km/h (3 Bft) 97,87 %
24.06.2017 17:50 29,6 C 27,8 C 47 % 1011,3 hPa 0,0 l/m 5,2 km/h (1 Bft) W-SW 250 2 min 0,000 mm 1,3 UV-I 397 W/m 17,1 C 29,6 C 11,3 km/h (2 Bft) 97,87 %
24.06.2017 17:52 29,6 C 27,8 C 48 % 1011,2 hPa 0,0 l/m 4,6 km/h (1 Bft) W 263 2 min 0,000 mm 1,3 UV-I 394 W/m 17,4 C 29,6 C 11,3 km/h (2 Bft) 92,11 %
24.06.2017 17:54 29,5 C 27,8 C 48 % 1011,2 hPa 0,0 l/m 6,4 km/h (2 Bft) W-NW 297 2 min 0,000 mm 1,3 UV-I 389 W/m 17,3 C 29,5 C 12,9 km/h (3 Bft) 96,00 %
24.06.2017 17:56 29,4 C 27,8 C 48 % 1011,2 hPa 0,0 l/m 5,9 km/h (2 Bft) NW 304 2 min 0,000 mm 1,2 UV-I 383 W/m 17,2 C 29,4 C 14,5 km/h (3 Bft) 98,00 %
24.06.2017 17:58 29,4 C 27,8 C 48 % 1011,3 hPa 0,0 l/m 3,1 km/h (1 Bft) W 259 2 min 0,000 mm 1,2 UV-I 380 W/m 17,2 C 29,4 C 6,4 km/h (2 Bft) 96,00 %
24.06.2017 18:00 29,6 C 27,8 C 47 % 1011,3 hPa 0,0 l/m 5,6 km/h (1 Bft) W 265 2 min 0,356 mm 1,2 UV-I 375 W/m 17,1 C 29,6 C 12,9 km/h (3 Bft) 97,37 %
24.06.2017 18:02 29,6 C 27,8 C 47 % 1011,3 hPa 0,0 l/m 6,0 km/h (2 Bft) NW 304 2 min 0,000 mm 1,1 UV-I 369 W/m 17,1 C 29,6 C 14,5 km/h (3 Bft) 93,62 %
24.06.2017 18:04 29,5 C 27,8 C 47 % 1011,2 hPa 0,0 l/m 6,2 km/h (2 Bft) W 263 2 min 0,000 mm 1,1 UV-I 364 W/m 17,0 C 29,5 C 16,1 km/h (3 Bft) 97,87 %
24.06.2017 18:06 29,4 C 27,8 C 47 % 1011,2 hPa 0,0 l/m 3,4 km/h (1 Bft) W-NW 292 2 min 0,000 mm 1,1 UV-I 357 W/m 16,9 C 29,4 C 9,7 km/h (2 Bft) 96,00 %
24.06.2017 18:08 29,3 C 27,8 C 48 % 1011,2 hPa 0,0 l/m 6,9 km/h (2 Bft) W 265 2 min 0,000 mm 1,1 UV-I 352 W/m 17,1 C 29,2 C 14,5 km/h (3 Bft) 85,42 %
24.06.2017 18:10 29,2 C 27,8 C 48 % 1011,1 hPa 0,0 l/m 4,8 km/h (1 Bft) W-NW 283 2 min 0,000 mm 1,0 UV-I 344 W/m 17,0 C 29,2 C 11,3 km/h (2 Bft) 95,74 %
24.06.2017 18:12 29,1 C 27,8 C 48 % 1011,1 hPa 0,0 l/m 7,8 km/h (2 Bft) W-NW 290 2 min 0,000 mm 1,0 UV-I 337 W/m 16,9 C 28,9 C 17,7 km/h (3 Bft) 93,62 %
24.06.2017 18:14 29,1 C 27,8 C 49 % 1011,1 hPa 0,0 l/m 7,6 km/h (2 Bft) W-SW 249 2 min 0,000 mm 1,0 UV-I 334 W/m 17,3 C 29,0 C 17,7 km/h (3 Bft) 98,00 %
24.06.2017 18:16 29,1 C 27,8 C 48 % 1011,1 hPa 0,0 l/m 7,9 km/h (2 Bft) W-NW 294 2 min 0,000 mm 0,9 UV-I 331 W/m 16,9 C 28,9 C 16,1 km/h (3 Bft) 95,74 %
24.06.2017 18:18 29,1 C 27,8 C 49 % 1011,1 hPa 0,0 l/m 3,9 km/h (1 Bft) NW 304 2 min 0,000 mm 0,9 UV-I 318 W/m 17,3 C 29,1 C 12,9 km/h (3 Bft) 93,62 %
24.06.2017 18:20 29,0 C 27,8 C 49 % 1011,1 hPa 0,0 l/m 5,6 km/h (1 Bft) W 269 2 min 0,000 mm 0,9 UV-I 307 W/m 17,2 C 29,0 C 12,9 km/h (3 Bft) 95,35 %
24.06.2017 18:22 29,1 C 27,8 C 49 % 1011,1 hPa 0,0 l/m 3,0 km/h (1 Bft) W-SW 243 2 min 0,000 mm 0,9 UV-I 300 W/m 17,3 C 29,1 C 9,7 km/h (2 Bft) 91,49 %
24.06.2017 18:24 29,1 C 27,8 C 49 % 1011,1 hPa 0,0 l/m 2,3 km/h (1 Bft) W-NW 300 2 min 0,000 mm 0,8 UV-I 268 W/m 17,3 C 29,1 C 4,8 km/h (1 Bft) 93,62 %
24.06.2017 18:26 29,1 C 27,8 C 49 % 1011,3 hPa 0,0 l/m 7,5 km/h (2 Bft) W-SW 257 2 min 0,000 mm 0,8 UV-I 285 W/m 17,3 C 29,0 C 16,1 km/h (3 Bft) 91,49 %
24.06.2017 18:28 29,0 C 27,8 C 48 % 1011,2 hPa 0,0 l/m 9,6 km/h (2 Bft) W-SW 249 2 min 0,000 mm 0,8 UV-I 293 W/m 16,9 C 28,6 C 22,5 km/h (4 Bft) 91,49 %
24.06.2017 18:30 29,0 C 28,3 C 49 % 1011,2 hPa 0,0 l/m 8,2 km/h (2 Bft) W-SW 258 2 min 0,000 mm 0,8 UV-I 267 W/m 17,2 C 28,8 C 14,5 km/h (3 Bft) 95,74 %
24.06.2017 18:33 28,9 C 27,8 C 48 % 1011,1 hPa 0,0 l/m 8,9 km/h (2 Bft) W-NW 297 3 min 0,000 mm 0,7 UV-I 276 W/m 16,8 C 28,6 C 22,5 km/h (4 Bft) 94,12 %
24.06.2017 18:34 28,8 C 27,8 C 49 % 1011,1 hPa 0,0 l/m 7,4 km/h (2 Bft) NW 319 1 min 0,000 mm 0,7 UV-I 285 W/m 17,0 C 28,7 C 16,1 km/h (3 Bft) 91,30 %
24.06.2017 18:36 28,7 C 27,8 C 49 % 1011,1 hPa 0,0 l/m 6,4 km/h (2 Bft) W-NW 284 2 min 0,000 mm 0,7 UV-I 212 W/m 16,9 C 28,7 C 16,1 km/h (3 Bft) 94,74 %
24.06.2017 18:38 28,6 C 27,8 C 49 % 1011,1 hPa 0,0 l/m 6,1 km/h (2 Bft) W 272 0 min 0,000 mm 0,6 UV-I 139 W/m 16,8 C 28,6 C 14,5 km/h (3 Bft) 92,45 %
24.06.2017 18:40 28,4 C 27,8 C 49 % 1011,1 hPa 0,0 l/m 8,9 km/h (2 Bft) W-SW 252 0 min 0,000 mm 0,6 UV-I 137 W/m 16,6 C 28,1 C 16,1 km/h (3 Bft) 93,62 %
24.06.2017 18:42 28,3 C 27,8 C 49 % 1011,1 hPa 0,0 l/m 9,9 km/h (2 Bft) W-NW 286 2 min 0,000 mm 0,6 UV-I 200 W/m 16,5 C 27,8 C 17,7 km/h (3 Bft) 95,74 %
24.06.2017 18:44 28,2 C 27,8 C 49 % 1011,1 hPa 0,0 l/m 11,4 km/h (2 Bft) W-SW 244 0 min 0,000 mm 0,6 UV-I 158 W/m 16,5 C 27,5 C 22,5 km/h (4 Bft) 95,83 %
24.06.2017 18:46 28,2 C 27,8 C 49 % 1011,1 hPa 0,0 l/m 6,6 km/h (2 Bft) W 277 2 min 0,000 mm 0,5 UV-I 200 W/m 16,5 C 28,2 C 16,1 km/h (3 Bft) 95,74 %
24.06.2017 18:48 28,3 C 27,8 C 50 % 1011,1 hPa 0,0 l/m 6,6 km/h (2 Bft) W 269 2 min 0,000 mm 0,5 UV-I 260 W/m 16,9 C 28,3 C 17,7 km/h (3 Bft) 85,11 %
24.06.2017 18:50 28,3 C 27,8 C 49 % 1011,0 hPa 0,0 l/m 9,4 km/h (2 Bft) W 279 2 min 0,000 mm 0,5 UV-I 252 W/m 16,5 C 27,9 C 19,3 km/h (3 Bft) 98,00 %
24.06.2017 18:52 28,4 C 27,8 C 49 % 1011,0 hPa 0,0 l/m 8,3 km/h (2 Bft) W-SW 256 2 min 0,000 mm 0,5 UV-I 245 W/m 16,6 C 28,1 C 17,7 km/h (3 Bft) 98,00 %
24.06.2017 18:54 28,4 C 27,8 C 49 % 1011,0 hPa 0,0 l/m 8,3 km/h (2 Bft) W 281 2 min 0,000 mm 0,5 UV-I 237 W/m 16,6 C 28,1 C 16,1 km/h (3 Bft) 91,49 %
24.06.2017 18:56 28,4 C 27,8 C 48 % 1011,0 hPa 0,0 l/m 12,7 km/h (3 Bft) W-SW 257 2 min 0,000 mm 0,5 UV-I 230 W/m 16,3 C 27,6 C 25,7 km/h (4 Bft) 95,74 %
24.06.2017 18:58 28,4 C 27,8 C 49 % 1011,0 hPa 0,0 l/m 8,9 km/h (2 Bft) W-NW 298 2 min 0,000 mm 0,5 UV-I 219 W/m 16,6 C 28,1 C 17,7 km/h (3 Bft) 95,74 %
24.06.2017 19:00 28,4 C 27,8 C 48 % 1011,0 hPa 0,0 l/m 6,7 km/h (2 Bft) W-SW 248 2 min 0,000 mm 0,4 UV-I 208 W/m 16,3 C 28,4 C 14,5 km/h (3 Bft) 93,62 %
24.06.2017 19:02 28,4 C 27,8 C 48 % 1011,0 hPa 0,0 l/m 11,6 km/h (2 Bft) W-NW 286 2 min 0,254 mm 0,0 UV-I 195 W/m 16,3 C 27,7 C 19,3 km/h (3 Bft) 89,36 %
24.06.2017 19:04 28,4 C 27,8 C 48 % 1011,0 hPa 0,0 l/m 10,0 km/h (2 Bft) W-NW 284 2 min 0,000 mm 0,0 UV-I 192 W/m 16,3 C 27,9 C 17,7 km/h (3 Bft) 91,49 %
24.06.2017 19:06 28,3 C 27,8 C 50 % 1011,0 hPa 0,0 l/m 6,1 km/h (2 Bft) SW 234 2 min 0,000 mm 0,0 UV-I 188 W/m 16,9 C 28,3 C 12,9 km/h (3 Bft) 97,87 %
24.06.2017 19:08 28,3 C 27,8 C 49 % 1011,0 hPa 0,0 l/m 9,4 km/h (2 Bft) W-SW 245 2 min 0,000 mm 0,0 UV-I 185 W/m 16,5 C 27,9 C 16,1 km/h (3 Bft) 97,37 %
24.06.2017 19:10 28,3 C 27,8 C 49 % 1011,1 hPa 0,0 l/m 6,1 km/h (2 Bft) W-NW 284 2 min 0,000 mm 0,0 UV-I 186 W/m 16,5 C 28,3 C 14,5 km/h (3 Bft) 95,74 %
24.06.2017 19:12 28,4 C 27,8 C 50 % 1011,1 hPa 0,0 l/m 6,3 km/h (2 Bft) W-SW 258 2 min 0,000 mm 0,0 UV-I 184 W/m 17,0 C 28,4 C 16,1 km/h (3 Bft) 95,74 %
24.06.2017 19:14 28,3 C 27,8 C 49 % 1011,1 hPa 0,0 l/m 9,7 km/h (2 Bft) W-SW 244 2 min 0,000 mm 0,0 UV-I 179 W/m 16,5 C 27,8 C 14,5 km/h (3 Bft) 95,74 %
24.06.2017 19:16 28,3 C 27,8 C 49 % 1011,2 hPa 0,0 l/m 9,1 km/h (2 Bft) SW 232 2 min 0,000 mm 0,0 UV-I 173 W/m 16,5 C 27,9 C 16,1 km/h (3 Bft) 96,00 %
24.06.2017 19:18 28,3 C 27,8 C 49 % 1011,1 hPa 0,0 l/m 8,0 km/h (2 Bft) W 271 2 min 0,000 mm 0,0 UV-I 169 W/m 16,5 C 28,1 C 14,5 km/h (3 Bft) 97,87 %
24.06.2017 19:20 28,3 C 27,8 C 49 % 1011,2 hPa 0,0 l/m 7,6 km/h (2 Bft) W-SW 246 2 min 0,000 mm 0,0 UV-I 164 W/m 16,5 C 28,1 C 12,9 km/h (3 Bft) 93,62 %
24.06.2017 19:22 28,2 C 27,8 C 49 % 1011,2 hPa 0,0 l/m 6,6 km/h (2 Bft) W-NW 286 2 min 0,000 mm 0,0 UV-I 158 W/m 16,5 C 28,2 C 14,5 km/h (3 Bft) 97,87 %
24.06.2017 19:24 28,2 C 27,8 C 49 % 1011,2 hPa 0,0 l/m 4,6 km/h (1 Bft) W 262 2 min 0,000 mm 0,0 UV-I 155 W/m 16,5 C 28,2 C 6,4 km/h (2 Bft) 97,44 %
24.06.2017 19:26 28,2 C 27,8 C 49 % 1011,2 hPa 0,0 l/m 3,7 km/h (1 Bft) W-NW 291 2 min 0,000 mm 0,0 UV-I 155 W/m 16,5 C 28,2 C 8,0 km/h (2 Bft) 94,34 %
24.06.2017 19:28 28,2 C 27,8 C 49 % 1011,3 hPa 0,0 l/m 7,0 km/h (2 Bft) SW 224 2 min 0,000 mm 0,0 UV-I 155 W/m 16,5 C 28,1 C 17,7 km/h (3 Bft) 95,74 %
24.06.2017 19:30 28,1 C 27,8 C 49 % 1011,3 hPa 0,0 l/m 9,6 km/h (2 Bft) W-SW 245 2 min 0,000 mm 0,0 UV-I 153 W/m 16,4 C 27,6 C 16,1 km/h (3 Bft) 97,87 %
24.06.2017 19:32 28,1 C 27,8 C 49 % 1011,3 hPa 0,0 l/m 10,3 km/h (2 Bft) W-SW 255 2 min 0,000 mm 0,0 UV-I 150 W/m 16,4 C 27,6 C 17,7 km/h (3 Bft) 91,49 %
24.06.2017 19:34 28,1 C 27,8 C 50 % 1011,3 hPa 0,0 l/m 4,8 km/h (1 Bft) W 263 2 min 0,000 mm 0,0 UV-I 144 W/m 16,7 C 28,1 C 9,7 km/h (2 Bft) 100,00 %
24.06.2017 19:36 28,0 C 27,8 C 50 % 1011,3 hPa 0,0 l/m 4,5 km/h (1 Bft) W-SW 253 2 min 0,000 mm 0,0 UV-I 138 W/m 16,6 C 28,0 C 11,3 km/h (2 Bft) 95,74 %
24.06.2017 19:38 28,0 C 27,8 C 50 % 1011,3 hPa 0,0 l/m 4,8 km/h (1 Bft) W-SW 257 2 min 0,000 mm 0,0 UV-I 135 W/m 16,6 C 28,0 C 11,3 km/h (2 Bft) 95,74 %
24.06.2017 19:40 27,9 C 27,8 C 50 % 1011,3 hPa 0,0 l/m 5,7 km/h (1 Bft) W-SW 244 2 min 0,000 mm 0,0 UV-I 132 W/m 16,5 C 27,9 C 17,7 km/h (3 Bft) 100,00 %
24.06.2017 19:42 27,9 C 27,8 C 50 % 1011,3 hPa 0,0 l/m 4,3 km/h (1 Bft) SW 223 2 min 0,000 mm 0,0 UV-I 128 W/m 16,5 C 27,9 C 9,7 km/h (2 Bft) 98,00 %
24.06.2017 19:44 27,9 C 27,8 C 50 % 1011,3 hPa 0,0 l/m 6,5 km/h (2 Bft) NW 311 2 min 0,000 mm 0,0 UV-I 122 W/m 16,5 C 27,9 C 14,5 km/h (3 Bft) 97,37 %
24.06.2017 19:46 27,9 C 27,8 C 51 % 1011,3 hPa 0,0 l/m 8,4 km/h (2 Bft) W 271 2 min 0,000 mm 0,0 UV-I 119 W/m 16,8 C 27,6 C 12,9 km/h (3 Bft) 97,87 %
24.06.2017 19:48 27,8 C 27,8 C 50 % 1011,3 hPa 0,0 l/m 4,3 km/h (1 Bft) W-SW 254 2 min 0,000 mm 0,0 UV-I 118 W/m 16,4 C 27,8 C 9,7 km/h (2 Bft) 97,87 %
24.06.2017 19:50 27,8 C 27,8 C 50 % 1011,3 hPa 0,0 l/m 3,8 km/h (1 Bft) W-SW 246 2 min 0,000 mm 0,0 UV-I 117 W/m 16,4 C 27,8 C 6,4 km/h (2 Bft) 97,87 %
24.06.2017 19:52 27,8 C 27,8 C 51 % 1011,3 hPa 0,0 l/m 5,3 km/h (1 Bft) W-SW 252 2 min 0,000 mm 0,0 UV-I 110 W/m 16,7 C 27,8 C 8,0 km/h (2 Bft) 100,00 %
24.06.2017 19:54 27,8 C 27,8 C 51 % 1011,3 hPa 0,0 l/m 5,2 km/h (1 Bft) W 269 2 min 0,000 mm 0,0 UV-I 100 W/m 16,7 C 27,8 C 11,3 km/h (2 Bft) 97,87 %
24.06.2017 19:56 27,8 C 27,8 C 51 % 1011,3 hPa 0,0 l/m 5,5 km/h (1 Bft) W 269 0 min 0,000 mm 0,0 UV-I 88 W/m 16,7 C 27,8 C 14,5 km/h (3 Bft) 100,00 %
24.06.2017 19:58 27,8 C 27,8 C 51 % 1011,3 hPa 0,0 l/m 6,2 km/h (2 Bft) W-SW 257 0 min 0,000 mm 0,0 UV-I 75 W/m 16,7 C 27,8 C 11,3 km/h (2 Bft) 100,00 %
24.06.2017 20:00 27,7 C 27,8 C 51 % 1011,2 hPa 0,0 l/m 5,4 km/h (1 Bft) W 271 0 min 0,152 mm 0,0 UV-I 67 W/m 16,6 C 27,7 C 9,7 km/h (2 Bft) 95,74 %
24.06.2017 20:02 27,6 C 27,8 C 51 % 1011,3 hPa 0,0 l/m 6,1 km/h (2 Bft) W-SW 251 0 min 0,000 mm 0,0 UV-I 62 W/m 16,5 C 27,6 C 12,9 km/h (3 Bft) 96,00 %
24.06.2017 20:04 27,6 C 27,8 C 52 % 1011,2 hPa 0,0 l/m 4,3 km/h (1 Bft) W-NW 287 0 min 0,000 mm 0,0 UV-I 57 W/m 16,8 C 27,6 C 11,3 km/h (2 Bft) 97,87 %
24.06.2017 20:06 27,5 C 27,8 C 52 % 1011,2 hPa 0,0 l/m 4,4 km/h (1 Bft) W-NW 284 0 min 0,000 mm 0,0 UV-I 51 W/m 16,7 C 27,5 C 6,4 km/h (2 Bft) 97,87 %
24.06.2017 20:08 27,4 C 27,8 C 52 % 1011,2 hPa 0,0 l/m 5,2 km/h (1 Bft) W-SW 253 0 min 0,000 mm 0,0 UV-I 48 W/m 16,7 C 27,4 C 11,3 km/h (2 Bft) 100,00 %
24.06.2017 20:14 27,2 C 27,8 C 52 % 1011,2 hPa 0,0 l/m 5,3 km/h (1 Bft) W 259 0 min 0,000 mm 0,0 UV-I 41 W/m 16,5 C 27,2 C 11,3 km/h (2 Bft) 96,23 %
24.06.2017 20:15 27,2 C 27,8 C 53 % 1011,2 hPa 0,0 l/m 5,0 km/h (1 Bft) W-SW 237 0 min 0,000 mm 0,0 UV-I 36 W/m 16,8 C 27,2 C 9,7 km/h (2 Bft) 100,00 %
24.06.2017 20:16 27,2 C 27,8 C 52 % 1011,2 hPa 0,0 l/m 3,5 km/h (1 Bft) W 261 0 min 0,000 mm 0,0 UV-I 35 W/m 16,5 C 27,2 C 4,8 km/h (1 Bft) 91,67 %
24.06.2017 20:18 27,1 C 27,8 C 53 % 1011,1 hPa 0,0 l/m 4,5 km/h (1 Bft) SW 236 0 min 0,000 mm 0,0 UV-I 33 W/m 16,7 C 27,1 C 6,4 km/h (2 Bft) 100,00 %
24.06.2017 20:20 27,1 C 27,8 C 53 % 1011,2 hPa 0,0 l/m 4,2 km/h (1 Bft) W-NW 282 0 min 0,000 mm 0,0 UV-I 32 W/m 16,7 C 27,1 C 8,0 km/h (2 Bft) 95,74 %
24.06.2017 20:22 26,9 C 27,8 C 53 % 1011,1 hPa 0,0 l/m 3,5 km/h (1 Bft) W-SW 252 0 min 0,000 mm 0,0 UV-I 29 W/m 16,5 C 26,9 C 6,4 km/h (2 Bft) 100,00 %
24.06.2017 20:24 26,9 C 27,8 C 53 % 1011,1 hPa 0,0 l/m 3,4 km/h (1 Bft) W 275 0 min 0,000 mm 0,0 UV-I 26 W/m 16,5 C 26,9 C 4,8 km/h (1 Bft) 100,00 %
24.06.2017 20:26 26,8 C 27,8 C 54 % 1011,2 hPa 0,0 l/m 3,4 km/h (1 Bft) W 269 0 min 0,000 mm 0,0 UV-I 25 W/m 16,7 C 26,8 C 6,4 km/h (2 Bft) 100,00 %
24.06.2017 20:28 26,8 C 27,8 C 54 % 1011,1 hPa 0,0 l/m 2,7 km/h (1 Bft) W 269 0 min 0,000 mm 0,0 UV-I 25 W/m 16,7 C 26,8 C 4,8 km/h (1 Bft) 97,87 %
24.06.2017 20:30 26,7 C 27,8 C 54 % 1011,2 hPa 0,0 l/m 4,8 km/h (1 Bft) W 273 0 min 0,000 mm 0,0 UV-I 26 W/m 16,6 C 26,7 C 9,7 km/h (2 Bft) 94,00 %
24.06.2017 20:32 26,7 C 27,8 C 54 % 1011,2 hPa 0,0 l/m 3,4 km/h (1 Bft) W 275 0 min 0,000 mm 0,0 UV-I 25 W/m 16,6 C 26,7 C 6,4 km/h (2 Bft) 97,44 %
24.06.2017 20:34 26,7 C 27,8 C 54 % 1011,2 hPa 0,0 l/m 3,4 km/h (1 Bft) W 269 0 min 0,000 mm 0,0 UV-I 24 W/m 16,6 C 26,7 C 6,4 km/h (2 Bft) 97,87 %
24.06.2017 20:36 26,6 C 27,8 C 55 % 1011,1 hPa 0,0 l/m 3,5 km/h (1 Bft) W 269 0 min 0,000 mm 0,0 UV-I 22 W/m 16,8 C 26,6 C 4,8 km/h (1 Bft) 100,00 %
24.06.2017 20:38 26,6 C 27,8 C 54 % 1011,1 hPa 0,0 l/m 2,4 km/h (1 Bft) W 269 0 min 0,000 mm 0,0 UV-I 21 W/m 16,5 C 26,6 C 4,8 km/h (1 Bft) 98,00 %
24.06.2017 20:40 26,6 C 27,8 C 55 % 1011,2 hPa 0,0 l/m 4,1 km/h (1 Bft) W 269 0 min 0,000 mm 0,0 UV-I 20 W/m 16,8 C 26,6 C 6,4 km/h (2 Bft) 100,00 %
24.06.2017 20:42 26,5 C 27,8 C 55 % 1011,2 hPa 0,0 l/m 3,8 km/h (1 Bft) W 269 0 min 0,000 mm 0,0 UV-I 19 W/m 16,7 C 26,5 C 6,4 km/h (2 Bft) 98,00 %
24.06.2017 20:44 26,4 C 27,8 C 55 % 1011,3 hPa 0,0 l/m 4,1 km/h (1 Bft) W-SW 244 0 min 0,000 mm 0,0 UV-I 18 W/m 16,6 C 26,4 C 6,4 km/h (2 Bft) 97,37 %
24.06.2017 20:46 26,4 C 27,8 C 56 % 1011,4 hPa 0,0 l/m 4,7 km/h (1 Bft) SW 236 0 min 0,000 mm 0,0 UV-I 17 W/m 16,9 C 26,4 C 6,4 km/h (2 Bft) 100,00 %
24.06.2017 20:48 26,3 C 27,8 C 56 % 1011,4 hPa 0,0 l/m 3,5 km/h (1 Bft) SW 236 0 min 0,000 mm 0,0 UV-I 16 W/m 16,8 C 26,3 C 4,8 km/h (1 Bft) 95,74 %
24.06.2017 20:50 26,2 C 27,8 C 56 % 1011,5 hPa 0,0 l/m 4,4 km/h (1 Bft) SW 235 2 min 0,000 mm 0,0 UV-I 16 W/m 16,7 C 26,2 C 6,4 km/h (2 Bft) 97,37 %
24.06.2017 20:52 26,2 C 27,8 C 56 % 1011,5 hPa 0,0 l/m 3,5 km/h (1 Bft) SW 235 2 min 0,000 mm 0,0 UV-I 18 W/m 16,7 C 26,2 C 6,4 km/h (2 Bft) 98,00 %
24.06.2017 20:54 26,2 C 27,8 C 57 % 1011,6 hPa 0,0 l/m 3,8 km/h (1 Bft) SW 234 2 min 0,000 mm 0,0 UV-I 18 W/m 17,0 C 26,2 C 6,4 km/h (2 Bft) 92,11 %
24.06.2017 20:56 26,1 C 27,8 C 57 % 1011,6 hPa 0,0 l/m 5,3 km/h (1 Bft) SW 232 0 min 0,000 mm 0,0 UV-I 17 W/m 16,9 C 26,1 C 8,0 km/h (2 Bft) 97,56 %
24.06.2017 20:58 26,0 C 27,8 C 57 % 1011,6 hPa 0,0 l/m 4,9 km/h (1 Bft) SW 229 0 min 0,000 mm 0,0 UV-I 15 W/m 16,8 C 26,0 C 8,0 km/h (2 Bft) 96,77 %
24.06.2017 21:00 26,0 C 27,8 C 57 % 1011,7 hPa 0,0 l/m 5,6 km/h (1 Bft) S-SW 198 0 min 0,051 mm 0,0 UV-I 14 W/m 16,8 C 26,0 C 6,4 km/h (2 Bft) 96,00 %
24.06.2017 21:02 25,9 C 27,8 C 58 % 1011,7 hPa 0,0 l/m 4,4 km/h (1 Bft) SW 228 0 min 0,000 mm 0,0 UV-I 13 W/m 17,0 C 25,9 C 6,4 km/h (2 Bft) 97,56 %
24.06.2017 21:04 25,9 C 27,8 C 58 % 1011,8 hPa 0,0 l/m 4,6 km/h (1 Bft) SW 227 0 min 0,000 mm 0,0 UV-I 12 W/m 17,0 C 25,9 C 8,0 km/h (2 Bft) 94,00 %
24.06.2017 21:06 25,8 C 27,8 C 58 % 1011,8 hPa 0,0 l/m 4,3 km/h (1 Bft) SW 227 0 min 0,000 mm 0,0 UV-I 12 W/m 16,9 C 25,8 C 6,4 km/h (2 Bft) 98,00 %
24.06.2017 21:08 25,8 C 27,8 C 58 % 1011,8 hPa 0,0 l/m 4,1 km/h (1 Bft) SW 227 0 min 0,000 mm 0,0 UV-I 11 W/m 16,9 C 25,8 C 6,4 km/h (2 Bft) 97,37 %
24.06.2017 21:10 25,7 C 27,8 C 59 % 1011,8 hPa 0,0 l/m 5,2 km/h (1 Bft) SW 227 0 min 0,000 mm 0,0 UV-I 9 W/m 17,1 C 25,7 C 6,4 km/h (2 Bft) 98,11 %
24.06.2017 21:12 25,7 C 27,8 C 59 % 1011,9 hPa 0,0 l/m 3,9 km/h (1 Bft) SW 227 0 min 0,000 mm 0,0 UV-I 9 W/m 17,1 C 25,7 C 4,8 km/h (1 Bft) 97,62 %
24.06.2017 21:14 25,6 C 27,8 C 59 % 1011,8 hPa 0,0 l/m 3,1 km/h (1 Bft) SW 227 0 min 0,000 mm 0,0 UV-I 7 W/m 17,0 C 25,6 C 4,8 km/h (1 Bft) 97,87 %
24.06.2017 21:16 25,6 C 27,8 C 59 % 1012,0 hPa 0,0 l/m 3,7 km/h (1 Bft) SW 227 0 min 0,000 mm 0,0 UV-I 7 W/m 17,0 C 25,6 C 4,8 km/h (1 Bft) 96,23 %
24.06.2017 21:18 25,6 C 27,8 C 59 % 1012,0 hPa 0,0 l/m 3,2 km/h (1 Bft) SW 227 0 min 0,000 mm 0,0 UV-I 5 W/m 17,0 C 25,6 C 4,8 km/h (1 Bft) 97,37 %
24.06.2017 21:20 25,5 C 27,8 C 59 % 1012,1 hPa 0,0 l/m 3,3 km/h (1 Bft) SW 227 0 min 0,000 mm 0,0 UV-I 5 W/m 16,9 C 25,5 C 4,8 km/h (1 Bft) 96,23 %
24.06.2017 21:23 25,4 C 27,8 C 60 % 1012,0 hPa 0,0 l/m 2,4 km/h (1 Bft) SW 227 0 min 0,000 mm 0,0 UV-I 5 W/m 17,1 C 25,4 C 4,8 km/h (1 Bft) 97,01 %
24.06.2017 21:24 25,4 C 27,8 C 60 % 1012,0 hPa 0,0 l/m 2,5 km/h (1 Bft) SW 227 0 min 0,000 mm 0,0 UV-I 5 W/m 17,1 C 25,4 C 4,8 km/h (1 Bft) 100,00 %
24.06.2017 21:26 25,4 C 27,8 C 60 % 1012,0 hPa 0,0 l/m 2,6 km/h (1 Bft) SW 227 0 min 0,000 mm 0,0 UV-I 5 W/m 17,1 C 25,4 C 4,8 km/h (1 Bft) 100,00 %
24.06.2017 21:28 25,4 C 27,8 C 60 % 1012,0 hPa 0,0 l/m 2,9 km/h (1 Bft) SW 227 0 min 0,000 mm 0,0 UV-I 5 W/m 17,1 C 25,4 C 4,8 km/h (1 Bft) 94,74 %
24.06.2017 21:30 25,3 C 27,8 C 60 % 1011,9 hPa 0,0 l/m 3,7 km/h (1 Bft) SW 227 0 min 0,000 mm 0,0 UV-I 2 W/m 17,0 C 25,3 C 6,4 km/h (2 Bft) 98,11 %
24.06.2017 21:32 25,3 C 27,8 C 60 % 1011,9 hPa 0,0 l/m 3,6 km/h (1 Bft) SW 227 0 min 0,000 mm 0,0 UV-I 0 W/m 17,0 C 25,3 C 6,4 km/h (2 Bft) 97,14 %
24.06.2017 21:34 25,3 C 27,8 C 61 % 1011,9 hPa 0,0 l/m 2,6 km/h (1 Bft) SW 227 0 min 0,000 mm 0,0 UV-I 0 W/m 17,2 C 25,3 C 4,8 km/h (1 Bft) 100,00 %
24.06.2017 21:36 25,3 C 27,8 C 61 % 1011,9 hPa 0,0 l/m 2,8 km/h (1 Bft) SW 227 0 min 0,000 mm 0,0 UV-I 0 W/m 17,2 C 25,3 C 4,8 km/h (1 Bft) 98,31 %
24.06.2017 21:38 25,2 C 27,8 C 61 % 1011,9 hPa 0,0 l/m 2,5 km/h (1 Bft) SW 227 0 min 0,000 mm 0,0 UV-I 0 W/m 17,1 C 25,2 C 4,8 km/h (1 Bft) 94,74 %
24.06.2017 21:40 25,2 C 27,8 C 61 % 1011,9 hPa 0,0 l/m 3,1 km/h (1 Bft) SW 227 0 min 0,000 mm 0,0 UV-I 0 W/m 17,1 C 25,2 C 4,8 km/h (1 Bft) 96,23 %
24.06.2017 21:42 25,1 C 27,8 C 62 % 1011,9 hPa 0,0 l/m 3,3 km/h (1 Bft) SW 227 0 min 0,000 mm 0,0 UV-I 0 W/m 17,3 C 25,1 C 4,8 km/h (1 Bft) 95,45 %
24.06.2017 21:44 25,1 C 27,8 C 62 % 1011,9 hPa 0,0 l/m 1,3 km/h (1 Bft) SW 227 0 min 0,000 mm 0,0 UV-I 0 W/m 17,3 C 25,1 C 3,2 km/h (1 Bft) 98,00 %
24.06.2017 21:46 25,0 C 27,8 C 62 % 1011,9 hPa 0,0 l/m 0,2 km/h (0 Bft) SW 227 0 min 0,000 mm 0,0 UV-I 0 W/m 17,2 C 25,0 C 1,6 km/h (1 Bft) 97,37 %
24.06.2017 21:48 24,9 C 27,8 C 63 % 1011,9 hPa 0,0 l/m 0,4 km/h (0 Bft) SW 227 0 min 0,000 mm 0,0 UV-I 0 W/m 17,4 C 24,9 C 1,6 km/h (1 Bft) 98,00 %
24.06.2017 21:50 24,8 C 27,8 C 63 % 1011,9 hPa 0,0 l/m 0,0 km/h (0 Bft) SW 227 0 min 0,000 mm 0,0 UV-I 0 W/m 17,3 C 24,8 C 0,0 km/h (0 Bft) 95,74 %
24.06.2017 21:52 24,7 C 27,8 C 63 % 1011,9 hPa 0,0 l/m 0,0 km/h (0 Bft) SW 227 0 min 0,000 mm 0,0 UV-I 0 W/m 17,2 C 24,7 C 0,0 km/h (0 Bft) 95,83 %
24.06.2017 21:54 24,7 C 27,8 C 64 % 1011,9 hPa 0,0 l/m 0,0 km/h (0 Bft) SW 227 0 min 0,000 mm 0,0 UV-I 0 W/m 17,4 C 24,7 C 0,0 km/h (0 Bft) 95,74 %
24.06.2017 21:56 24,6 C 27,8 C 64 % 1011,9 hPa 0,0 l/m 0,2 km/h (0 Bft) SW 227 0 min 0,000 mm 0,0 UV-I 0 W/m 17,3 C 24,6 C 1,6 km/h (1 Bft) 98,00 %
24.06.2017 21:58 24,5 C 27,8 C 65 % 1011,9 hPa 0,0 l/m 1,1 km/h (1 Bft) SW 227 0 min 0,000 mm 0,0 UV-I 0 W/m 17,5 C 24,5 C 1,6 km/h (1 Bft) 96,00 %
24.06.2017 22:00 24,4 C 27,8 C 65 % 1012,0 hPa 0,0 l/m 1,6 km/h (1 Bft) SW 227 0 min 0,025 mm 0,0 UV-I 0 W/m 17,4 C 24,4 C 3,2 km/h (1 Bft) 94,29 %
24.06.2017 22:02 24,3 C 27,8 C 65 % 1012,0 hPa 0,0 l/m 1,2 km/h (1 Bft) SW 227 0 min 0,000 mm 0,0 UV-I 0 W/m 17,3 C 24,3 C 3,2 km/h (1 Bft) 98,00 %
24.06.2017 22:04 24,3 C 27,8 C 65 % 1012,0 hPa 0,0 l/m 0,1 km/h (0 Bft) SW 227 0 min 0,000 mm 0,0 UV-I 0 W/m 17,3 C 24,3 C 1,6 km/h (1 Bft) 93,62 %
24.06.2017 22:06 24,2 C 27,8 C 65 % 1012,0 hPa 0,0 l/m 0,0 km/h (0 Bft) SW 227 0 min 0,000 mm 0,0 UV-I 0 W/m 17,2 C 24,2 C 0,0 km/h (0 Bft) 98,11 %
24.06.2017 22:08 24,2 C 27,8 C 66 % 1012,1 hPa 0,0 l/m 0,0 km/h (0 Bft) SW 227 0 min 0,000 mm 0,0 UV-I 0 W/m 17,4 C 24,2 C 1,6 km/h (1 Bft) 95,65 %
24.06.2017 22:10 24,1 C 27,8 C 66 % 1012,2 hPa 0,0 l/m 3,4 km/h (1 Bft) SW 227 0 min 0,000 mm 0,0 UV-I 0 W/m 17,3 C 24,1 C 4,8 km/h (1 Bft) 94,12 %
24.06.2017 22:12 24,1 C 27,8 C 66 % 1012,2 hPa 0,0 l/m 3,6 km/h (1 Bft) SW 227 0 min 0,000 mm 0,0 UV-I 0 W/m 17,3 C 24,1 C 4,8 km/h (1 Bft) 96,00 %
24.06.2017 22:14 24,0 C 27,8 C 66 % 1012,2 hPa 0,0 l/m 4,6 km/h (1 Bft) SW 227 0 min 0,000 mm 0,0 UV-I 0 W/m 17,2 C 24,0 C 6,4 km/h (2 Bft) 97,37 %
24.06.2017 22:16 23,9 C 27,8 C 66 % 1012,2 hPa 0,0 l/m 3,4 km/h (1 Bft) SW 227 0 min 0,000 mm 0,0 UV-I 0 W/m 17,1 C 23,9 C 4,8 km/h (1 Bft) 96,23 %
24.06.2017 22:18 23,9 C 27,8 C 67 % 1012,2 hPa 0,0 l/m 3,0 km/h (1 Bft) SW 227 0 min 0,000 mm 0,0 UV-I 0 W/m 17,4 C 23,9 C 4,8 km/h (1 Bft) 96,00 %
24.06.2017 22:20 23,8 C 27,8 C 67 % 1012,2 hPa 0,0 l/m 3,5 km/h (1 Bft) SW 227 0 min 0,000 mm 0,0 UV-I 0 W/m 17,3 C 23,8 C 4,8 km/h (1 Bft) 95,74 %
24.06.2017 22:22 23,8 C 27,8 C 67 % 1012,2 hPa 0,0 l/m 3,3 km/h (1 Bft) SW 227 0 min 0,000 mm 0,0 UV-I 0 W/m 17,3 C 23,8 C 6,4 km/h (2 Bft) 95,12 %
24.06.2017 22:24 23,7 C 27,8 C 67 % 1012,2 hPa 0,0 l/m 3,2 km/h (1 Bft) SW 227 0 min 0,000 mm 0,0 UV-I 0 W/m 17,2 C 23,7 C 6,4 km/h (2 Bft) 94,87 %
24.06.2017 22:26 23,7 C 27,8 C 67 % 1012,2 hPa 0,0 l/m 2,7 km/h (1 Bft) SW 227 0 min 0,000 mm 0,0 UV-I 0 W/m 17,2 C 23,7 C 6,4 km/h (2 Bft) 92,73 %
24.06.2017 22:28 23,7 C 27,8 C 67 % 1012,3 hPa 0,0 l/m 2,5 km/h (1 Bft) SW 227 0 min 0,000 mm 0,0 UV-I 0 W/m 17,2 C 23,7 C 4,8 km/h (1 Bft) 96,23 %
24.06.2017 22:30 23,6 C 27,8 C 67 % 1012,3 hPa 0,0 l/m 4,4 km/h (1 Bft) SW 227 0 min 0,000 mm 0,0 UV-I 0 W/m 17,1 C 23,6 C 6,4 km/h (2 Bft) 93,62 %
24.06.2017 22:32 23,6 C 27,8 C 67 % 1012,3 hPa 0,0 l/m 4,1 km/h (1 Bft) SW 227 0 min 0,000 mm 0,0 UV-I 0 W/m 17,1 C 23,6 C 6,4 km/h (2 Bft) 94,87 %
24.06.2017 22:34 23,6 C 27,8 C 67 % 1012,3 hPa 0,0 l/m 3,4 km/h (1 Bft) SW 227 0 min 0,000 mm 0,0 UV-I 0 W/m 17,1 C 23,6 C 6,4 km/h (2 Bft) 98,11 %
24.06.2017 22:36 23,6 C 27,8 C 67 % 1012,4 hPa 0,0 l/m 4,5 km/h (1 Bft) SW 227 0 min 0,000 mm 0,0 UV-I 0 W/m 17,1 C 23,6 C 8,0 km/h (2 Bft) 96,00 %
24.06.2017 22:38 23,6 C 27,8 C 68 % 1012,4 hPa 0,0 l/m 5,5 km/h (1 Bft) SW 226 0 min 0,000 mm 0,0 UV-I 0 W/m 17,3 C 23,6 C 8,0 km/h (2 Bft) 97,56 %
24.06.2017 22:40 23,6 C 27,8 C 68 % 1012,4 hPa 0,0 l/m 4,5 km/h (1 Bft) SW 226 0 min 0,000 mm 0,0 UV-I 0 W/m 17,3 C 23,6 C 8,0 km/h (2 Bft) 96,00 %
24.06.2017 22:42 23,6 C 27,8 C 68 % 1012,4 hPa 0,0 l/m 4,0 km/h (1 Bft) SW 226 0 min 0,000 mm 0,0 UV-I 0 W/m 17,3 C 23,6 C 6,4 km/h (2 Bft) 94,74 %
24.06.2017 22:44 23,6 C 27,8 C 68 % 1012,4 hPa 0,0 l/m 3,1 km/h (1 Bft) SW 226 0 min 0,000 mm 0,0 UV-I 0 W/m 17,3 C 23,6 C 8,0 km/h (2 Bft) 96,23 %
24.06.2017 22:46 23,5 C 27,8 C 68 % 1012,4 hPa 0,0 l/m 3,9 km/h (1 Bft) SW 226 0 min 0,000 mm 0,0 UV-I 0 W/m 17,2 C 23,5 C 6,4 km/h (2 Bft) 97,56 %
24.06.2017 22:48 23,5 C 27,8 C 68 % 1012,5 hPa 0,0 l/m 5,7 km/h (1 Bft) SW 225 0 min 0,000 mm 0,0 UV-I 0 W/m 17,2 C 23,5 C 8,0 km/h (2 Bft) 96,00 %
24.06.2017 22:50 23,4 C 27,8 C 68 % 1012,4 hPa 0,0 l/m 7,0 km/h (2 Bft) S-SW 212 0 min 0,000 mm 0,0 UV-I 0 W/m 17,1 C 23,2 C 11,3 km/h (2 Bft) 96,23 %
24.06.2017 22:52 23,4 C 27,8 C 68 % 1012,4 hPa 0,0 l/m 5,5 km/h (1 Bft) SW 215 0 min 0,000 mm 0,0 UV-I 0 W/m 17,1 C 23,4 C 9,7 km/h (2 Bft) 97,14 %
24.06.2017 22:54 23,4 C 27,8 C 68 % 1012,4 hPa 0,0 l/m 3,7 km/h (1 Bft) SW 215 0 min 0,000 mm 0,0 UV-I 0 W/m 17,1 C 23,4 C 6,4 km/h (2 Bft) 94,44 %
24.06.2017 22:56 23,4 C 27,8 C 69 % 1012,4 hPa 0,0 l/m 6,7 km/h (2 Bft) S-SW 213 0 min 0,000 mm 0,0 UV-I 0 W/m 17,4 C 23,3 C 9,7 km/h (2 Bft) 96,23 %
24.06.2017 22:58 23,4 C 27,8 C 69 % 1012,5 hPa 0,0 l/m 6,9 km/h (2 Bft) SW 219 0 min 0,000 mm 0,0 UV-I 0 W/m 17,4 C 23,3 C 9,7 km/h (2 Bft) 97,56 %
24.06.2017 23:00 23,4 C 27,8 C 69 % 1012,5 hPa 0,0 l/m 5,7 km/h (1 Bft) SW 217 0 min 0,026 mm 0,0 UV-I 0 W/m 17,4 C 23,4 C 8,0 km/h (2 Bft) 96,00 %
24.06.2017 23:02 23,4 C 27,8 C 69 % 1012,6 hPa 0,0 l/m 7,2 km/h (2 Bft) SW 215 0 min 0,000 mm 0,0 UV-I 0 W/m 17,4 C 23,2 C 12,9 km/h (3 Bft) 97,87 %
24.06.2017 23:04 23,4 C 27,8 C 69 % 1012,6 hPa 0,0 l/m 7,6 km/h (2 Bft) S-SW 209 0 min 0,000 mm 0,0 UV-I 0 W/m 17,4 C 23,0 C 11,3 km/h (2 Bft) 96,30 %
24.06.2017 23:06 23,4 C 27,8 C 69 % 1012,7 hPa 0,0 l/m 8,3 km/h (2 Bft) SW 219 0 min 0,000 mm 0,0 UV-I 0 W/m 17,4 C 22,8 C 12,9 km/h (3 Bft) 95,31 %
24.06.2017 23:08 23,3 C 27,8 C 69 % 1012,6 hPa 0,0 l/m 7,2 km/h (2 Bft) S-SW 207 0 min 0,000 mm 0,0 UV-I 0 W/m 17,3 C 23,1 C 11,3 km/h (2 Bft) 95,74 %
24.06.2017 23:10 23,3 C 27,8 C 69 % 1012,6 hPa 0,0 l/m 7,5 km/h (2 Bft) SW 215 0 min 0,000 mm 0,0 UV-I 0 W/m 17,3 C 23,0 C 11,3 km/h (2 Bft) 95,74 %
24.06.2017 23:12 23,3 C 27,8 C 69 % 1012,7 hPa 0,0 l/m 8,7 km/h (2 Bft) S-SW 199 0 min 0,000 mm 0,0 UV-I 0 W/m 17,3 C 22,6 C 12,9 km/h (3 Bft) 96,67 %
24.06.2017 23:14 23,3 C 27,8 C 69 % 1012,8 hPa 0,0 l/m 8,5 km/h (2 Bft) SW 223 0 min 0,000 mm 0,0 UV-I 0 W/m 17,3 C 22,7 C 12,9 km/h (3 Bft) 100,00 %
24.06.2017 23:16 23,3 C 27,8 C 69 % 1012,7 hPa 0,0 l/m 7,8 km/h (2 Bft) SW 225 0 min 0,000 mm 0,0 UV-I 0 W/m 17,3 C 22,9 C 11,3 km/h (2 Bft) 96,00 %
24.06.2017 23:18 23,3 C 27,8 C 69 % 1012,7 hPa 0,0 l/m 8,2 km/h (2 Bft) SW 217 0 min 0,000 mm 0,0 UV-I 0 W/m 17,3 C 22,8 C 12,9 km/h (3 Bft) 100,00 %
24.06.2017 23:20 23,3 C 27,8 C 69 % 1012,7 hPa 0,0 l/m 9,3 km/h (2 Bft) SW 234 0 min 0,000 mm 0,0 UV-I 0 W/m 17,3 C 22,5 C 17,7 km/h (3 Bft) 98,00 %
24.06.2017 23:23 23,3 C 27,8 C 69 % 1012,7 hPa 0,0 l/m 9,8 km/h (2 Bft) SW 224 0 min 0,000 mm 0,0 UV-I 0 W/m 17,3 C 22,3 C 16,1 km/h (3 Bft) 95,71 %
24.06.2017 23:24 23,3 C 27,8 C 69 % 1012,7 hPa 0,0 l/m 9,3 km/h (2 Bft) SW 215 0 min 0,000 mm 0,0 UV-I 0 W/m 17,3 C 22,5 C 12,9 km/h (3 Bft) 93,33 %
24.06.2017 23:26 23,3 C 27,8 C 69 % 1012,7 hPa 0,0 l/m 10,9 km/h (2 Bft) SW 224 0 min 0,000 mm 0,0 UV-I 0 W/m 17,3 C 22,1 C 14,5 km/h (3 Bft) 98,11 %
24.06.2017 23:28 23,2 C 27,8 C 69 % 1012,7 hPa 0,0 l/m 10,0 km/h (2 Bft) SW 234 0 min 0,000 mm 0,0 UV-I 0 W/m 17,2 C 22,2 C 16,1 km/h (3 Bft) 100,00 %
24.06.2017 23:30 23,2 C 27,8 C 70 % 1012,8 hPa 0,0 l/m 10,4 km/h (2 Bft) SW 231 0 min 0,000 mm 0,0 UV-I 0 W/m 17,4 C 22,1 C 16,1 km/h (3 Bft) 97,87 %
24.06.2017 23:32 23,2 C 27,8 C 70 % 1012,7 hPa 0,0 l/m 10,0 km/h (2 Bft) W-SW 238 0 min 0,000 mm 0,0 UV-I 0 W/m 17,4 C 22,2 C 14,5 km/h (3 Bft) 100,00 %
24.06.2017 23:34 23,2 C 27,8 C 70 % 1012,7 hPa 0,0 l/m 9,8 km/h (2 Bft) SW 234 0 min 0,000 mm 0,0 UV-I 0 W/m 17,4 C 22,2 C 14,5 km/h (3 Bft) 98,31 %
24.06.2017 23:36 23,2 C 27,8 C 70 % 1012,8 hPa 0,0 l/m 10,0 km/h (2 Bft) W-SW 241 0 min 0,000 mm 0,0 UV-I 0 W/m 17,4 C 22,2 C 14,5 km/h (3 Bft) 97,56 %
24.06.2017 23:38 23,2 C 27,8 C 70 % 1012,8 hPa 0,0 l/m 9,1 km/h (2 Bft) SW 222 0 min 0,000 mm 0,0 UV-I 0 W/m 17,4 C 22,4 C 12,9 km/h (3 Bft) 100,00 %
24.06.2017 23:40 23,2 C 27,8 C 70 % 1012,8 hPa 0,0 l/m 8,5 km/h (2 Bft) SW 227 0 min 0,000 mm 0,0 UV-I 0 W/m 17,4 C 22,6 C 14,5 km/h (3 Bft) 97,56 %
24.06.2017 23:42 23,1 C 27,8 C 70 % 1012,8 hPa 0,0 l/m 8,0 km/h (2 Bft) SW 229 0 min 0,000 mm 0,0 UV-I 0 W/m 17,3 C 22,6 C 11,3 km/h (2 Bft) 100,00 %
24.06.2017 23:44 23,1 C 27,8 C 70 % 1012,9 hPa 0,0 l/m 8,3 km/h (2 Bft) SW 222 0 min 0,000 mm 0,0 UV-I 0 W/m 17,3 C 22,5 C 12,9 km/h (3 Bft) 95,74 %
24.06.2017 23:46 23,1 C 27,8 C 70 % 1012,9 hPa 0,0 l/m 7,4 km/h (2 Bft) W-SW 243 0 min 0,000 mm 0,0 UV-I 0 W/m 17,3 C 22,8 C 14,5 km/h (3 Bft) 98,11 %
24.06.2017 23:48 23,1 C 27,8 C 70 % 1012,9 hPa 0,0 l/m 8,5 km/h (2 Bft) SW 234 0 min 0,000 mm 0,0 UV-I 0 W/m 17,3 C 22,5 C 12,9 km/h (3 Bft) 100,00 %
24.06.2017 23:50 23,1 C 27,8 C 70 % 1012,9 hPa 0,0 l/m 8,0 km/h (2 Bft) W-SW 240 0 min 0,000 mm 0,0 UV-I 0 W/m 17,3 C 22,6 C 11,3 km/h (2 Bft) 98,51 %
24.06.2017 23:52 23,1 C 27,8 C 70 % 1012,9 hPa 0,0 l/m 8,3 km/h (2 Bft) SW 229 0 min 0,000 mm 0,0 UV-I 0 W/m 17,3 C 22,5 C 11,3 km/h (2 Bft) 100,00 %
24.06.2017 23:54 23,1 C 27,8 C 70 % 1012,8 hPa 0,0 l/m 7,4 km/h (2 Bft) SW 228 0 min 0,000 mm 0,0 UV-I 0 W/m 17,3 C 22,8 C 12,9 km/h (3 Bft) 100,00 %
24.06.2017 23:56 23,1 C 27,8 C 70 % 1012,8 hPa 0,0 l/m 7,9 km/h (2 Bft) SW 217 0 min 0,000 mm 0,0 UV-I 0 W/m 17,3 C 22,6 C 14,5 km/h (3 Bft) 100,00 %
24.06.2017 23:58 23,0 C 27,8 C 70 % 1012,8 hPa 0,0 l/m 6,4 km/h (2 Bft) SW 232 0 min 0,000 mm 0,0 UV-I 0 W/m 17,2 C 23,0 C 11,3 km/h (2 Bft) 97,87 %
_ Min-Zeit 05:40 09:56 14:52 18:50 - 21:50 - - - - - - 00:32 05:30 21:50 18:48
Minimum _ 19,0 C 26,1 C 44 % 1011,0 hPa - 0,0 km/h (0 Bft) - - - - - - 11,5 C 17,9 C 0,0 km/h (0 Bft) 85,11 %
_ Max-Zeit 17:00 18:30 04:54 09:30 00:00 11:20 - - 08:03 13:00 12:32 12:16 17:46 17:00 11:20 00:20
Maximum _ 30,2 C 28,3 C 71 % 1015,5 hPa 0,0 l/m 18,9 km/h
W-SW (3 Bft)
- - 3 min 0,660 mm 6,1 UV-I 951 W/m 17,8 C 30,2 C 30,6 km/h
W-SW (5 Bft)
100,00 %
Durchschnitt _ 24,5 C 27,6 C 57 % 1013,6 hPa #0,0 l/m 6,6 km/h (2 Bft) SW - #13:08 h #6,198 mm 3,4 UV-I 474 W/m 15,1 C 24,3 C 12,0 km/h (2 Bft) 96,46 %